Provisional Data: Nanticoke Creek near Maine, NY


Please select a monitoring station.
Please select start date.
Please select start date.

Toggle Unit: C/F Toggle Unit: C/F
Sample Time Temperature (C) Temperature (F) Specific Conductivity (mS/cm) pH   Turbidity (NTU+) DO (mg/L)
12/23/2022 12:00:00 AM 1.37 34.466 0.141 7.15 3.12 13.65
12/23/2022 12:15:00 AM 1.39 34.502 0.142 7.16 3.17 13.63
12/23/2022 12:30:00 AM 1.4 34.52 0.144 7.15 3.34 13.61
12/23/2022 12:45:00 AM 1.42 34.556 0.146 7.15 3.79 13.59
12/23/2022 1:00:00 AM 1.44 34.592 0.148 7.14 3.91 13.59
12/23/2022 1:15:00 AM 1.46 34.628 0.15 7.15 4.28 13.58
12/23/2022 1:30:00 AM 1.46 34.628 0.153 7.14 4.73 13.56
12/23/2022 1:45:00 AM 1.47 34.646 0.157 7.12 5.63 13.55
12/23/2022 2:00:00 AM 1.45 34.61 0.164 7.13 6.92 13.55
12/23/2022 2:15:00 AM 1.44 34.592 0.171 7.14 8.54 13.55
12/23/2022 2:30:00 AM 1.41 34.538 0.178 7.13 11 13.55
12/23/2022 2:45:00 AM 1.36 34.448 0.184 7.11 13.29 13.55
12/23/2022 3:00:00 AM 1.29 34.322 0.19 7.11 20.69 13.54
12/23/2022 3:15:00 AM 1.23 34.214 0.193 7.1 26.65 13.54
12/23/2022 3:30:00 AM 1.15 34.07 0.196 7.09 33.16 13.55
12/23/2022 3:45:00 AM 1.05 33.89 0.195 7.07 43.66 13.54
12/23/2022 4:00:00 AM 0.89 33.602 0.189 7.07 55.92 13.55
12/23/2022 4:15:00 AM 0.78 33.404 0.181 7.08 78.27 13.59
12/23/2022 4:30:00 AM 0.67 33.206 0.172 7.05 97.21 13.62
12/23/2022 4:45:00 AM 0.54 32.972 0.166 7.02 120.13 13.66
12/23/2022 5:00:00 AM 0.44 32.792 0.16 7.03 135.72 13.72
12/23/2022 5:15:00 AM 0.35 32.63 0.155 6.98 141.63 13.77
12/23/2022 5:30:00 AM 0.31 32.558 0.149 6.98 154.16 13.81
12/23/2022 5:45:00 AM 0.29 32.522 0.145 6.99 158.08 13.84
12/23/2022 6:00:00 AM 0.28 32.504 0.139 6.97 155.52 13.84
12/23/2022 6:15:00 AM 0.27 32.486 0.132 6.98 165.05 13.83
12/23/2022 6:30:00 AM 0.27 32.486 0.126 6.95 160.72 13.82
12/23/2022 6:45:00 AM 0.28 32.504 0.121 6.97 166.25 13.81
12/23/2022 7:00:00 AM 0.29 32.522 0.117 6.96 177.36 13.79
12/23/2022 7:15:00 AM 0.3 32.54 0.113 6.94 173.61 13.78
12/23/2022 7:30:00 AM 0.32 32.576 0.109 6.94 162.1 13.75
12/23/2022 7:45:00 AM 0.34 32.612 0.108 6.96 168.46 13.73
12/23/2022 8:00:00 AM 0.36 32.648 0.105 6.91 155.26 13.72
12/23/2022 8:15:00 AM 0.39 32.702 0.103 6.95 150.84 13.69
12/23/2022 8:30:00 AM 0.42 32.756 0.102 6.94 143.2 13.66
12/23/2022 8:45:00 AM 0.45 32.81 0.101 6.93 138.84 13.64
12/23/2022 9:00:00 AM 0.49 32.882 0.1 6.94 124.82 13.62
12/23/2022 9:15:00 AM 0.52 32.936 0.099 6.91 136.11 13.6
12/23/2022 9:30:00 AM 0.57 33.026 0.098 6.94 133.58 13.58
12/23/2022 9:45:00 AM 0.62 33.116 0.098 6.9 119.36 13.57
12/23/2022 10:00:00 AM 0.68 33.224 0.097 6.89 111.11 13.55
12/23/2022 10:15:00 AM 0.73 33.314 0.096 6.92 113.98 13.54
12/23/2022 10:30:00 AM 0.79 33.422 0.095 6.93 261.38 13.52
12/23/2022 10:45:00 AM 0.86 33.548 0.095 6.94 84.83 13.51
12/23/2022 11:00:00 AM 0.92 33.656 0.095 6.87 82.92 13.49
12/23/2022 11:15:00 AM 0.97 33.746 0.095 6.95 80.25 13.47
12/23/2022 11:30:00 AM 1.02 33.836 0.095 6.93 76.32 13.46
12/23/2022 11:45:00 AM 1.04 33.872 0.095 6.94 72.12 13.45
12/23/2022 12:00:00 PM 1.06 33.908 0.094 6.93 70.85 13.45
12/23/2022 12:15:00 PM 1.04 33.872 0.094 6.92 71.9 13.44
12/23/2022 12:30:00 PM 1.04 33.872 0.094 6.89 71.37 13.44
12/23/2022 12:45:00 PM 1.02 33.836 0.093 6.92 64.69 13.45
12/23/2022 1:00:00 PM 0.99 33.782 0.093 6.93 76.48 13.45
12/23/2022 1:15:00 PM 0.95 33.71 0.092 6.89 63.96 13.47
12/23/2022 1:30:00 PM 0.89 33.602 0.091 6.83 63.9 13.49
12/23/2022 1:45:00 PM 0.86 33.548 0.091 6.9 67.88 13.51
12/23/2022 2:00:00 PM 0.84 33.512 0.09 6.88 69.99 13.53
12/23/2022 2:15:00 PM 0.8 33.44 0.089 6.85 65.07 13.55
12/23/2022 2:30:00 PM 0.78 33.404 0.088 6.88 63.72 13.57
12/23/2022 2:45:00 PM 0.74 33.332 0.088 6.88 70.42 13.58
12/23/2022 3:00:00 PM 0.7 33.26 0.088 6.86 61.25 13.6
12/23/2022 3:15:00 PM 0.65 33.17 0.088 6.8 66.13 13.62
12/23/2022 3:30:00 PM 0.61 33.098 0.088 6.87 62.28 13.64
12/23/2022 3:45:00 PM 0.56 33.008 0.088 6.85 60.34 13.66
12/23/2022 4:00:00 PM 0.51 32.918 0.088 6.83 57.69 13.67
12/23/2022 4:15:00 PM 0.46 32.828 0.089 6.85 57.06 13.69
12/23/2022 4:30:00 PM 0.42 32.756 0.089 6.81 49.43 13.7
12/23/2022 4:45:00 PM 0.37 32.666 0.09 6.84 46.15 13.71
12/23/2022 5:00:00 PM 0.32 32.576 0.09 6.82 38.51 13.73
12/23/2022 5:15:00 PM 0.27 32.486 0.09 6.82 47.65 13.75
12/23/2022 5:30:00 PM 0.21 32.378 0.091 6.81 48.1 13.77
12/23/2022 5:45:00 PM 0.15 32.27 0.091 6.81 41.74 13.79
12/23/2022 6:00:00 PM 0.09 32.162 0.092 6.79 43.75 13.81
12/23/2022 6:15:00 PM 0.04 32.072 0.092 6.78 41.85 13.83
12/23/2022 6:30:00 PM -0.01 31.982 0.092 6.79 38.72 13.86
12/23/2022 6:45:00 PM -0.05 31.91 0.092 6.8 39.87 13.89
12/23/2022 7:00:00 PM -0.07 31.874 0.092 6.79 36.89 13.91
12/23/2022 7:15:00 PM -0.07 31.874 0.092 6.79 37.46 13.94
12/23/2022 7:30:00 PM -0.07 31.874 0.091 6.79 35.49 13.96
12/23/2022 7:45:00 PM -0.07 31.874 0.092 6.81 31.16 13.98
12/23/2022 8:00:00 PM -0.07 31.874 0.092 6.8 26.11 14
12/23/2022 8:15:00 PM -0.07 31.874 0.092 6.81 26.3 14.01
12/23/2022 8:30:00 PM -0.07 31.874 0.092 6.83 25.29 14.02
12/23/2022 8:45:00 PM -0.07 31.874 0.092 6.83 27.02 14.03
12/23/2022 9:00:00 PM -0.07 31.874 0.092 6.83 20.45 14.05
12/23/2022 9:15:00 PM -0.07 31.874 0.093 6.83 22.14 14.05
12/23/2022 9:30:00 PM -0.07 31.874 0.093 6.83 18.07 14.06
12/23/2022 9:45:00 PM -0.07 31.874 0.093 6.83 22.18 14.07
12/23/2022 10:00:00 PM -0.07 31.874 0.093 6.81 21.18 14.07
12/23/2022 10:15:00 PM -0.06 31.892 0.093 6.84 19.81 14.08
12/23/2022 10:30:00 PM -0.06 31.892 0.093 6.85 22.32 14.08
12/23/2022 10:45:00 PM -0.06 31.892 0.094 6.83 20.82 14.08
12/23/2022 11:00:00 PM -0.06 31.892 0.094 6.85 17.81 14.09
12/23/2022 11:15:00 PM -0.06 31.892 0.094 6.85 19.09 14.09
12/23/2022 11:30:00 PM -0.06 31.892 0.094 6.85 17.45 14.09
12/23/2022 11:45:00 PM -0.06 31.892 0.094 6.85 19.6 14.09
12/24/2022 12:00:00 AM -0.06 31.892 0.094 6.85 18.14 14.09
12/24/2022 12:15:00 AM -0.06 31.892 0.094 6.85 18.47 14.09
12/24/2022 12:30:00 AM -0.06 31.892 0.094 6.85 15.19 14.09
12/24/2022 12:45:00 AM -0.06 31.892 0.094 6.86 16.45 14.09
12/24/2022 1:00:00 AM -0.06 31.892 0.094 6.85 15.41 14.09
12/24/2022 1:15:00 AM -0.06 31.892 0.094 6.83 16.71 14.09
12/24/2022 1:30:00 AM -0.06 31.892 0.094 6.86 16.84 14.09
12/24/2022 1:45:00 AM -0.06 31.892 0.094 6.85 13.83 14.09
12/24/2022 2:00:00 AM -0.06 31.892 0.095 6.86 15.75 14.08
12/24/2022 2:15:00 AM -0.06 31.892 0.095 6.86 15.07 14.09
12/24/2022 2:30:00 AM -0.06 31.892 0.095 6.85 15.25 14.09
12/24/2022 2:45:00 AM -0.06 31.892 0.095 6.86 12.61 14.09
12/24/2022 3:00:00 AM -0.06 31.892 0.095 6.86 15.67 14.09
12/24/2022 3:15:00 AM -0.06 31.892 0.095 6.83 14.63 14.09
12/24/2022 3:30:00 AM -0.06 31.892 0.095 6.84 13.43 14.09
12/24/2022 3:45:00 AM -0.06 31.892 0.095 6.86 12.69 14.09
12/24/2022 4:00:00 AM -0.06 31.892 0.095 6.85 12.22 14.09
12/24/2022 4:15:00 AM -0.06 31.892 0.095 6.86 12.67 14.09
12/24/2022 4:30:00 AM -0.06 31.892 0.095 6.86 13.99 14.09
12/24/2022 4:45:00 AM -0.06 31.892 0.096 6.86 13.35 14.09
12/24/2022 5:00:00 AM -0.06 31.892 0.096 6.84 12.71 14.09
12/24/2022 5:15:00 AM -0.06 31.892 0.096 6.86 14.77 14.08
12/24/2022 5:30:00 AM -0.06 31.892 0.096 6.84 12.53 14.09
12/24/2022 5:45:00 AM -0.06 31.892 0.096 6.86 12.72 14.09
12/24/2022 6:00:00 AM -0.06 31.892 0.096 6.85 11.43 14.09
12/24/2022 6:15:00 AM -0.06 31.892 0.096 6.85 12.43 14.09
12/24/2022 6:30:00 AM -0.06 31.892 0.096 6.83 12.61 14.08
12/24/2022 6:45:00 AM -0.05 31.91 0.096 6.86 12.98 14.09
12/24/2022 7:00:00 AM -0.06 31.892 0.096 6.86 12.17 14.08
12/24/2022 7:15:00 AM -0.05 31.91 0.096 6.85 12.65 14.07
12/24/2022 7:30:00 AM -0.06 31.892 0.097 6.85 11.72 14.08
12/24/2022 7:45:00 AM -0.05 31.91 0.097 6.85 11.72 14.08
12/24/2022 8:00:00 AM -0.05 31.91 0.097 6.85 11.87 14.06
12/24/2022 8:15:00 AM -0.05 31.91 0.097 6.85 11.87 14.07
12/24/2022 8:30:00 AM -0.05 31.91 0.097 6.86 11.95 14.08
12/24/2022 8:45:00 AM -0.05 31.91 0.097 6.82 11.9 14.08
12/24/2022 9:00:00 AM -0.06 31.892 0.096 6.85 12.95 14.09
12/24/2022 9:15:00 AM -0.06 31.892 0.096 6.84 11.45 14.09
12/24/2022 9:30:00 AM -0.06 31.892 0.097 6.85 10.99 14.09
12/24/2022 9:45:00 AM -0.06 31.892 0.096 6.86 11.6 14.1
12/24/2022 10:00:00 AM -0.06 31.892 0.096 6.86 12.22 14.11
12/24/2022 10:15:00 AM -0.06 31.892 0.096 6.86 13.3 14.12
12/24/2022 10:30:00 AM -0.06 31.892 0.096 6.86 12.04 14.13
12/24/2022 10:45:00 AM -0.06 31.892 0.096 6.86 12.43 14.13
12/24/2022 11:00:00 AM -0.06 31.892 0.096 6.86 11.99 14.14
12/24/2022 11:15:00 AM -0.06 31.892 0.096 6.86 12.07 14.14
12/24/2022 11:30:00 AM -0.05 31.91 0.096 6.86 12.54 14.14
12/24/2022 11:45:00 AM -0.05 31.91 0.096 6.86 12.46 14.15
12/24/2022 12:00:00 PM -0.06 31.892 0.096 6.87 12.17 14.16
12/24/2022 12:15:00 PM -0.06 31.892 0.096 6.87 11.8 14.15
12/24/2022 12:30:00 PM -0.06 31.892 0.096 6.86 11.92 14.16
12/24/2022 12:45:00 PM -0.06 31.892 0.096 6.85 12.7 14.16
12/24/2022 1:00:00 PM -0.06 31.892 0.096 6.85 12.43 14.17
12/24/2022 1:15:00 PM -0.06 31.892 0.096 6.87 12.57 14.16
12/24/2022 1:30:00 PM -0.06 31.892 0.096 6.87 14.03 14.16
12/24/2022 1:45:00 PM -0.06 31.892 0.095 6.85 11.63 14.17
12/24/2022 2:00:00 PM -0.06 31.892 0.096 6.86 10.53 14.17
12/24/2022 2:15:00 PM -0.06 31.892 0.095 6.86 11.29 14.18
12/24/2022 2:30:00 PM -0.06 31.892 0.095 6.84 10.98 14.18
12/24/2022 2:45:00 PM -0.06 31.892 0.095 6.85 10.49 14.18
12/24/2022 3:00:00 PM -0.06 31.892 0.095 6.85 10.69 14.18
12/24/2022 3:15:00 PM -0.07 31.874 0.095 6.83 10.79 14.18
12/24/2022 3:30:00 PM -0.07 31.874 0.095 6.84 10.22 14.18
12/24/2022 3:45:00 PM -0.07 31.874 0.095 6.84 10.26 14.18
12/24/2022 4:00:00 PM -0.07 31.874 0.095 6.79 10.68 14.18
12/24/2022 4:15:00 PM -0.07 31.874 0.095 6.83 9.73 14.18
12/24/2022 4:30:00 PM -0.07 31.874 0.095 6.81 10.91 14.18
12/24/2022 4:45:00 PM -0.07 31.874 0.095 6.82 10.32 14.18
12/24/2022 5:00:00 PM -0.07 31.874 0.095 6.83 9.94 14.18
12/24/2022 5:15:00 PM -0.07 31.874 0.095 6.8 9.86 14.17
12/24/2022 5:30:00 PM -0.07 31.874 0.095 6.82 9.54 14.17
12/24/2022 5:45:00 PM -0.07 31.874 0.095 6.81 9.44 14.16
12/24/2022 6:00:00 PM -0.07 31.874 0.095 6.82 9.4 14.16
12/24/2022 6:15:00 PM -0.07 31.874 0.095 6.82 9.19 14.15
12/24/2022 6:30:00 PM -0.07 31.874 0.095 6.81 9.07 14.15
12/24/2022 6:45:00 PM -0.07 31.874 0.095 6.8 8.79 14.15
12/24/2022 7:00:00 PM -0.07 31.874 0.095 6.81 9.26 14.14
12/24/2022 7:15:00 PM -0.07 31.874 0.095 6.8 8.89 14.14
12/24/2022 7:30:00 PM -0.07 31.874 0.095 6.81 8.87 14.14
12/24/2022 7:45:00 PM -0.07 31.874 0.096 6.81 8.34 14.14
12/24/2022 8:00:00 PM -0.07 31.874 0.096 6.81 8.7 14.13
12/24/2022 8:15:00 PM -0.07 31.874 0.096 6.81 8.66 14.13
12/24/2022 8:30:00 PM -0.07 31.874 0.096 6.8 8.76 14.13
12/24/2022 8:45:00 PM -0.07 31.874 0.096 6.79 8.59 14.12
12/24/2022 9:00:00 PM -0.07 31.874 0.096 6.81 8.41 14.12
12/24/2022 9:15:00 PM -0.07 31.874 0.096 6.8 8.41 14.12
12/24/2022 9:30:00 PM -0.07 31.874 0.096 6.8 8.21 14.12
12/24/2022 9:45:00 PM -0.07 31.874 0.096 6.81 8.63 14.12
12/24/2022 10:00:00 PM -0.07 31.874 0.096 6.79 8.55 14.12
12/24/2022 10:15:00 PM -0.07 31.874 0.096 6.79 8.19 14.12
12/24/2022 10:30:00 PM -0.07 31.874 0.096 6.8 8.28 14.12
12/24/2022 10:45:00 PM -0.07 31.874 0.096 6.8 8.27 14.12
12/24/2022 11:00:00 PM -0.07 31.874 0.096 6.79 8.04 14.11
12/24/2022 11:15:00 PM -0.07 31.874 0.096 6.81 8.25 14.12
12/24/2022 11:30:00 PM -0.07 31.874 0.096 6.8 8.11 14.12
12/24/2022 11:45:00 PM -0.07 31.874 0.096 6.8 7.91 14.12
12/25/2022 12:00:00 AM -0.07 31.874 0.096 6.8 8.39 14.12
12/25/2022 12:15:00 AM -0.07 31.874 0.096 6.81 8.75 14.12
12/25/2022 12:30:00 AM -0.07 31.874 0.096 6.8 8.39 14.12
12/25/2022 12:45:00 AM -0.07 31.874 0.096 6.8 8.07 14.12
12/25/2022 1:00:00 AM -0.07 31.874 0.096 6.79 7.71 14.12
12/25/2022 1:15:00 AM -0.07 31.874 0.096 6.8 7.82 14.12
12/25/2022 1:30:00 AM -0.07 31.874 0.096 6.8 8.02 14.12
12/25/2022 1:45:00 AM -0.07 31.874 0.096 6.8 7.99 14.12
12/25/2022 2:00:00 AM -0.07 31.874 0.096 6.81 8.07 14.12
12/25/2022 2:15:00 AM -0.07 31.874 0.096 6.81 8.27 14.11
12/25/2022 2:30:00 AM -0.07 31.874 0.096 6.8 7.95 14.11
12/25/2022 2:45:00 AM -0.07 31.874 0.096 6.78 8.59 14.11
12/25/2022 3:00:00 AM -0.07 31.874 0.096 6.81 8.24 14.11
12/25/2022 3:15:00 AM -0.07 31.874 0.096 6.79 8.12 14.11
12/25/2022 3:30:00 AM -0.07 31.874 0.096 6.82 8.05 14.11
12/25/2022 3:45:00 AM -0.07 31.874 0.096 6.81 8 14.11
12/25/2022 4:00:00 AM -0.07 31.874 0.096 6.77 7.65 14.11
12/25/2022 4:15:00 AM -0.07 31.874 0.096 6.8 7.77 14.11
12/25/2022 4:30:00 AM -0.07 31.874 0.096 6.8 7.5 14.11
12/25/2022 4:45:00 AM -0.07 31.874 0.096 6.81 7.58 14.11
12/25/2022 5:00:00 AM -0.07 31.874 0.096 6.79 7.43 14.11
12/25/2022 5:15:00 AM -0.07 31.874 0.096 6.8 7.47 14.1
12/25/2022 5:30:00 AM -0.07 31.874 0.096 6.8 7.32 14.11
12/25/2022 5:45:00 AM -0.07 31.874 0.096 6.8 7.44 14.1
12/25/2022 6:00:00 AM -0.07 31.874 0.096 6.8 7.28 14.1
12/25/2022 6:15:00 AM -0.07 31.874 0.096 6.8 7.38 14.1
12/25/2022 6:30:00 AM -0.07 31.874 0.096 6.79 7.13 14.1
12/25/2022 6:45:00 AM -0.07 31.874 0.096 6.8 7.2 14.1
12/25/2022 7:00:00 AM -0.07 31.874 0.096 6.79 7.22 14.1
12/25/2022 7:15:00 AM -0.07 31.874 0.096 6.8 7.22 14.09
12/25/2022 7:30:00 AM -0.07 31.874 0.096 6.79 7.13 14.09
12/25/2022 7:45:00 AM -0.07 31.874 0.096 6.8 7.24 14.09
12/25/2022 8:00:00 AM -0.07 31.874 0.096 6.81 7.12 14.1
12/25/2022 8:15:00 AM -0.07 31.874 0.096 6.79 7.13 14.1
12/25/2022 8:30:00 AM -0.07 31.874 0.096 6.79 7.08 14.1
12/25/2022 8:45:00 AM -0.06 31.892 0.096 6.8 7.11 14.11
12/25/2022 9:00:00 AM -0.06 31.892 0.096 6.8 7.16 14.11
12/25/2022 9:15:00 AM -0.07 31.874 0.096 6.77 7.04 14.11
12/25/2022 9:30:00 AM -0.06 31.892 0.096 6.8 7.09 14.12
12/25/2022 9:45:00 AM -0.06 31.892 0.096 6.82 6.76 14.12
12/25/2022 10:00:00 AM -0.05 31.91 0.096 6.81 7.43 14.13
12/25/2022 10:15:00 AM -0.05 31.91 0.096 6.81 6.75 14.13
12/25/2022 10:30:00 AM -0.04 31.928 0.096 6.81 7.02 14.13
12/25/2022 10:45:00 AM -0.04 31.928 0.096 6.8 6.8 14.13
12/25/2022 11:00:00 AM -0.03 31.946 0.096 6.79 6.92 14.14
12/25/2022 11:15:00 AM -0.03 31.946 0.096 6.8 6.86 14.14
12/25/2022 11:30:00 AM -0.03 31.946 0.096 6.79 6.93 14.14
12/25/2022 11:45:00 AM -0.03 31.946 0.095 6.81 7.32 14.15
12/25/2022 12:00:00 PM -0.03 31.946 0.095 6.81 6.82 14.15
12/25/2022 12:15:00 PM -0.03 31.946 0.095 6.81 7.03 14.14
12/25/2022 12:30:00 PM -0.03 31.946 0.095 6.8 7.17 14.14
12/25/2022 12:45:00 PM -0.03 31.946 0.095 6.82 7.44 14.15
12/25/2022 1:00:00 PM -0.03 31.946 0.095 6.81 7.37 14.15
12/25/2022 1:15:00 PM -0.02 31.964 0.095 6.82 7.28 14.14
12/25/2022 1:30:00 PM -0.03 31.946 0.095 6.83 7.45 14.14
12/25/2022 1:45:00 PM -0.04 31.928 0.095 6.83 8.18 14.14
12/25/2022 2:00:00 PM -0.04 31.928 0.095 6.83 8.5 14.14
12/25/2022 2:15:00 PM -0.05 31.91 0.095 6.82 8.07 14.13
12/25/2022 2:30:00 PM -0.05 31.91 0.095 6.83 7.7 14.14
12/25/2022 2:45:00 PM -0.05 31.91 0.094 6.82 8.07 14.14
12/25/2022 3:00:00 PM -0.06 31.892 0.094 6.83 7.85 14.14
12/25/2022 3:15:00 PM -0.05 31.91 0.094 6.84 8.02 14.14
12/25/2022 3:30:00 PM -0.05 31.91 0.094 6.84 8.34 14.14
12/25/2022 3:45:00 PM -0.06 31.892 0.094 6.82 8.25 14.15
12/25/2022 4:00:00 PM -0.06 31.892 0.094 6.84 7.6 14.15
12/25/2022 4:15:00 PM -0.06 31.892 0.094 6.83 8.28 14.15
12/25/2022 4:30:00 PM -0.06 31.892 0.094 6.82 8.21 14.15
12/25/2022 4:45:00 PM -0.06 31.892 0.094 6.83 7.85 14.15
12/25/2022 5:00:00 PM -0.07 31.874 0.094 6.82 8.18 14.15
12/25/2022 5:15:00 PM -0.07 31.874 0.094 6.82 7.99 14.14
12/25/2022 5:30:00 PM -0.07 31.874 0.094 6.82 7.73 14.14
12/25/2022 5:45:00 PM -0.07 31.874 0.094 6.83 7.97 14.13
12/25/2022 6:00:00 PM -0.06 31.892 0.094 6.8 7.86 14.12
12/25/2022 6:15:00 PM -0.06 31.892 0.094 6.83 7.96 14.12
12/25/2022 6:30:00 PM -0.06 31.892 0.094 6.82 7.79 14.12
12/25/2022 6:45:00 PM -0.06 31.892 0.095 6.82 8.31 14.11
12/25/2022 7:00:00 PM -0.07 31.874 0.095 6.81 7.65 14.11
12/25/2022 7:15:00 PM -0.07 31.874 0.095 6.8 7.75 14.11
12/25/2022 7:30:00 PM -0.07 31.874 0.095 6.81 8.05 14.1
12/25/2022 7:45:00 PM -0.07 31.874 0.095 6.81 7.79 14.1
12/25/2022 8:00:00 PM -0.06 31.892 0.095 6.81 7.39 14.1
12/25/2022 8:15:00 PM -0.06 31.892 0.096 6.79 7.16 14.1
12/25/2022 8:30:00 PM -0.06 31.892 0.096 6.81 7.44 14.09
12/25/2022 8:45:00 PM -0.06 31.892 0.096 6.81 7.37 14.1
12/25/2022 9:00:00 PM -0.07 31.874 0.096 6.8 7.31 14.09
12/25/2022 9:15:00 PM -0.07 31.874 0.096 6.81 6.96 14.09
12/25/2022 9:30:00 PM -0.07 31.874 0.096 6.8 7.62 14.09
12/25/2022 9:45:00 PM -0.07 31.874 0.096 6.81 7.33 14.1
12/25/2022 10:00:00 PM -0.07 31.874 0.096 6.81 7.38 14.1
12/25/2022 10:15:00 PM -0.06 31.892 0.096 6.8 6.88 14.09
12/25/2022 10:30:00 PM -0.06 31.892 0.096 6.8 6.58 14.1
12/25/2022 10:45:00 PM -0.06 31.892 0.096 6.81 6.42 14.1
12/25/2022 11:00:00 PM -0.06 31.892 0.097 6.81 6.73 14.1
12/25/2022 11:15:00 PM -0.06 31.892 0.097 6.8 6.46 14.1
12/25/2022 11:30:00 PM -0.06 31.892 0.097 6.81 6.31 14.1
12/25/2022 11:45:00 PM -0.06 31.892 0.097 6.8 6.42 14.1
12/26/2022 12:00:00 AM -0.06 31.892 0.097 6.81 6.3 14.11
12/26/2022 12:15:00 AM -0.06 31.892 0.097 6.8 6.48 14.1
12/26/2022 12:30:00 AM -0.06 31.892 0.097 6.81 6.28 14.11
12/26/2022 12:45:00 AM -0.06 31.892 0.097 6.81 6.23 14.11
12/26/2022 1:00:00 AM -0.07 31.874 0.097 6.81 6.19 14.11
12/26/2022 1:15:00 AM -0.06 31.892 0.098 6.8 5.98 14.12
12/26/2022 1:30:00 AM -0.06 31.892 0.097 6.81 6.23 14.12
12/26/2022 1:45:00 AM -0.06 31.892 0.097 6.79 6.04 14.12
12/26/2022 2:00:00 AM -0.07 31.874 0.098 6.81 5.99 14.12
12/26/2022 2:15:00 AM -0.07 31.874 0.098 6.8 6.14 14.12
12/26/2022 2:30:00 AM -0.07 31.874 0.098 6.81 5.99 14.13
12/26/2022 2:45:00 AM -0.07 31.874 0.098 6.82 5.9 14.13
12/26/2022 3:00:00 AM -0.07 31.874 0.098 6.81 6.02 14.14
12/26/2022 3:15:00 AM -0.07 31.874 0.098 6.81 5.75 14.14
12/26/2022 3:30:00 AM -0.07 31.874 0.098 6.81 5.96 14.14
12/26/2022 3:45:00 AM -0.07 31.874 0.099 6.82 5.79 14.14
12/26/2022 4:00:00 AM -0.07 31.874 0.099 6.8 5.6 14.14
12/26/2022 4:15:00 AM -0.07 31.874 0.099 6.82 5.67 14.14
12/26/2022 4:30:00 AM -0.07 31.874 0.099 6.81 5.67 14.15
12/26/2022 4:45:00 AM -0.07 31.874 0.099 6.81 5.48 14.15
12/26/2022 5:00:00 AM -0.07 31.874 0.099 6.81 5.44 14.16
12/26/2022 5:15:00 AM -0.07 31.874 0.1 6.81 5.49 14.16
12/26/2022 5:30:00 AM -0.07 31.874 0.099 6.81 5.51 14.16
12/26/2022 5:45:00 AM -0.07 31.874 0.1 6.82 5.37 14.16
12/26/2022 6:00:00 AM -0.07 31.874 0.1 6.81 5.45 14.16
12/26/2022 6:15:00 AM -0.07 31.874 0.1 6.81 5.52 14.17
12/26/2022 6:30:00 AM -0.07 31.874 0.1 6.82 5.39 14.17
12/26/2022 6:45:00 AM -0.07 31.874 0.101 6.82 5.49 14.17
12/26/2022 7:00:00 AM -0.07 31.874 0.101 6.82 5.35 14.17
12/26/2022 7:15:00 AM -0.07 31.874 0.101 6.82 5.22 14.18
12/26/2022 7:30:00 AM -0.07 31.874 0.101 6.82 5.07 14.18
12/26/2022 7:45:00 AM -0.07 31.874 0.101 6.82 5.23 14.19
12/26/2022 8:00:00 AM -0.07 31.874 0.101 6.82 5.23 14.19
12/26/2022 8:15:00 AM -0.07 31.874 0.101 6.83 5.37 14.19
12/26/2022 8:30:00 AM -0.06 31.892 0.102 6.82 5.22 14.2
12/26/2022 8:45:00 AM -0.05 31.91 0.102 6.83 5.19 14.21
12/26/2022 9:00:00 AM -0.05 31.91 0.102 6.83 5.1 14.21
12/26/2022 9:15:00 AM -0.05 31.91 0.102 6.83 5.17 14.22
12/26/2022 9:30:00 AM -0.03 31.946 0.102 6.82 4.98 14.22
12/26/2022 9:45:00 AM -0.03 31.946 0.102 6.83 5 14.23
12/26/2022 10:00:00 AM -0.02 31.964 0.102 6.83 4.98 14.23
12/26/2022 10:15:00 AM -0.02 31.964 0.102 6.83 5.02 14.23
12/26/2022 10:30:00 AM -0.02 31.964 0.102 6.82 5.01 14.24
12/26/2022 10:45:00 AM -0.02 31.964 0.102 6.84 5.05 14.24
12/26/2022 11:00:00 AM -0.02 31.964 0.102 6.87 5.22 14.25
12/26/2022 11:15:00 AM -0.01 31.982 0.102 6.84 5.15 14.26
12/26/2022 11:30:00 AM 0 32 0.102 6.88 4.98 14.26
12/26/2022 11:45:00 AM -0.01 31.982 0.102 6.88 4.93 14.26
12/26/2022 12:00:00 PM -0.01 31.982 0.102 6.88 4.98 14.27
12/26/2022 12:15:00 PM 0 32 0.102 6.86 5.46 14.27
12/26/2022 12:30:00 PM 0.01 32.018 0.102 6.87 5.54 14.26
12/26/2022 12:45:00 PM 0 32 0.102 6.87 5.54 14.27
12/26/2022 1:00:00 PM 0 32 0.102 6.86 5.58 14.27
12/26/2022 1:15:00 PM 0 32 0.102 6.88 6.09 14.27
12/26/2022 1:30:00 PM 0 32 0.102 6.85 6.01 14.27
12/26/2022 1:45:00 PM 0 32 0.102 6.86 6.72 14.27
12/26/2022 2:00:00 PM -0.01 31.982 0.101 6.85 6.34 14.28
12/26/2022 2:15:00 PM -0.01 31.982 0.101 6.85 6.59 14.28
12/26/2022 2:30:00 PM -0.02 31.964 0.101 6.84 6.76 14.28
12/26/2022 2:45:00 PM -0.03 31.946 0.101 6.86 6.65 14.27
12/26/2022 3:00:00 PM -0.03 31.946 0.101 6.86 7.16 14.27
12/26/2022 3:15:00 PM -0.03 31.946 0.101 6.86 7.33 14.27
12/26/2022 3:30:00 PM -0.04 31.928 0.1 6.87 7.15 14.27
12/26/2022 3:45:00 PM -0.04 31.928 0.1 6.85 8.08 14.26
12/26/2022 4:00:00 PM -0.04 31.928 0.1 6.86 10.84 14.25
12/26/2022 4:15:00 PM -0.04 31.928 0.099 6.85 12.41 14.25
12/26/2022 4:30:00 PM -0.04 31.928 0.099 6.86 9.99 14.24
12/26/2022 4:45:00 PM -0.05 31.91 0.099 6.84 8.75 14.23
12/26/2022 5:00:00 PM -0.05 31.91 0.099 6.85 7.62 14.23
12/26/2022 5:15:00 PM -0.05 31.91 0.099 6.85 7.35 14.22
12/26/2022 5:30:00 PM -0.05 31.91 0.099 6.84 9.2 14.21
12/26/2022 5:45:00 PM -0.05 31.91 0.099 6.82 10.77 14.2
12/26/2022 6:00:00 PM -0.05 31.91 0.099 6.85 8.81 14.2
12/26/2022 6:15:00 PM -0.05 31.91 0.1 6.84 7.56 14.18
12/26/2022 6:30:00 PM -0.05 31.91 0.1 6.84 7.05 14.18
12/26/2022 6:45:00 PM -0.05 31.91 0.1 6.84 6.82 14.16
12/26/2022 7:00:00 PM -0.04 31.928 0.101 6.84 6.65 14.16
12/26/2022 7:15:00 PM -0.04 31.928 0.101 6.84 6.44 14.15
12/26/2022 7:30:00 PM -0.04 31.928 0.101 6.83 6.7 14.15
12/26/2022 7:45:00 PM -0.04 31.928 0.102 6.83 6.34 14.14
12/26/2022 8:00:00 PM -0.04 31.928 0.102 6.84 6.39 14.13
12/26/2022 8:15:00 PM -0.04 31.928 0.102 6.84 6.31 14.13
12/26/2022 8:30:00 PM -0.04 31.928 0.102 6.82 6.12 14.12
12/26/2022 8:45:00 PM -0.04 31.928 0.102 6.83 6.29 14.11
12/26/2022 9:00:00 PM -0.05 31.91 0.103 6.84 6.1 14.11
12/26/2022 9:15:00 PM -0.04 31.928 0.103 6.84 6.01 14.1
12/26/2022 9:30:00 PM -0.04 31.928 0.103 6.84 5.93 14.1
12/26/2022 9:45:00 PM -0.04 31.928 0.103 6.82 5.98 14.1
12/26/2022 10:00:00 PM -0.04 31.928 0.103 6.84 5.91 14.1
12/26/2022 10:15:00 PM -0.04 31.928 0.103 6.84 5.88 14.09
12/26/2022 10:30:00 PM -0.04 31.928 0.103 6.83 5.9 14.09
12/26/2022 10:45:00 PM -0.03 31.946 0.103 6.84 5.76 14.09
12/26/2022 11:00:00 PM -0.03 31.946 0.104 6.84 5.91 14.09
12/26/2022 11:15:00 PM -0.03 31.946 0.104 6.84 6.03 14.09
12/26/2022 11:30:00 PM -0.03 31.946 0.104 6.84 5.88 14.09
12/26/2022 11:45:00 PM -0.03 31.946 0.104 6.83 5.94 14.09
12/27/2022 12:00:00 AM -0.03 31.946 0.104 6.85 6.29 14.09
12/27/2022 12:15:00 AM -0.03 31.946 0.104 6.83 6.19 14.09
12/27/2022 12:30:00 AM -0.03 31.946 0.104 6.84 6.09 14.09
12/27/2022 12:45:00 AM -0.03 31.946 0.104 6.85 6.08 14.09
12/27/2022 1:00:00 AM -0.03 31.946 0.105 6.85 6.05 14.09
12/27/2022 1:15:00 AM -0.03 31.946 0.105 6.85 6.16 14.09
12/27/2022 1:30:00 AM -0.03 31.946 0.105 6.85 6.02 14.09
12/27/2022 1:45:00 AM -0.03 31.946 0.105 6.86 6.26 14.09
12/27/2022 2:00:00 AM -0.03 31.946 0.105 6.85 6.12 14.09
12/27/2022 2:15:00 AM -0.03 31.946 0.105 6.86 6.18 14.08
12/27/2022 2:30:00 AM -0.03 31.946 0.105 6.86 5.99 14.08
12/27/2022 2:45:00 AM -0.03 31.946 0.105 6.87 6.22 14.08
12/27/2022 3:00:00 AM -0.03 31.946 0.106 6.84 5.98 14.09
12/27/2022 3:15:00 AM -0.03 31.946 0.106 6.86 5.93 14.08
12/27/2022 3:30:00 AM -0.03 31.946 0.106 6.87 5.86 14.08
12/27/2022 3:45:00 AM -0.03 31.946 0.106 6.86 5.89 14.08
12/27/2022 4:00:00 AM -0.03 31.946 0.106 6.88 6.07 14.08
12/27/2022 4:15:00 AM -0.03 31.946 0.106 6.88 6.23 14.08
12/27/2022 4:30:00 AM -0.02 31.964 0.106 6.88 5.87 14.08
12/27/2022 4:45:00 AM -0.02 31.964 0.106 6.87 5.89 14.08
12/27/2022 5:00:00 AM -0.02 31.964 0.106 6.88 6.07 14.08
12/27/2022 5:15:00 AM -0.02 31.964 0.107 6.88 5.83 14.08
12/27/2022 5:30:00 AM -0.02 31.964 0.106 6.88 6.01 14.08
12/27/2022 5:45:00 AM -0.02 31.964 0.107 6.86 5.95 14.08
12/27/2022 6:00:00 AM -0.02 31.964 0.107 6.87 6.24 14.08
12/27/2022 6:15:00 AM -0.02 31.964 0.107 6.88 6.19 14.08
12/27/2022 6:30:00 AM -0.02 31.964 0.107 6.89 6.03 14.08
12/27/2022 6:45:00 AM -0.02 31.964 0.107 6.89 5.99 14.08
12/27/2022 7:00:00 AM -0.02 31.964 0.107 6.87 6.41 14.08
12/27/2022 7:15:00 AM -0.02 31.964 0.107 6.88 7.25 14.08
12/27/2022 7:30:00 AM -0.02 31.964 0.107 6.88 6.61 14.09
12/27/2022 7:45:00 AM -0.01 31.982 0.107 6.89 6.32 14.08
12/27/2022 8:00:00 AM -0.01 31.982 0.107 6.88 6.15 14.08
12/27/2022 8:15:00 AM -0.01 31.982 0.108 6.88 6.18 14.09
12/27/2022 8:30:00 AM 0 32 0.107 6.88 6.15 14.1
12/27/2022 8:45:00 AM 0 32 0.108 6.88 6 14.1
12/27/2022 9:00:00 AM 0.01 32.018 0.108 6.88 5.62 14.11
12/27/2022 9:15:00 AM 0.02 32.036 0.108 6.86 5.83 14.11
12/27/2022 9:30:00 AM 0.02 32.036 0.108 6.88 5.9 14.13
12/27/2022 9:45:00 AM 0.04 32.072 0.108 6.87 5.71 14.14
12/27/2022 10:00:00 AM 0.05 32.09 0.108 6.88 5.91 14.15
12/27/2022 10:15:00 AM 0.07 32.126 0.108 6.86 5.72 14.16
12/27/2022 10:30:00 AM 0.09 32.162 0.108 6.89 5.8 14.17
12/27/2022 10:45:00 AM 0.1 32.18 0.108 6.88 5.91 14.17
12/27/2022 11:00:00 AM 0.11 32.198 0.108 6.9 5.84 14.18
12/27/2022 11:15:00 AM 0.12 32.216 0.108 6.9 5.85 14.19
12/27/2022 11:30:00 AM 0.13 32.234 0.108 6.89 5.83 14.2
12/27/2022 11:45:00 AM 0.12 32.216 0.108 6.9 6.46 14.21
12/27/2022 12:00:00 PM 0.13 32.234 0.108 6.9 6.23 14.22
12/27/2022 12:15:00 PM 0.13 32.234 0.108 6.91 5.61 14.22
12/27/2022 12:30:00 PM 0.14 32.252 0.108 6.9 6.12 14.23
12/27/2022 12:45:00 PM 0.14 32.252 0.108 6.91 5.76 14.23
12/27/2022 1:00:00 PM 0.13 32.234 0.108 6.91 5.98 14.23
12/27/2022 1:15:00 PM 0.13 32.234 0.107 6.91 5.87 14.23
12/27/2022 1:30:00 PM 0.13 32.234 0.107 6.91 5.89 14.24
12/27/2022 1:45:00 PM 0.13 32.234 0.107 6.91 5.68 14.25
12/27/2022 2:00:00 PM 0.13 32.234 0.107 6.91 5.69 14.24
12/27/2022 2:15:00 PM 0.12 32.216 0.107 6.89 5.93 14.24
12/27/2022 2:30:00 PM 0.11 32.198 0.107 6.92 5.78 14.24
12/27/2022 2:45:00 PM 0.11 32.198 0.107 6.91 5.47 14.24
12/27/2022 3:00:00 PM 0.11 32.198 0.107 6.9 5.51 14.24
12/27/2022 3:15:00 PM 0.11 32.198 0.107 6.91 5.36 14.24
12/27/2022 3:30:00 PM 0.11 32.198 0.107 6.91 5.59 14.24
12/27/2022 3:45:00 PM 0.11 32.198 0.107 6.9 5.68 14.23
12/27/2022 4:00:00 PM 0.11 32.198 0.107 6.91 5.45 14.23
12/27/2022 4:15:00 PM 0.1 32.18 0.107 6.9 5.42 14.23
12/27/2022 4:30:00 PM 0.09 32.162 0.107 6.91 5.45 14.22
12/27/2022 4:45:00 PM 0.09 32.162 0.107 6.89 5.46 14.21
12/27/2022 5:00:00 PM 0.09 32.162 0.107 6.91 5.12 14.19
12/27/2022 5:15:00 PM 0.07 32.126 0.107 6.91 5.38 14.18
12/27/2022 5:30:00 PM 0.06 32.108 0.108 6.89 5.35 14.17
12/27/2022 5:45:00 PM 0.05 32.09 0.108 6.91 5.08 14.16
12/27/2022 6:00:00 PM 0.04 32.072 0.108 6.88 5.24 14.16
12/27/2022 6:15:00 PM 0.04 32.072 0.108 6.9 5.42 14.15
12/27/2022 6:30:00 PM 0.04 32.072 0.108 6.89 5.22 14.14
12/27/2022 6:45:00 PM 0.04 32.072 0.108 6.9 5.18 14.14
12/27/2022 7:00:00 PM 0.03 32.054 0.108 6.9 5.37 14.14
12/27/2022 7:15:00 PM 0.03 32.054 0.108 6.91 5.38 14.13
12/27/2022 7:30:00 PM 0.02 32.036 0.108 6.9 5.04 14.13
12/27/2022 7:45:00 PM 0.02 32.036 0.108 6.9 4.91 14.12
12/27/2022 8:00:00 PM 0 32 0.109 6.9 4.81 14.12
12/27/2022 8:15:00 PM 0.01 32.018 0.109 6.9 4.97 14.12
12/27/2022 8:30:00 PM 0.01 32.018 0.109 6.9 5.08 14.11
12/27/2022 8:45:00 PM 0.01 32.018 0.109 6.89 4.96 14.12
12/27/2022 9:00:00 PM 0.01 32.018 0.109 6.91 4.84 14.11
12/27/2022 9:15:00 PM 0.02 32.036 0.109 6.91 4.99 14.11
12/27/2022 9:30:00 PM 0.03 32.054 0.109 6.9 4.99 14.11
12/27/2022 9:45:00 PM 0.04 32.072 0.109 6.9 4.78 14.1
12/27/2022 10:00:00 PM 0.04 32.072 0.109 6.9 4.91 14.1
12/27/2022 10:15:00 PM 0.05 32.09 0.11 6.9 4.84 14.1
12/27/2022 10:30:00 PM 0.06 32.108 0.11 6.91 4.76 14.1
12/27/2022 10:45:00 PM 0.06 32.108 0.11 6.91 4.76 14.1
12/27/2022 11:00:00 PM 0.06 32.108 0.11 6.91 4.9 14.1
12/27/2022 11:15:00 PM 0.07 32.126 0.11 6.91 4.79 14.09
12/27/2022 11:30:00 PM 0.07 32.126 0.11 6.91 4.65 14.1
12/27/2022 11:45:00 PM 0.07 32.126 0.11 6.92 4.9 14.09
12/28/2022 12:00:00 AM 0.07 32.126 0.11 6.92 4.81 14.09
12/28/2022 12:15:00 AM 0.06 32.108 0.11 6.91 4.56 14.09
12/28/2022 12:30:00 AM 0.05 32.09 0.11 6.91 4.74 14.09
12/28/2022 12:45:00 AM 0.05 32.09 0.11 6.91 4.48 14.08
12/28/2022 1:00:00 AM 0.05 32.09 0.111 6.89 4.72 14.08
12/28/2022 1:15:00 AM 0.06 32.108 0.111 6.92 4.84 14.08
12/28/2022 1:30:00 AM 0.06 32.108 0.111 6.91 4.52 14.08
12/28/2022 1:45:00 AM 0.07 32.126 0.111 6.9 4.58 14.08
12/28/2022 2:00:00 AM 0.06 32.108 0.111 6.91 4.65 14.07
12/28/2022 2:15:00 AM 0.07 32.126 0.111 6.91 4.83 14.07
12/28/2022 2:30:00 AM 0.07 32.126 0.111 6.9 4.81 14.07
12/28/2022 2:45:00 AM 0.07 32.126 0.111 6.9 4.73 14.07
12/28/2022 3:00:00 AM 0.07 32.126 0.111 6.9 5 14.07
12/28/2022 3:15:00 AM 0.08 32.144 0.111 6.9 4.96 14.07
12/28/2022 3:30:00 AM 0.08 32.144 0.111 6.91 4.59 14.07
12/28/2022 3:45:00 AM 0.08 32.144 0.111 6.91 4.66 14.07
12/28/2022 4:00:00 AM 0.09 32.162 0.111 6.92 4.61 14.06
12/28/2022 4:15:00 AM 0.09 32.162 0.111 6.91 4.77 14.06
12/28/2022 4:30:00 AM 0.09 32.162 0.111 6.91 4.67 14.06
12/28/2022 4:45:00 AM 0.09 32.162 0.112 6.91 4.62 14.06
12/28/2022 5:00:00 AM 0.09 32.162 0.112 6.91 4.67 14.06
12/28/2022 5:15:00 AM 0.08 32.144 0.112 6.92 4.6 14.07
12/28/2022 5:30:00 AM 0.07 32.126 0.112 6.89 4.9 14.07
12/28/2022 5:45:00 AM 0.06 32.108 0.112 6.9 4.62 14.07
12/28/2022 6:00:00 AM 0.05 32.09 0.112 6.91 4.63 14.07
12/28/2022 6:15:00 AM 0.04 32.072 0.112 6.92 4.57 14.07
12/28/2022 6:30:00 AM 0.03 32.054 0.112 6.91 4.68 14.07
12/28/2022 6:45:00 AM 0.03 32.054 0.112 6.91 4.64 14.07
12/28/2022 7:00:00 AM 0.02 32.036 0.112 6.9 4.7 14.07
12/28/2022 7:15:00 AM 0.01 32.018 0.113 6.92 4.75 14.08
12/28/2022 7:30:00 AM 0 32 0.112 6.91 4.66 14.08
12/28/2022 7:45:00 AM 0 32 0.113 6.9 4.57 14.08
12/28/2022 8:00:00 AM 0 32 0.113 6.92 4.42 14.09
12/28/2022 8:15:00 AM 0.02 32.036 0.113 6.91 4.36 14.11
12/28/2022 8:30:00 AM 0.04 32.072 0.113 6.92 4.58 14.12
12/28/2022 8:45:00 AM 0.06 32.108 0.113 6.92 4.32 14.13
12/28/2022 9:00:00 AM 0.09 32.162 0.113 6.93 4.38 14.14
12/28/2022 9:15:00 AM 0.14 32.252 0.114 6.92 4.3 14.16
12/28/2022 9:30:00 AM 0.18 32.324 0.113 6.93 4.32 14.17
12/28/2022 9:45:00 AM 0.22 32.396 0.114 6.94 4.32 14.18
12/28/2022 10:00:00 AM 0.27 32.486 0.114 6.93 4.14 14.18
12/28/2022 10:15:00 AM 0.3 32.54 0.114 6.94 4.28 14.19
12/28/2022 10:30:00 AM 0.33 32.594 0.113 6.95 4.46 14.2
12/28/2022 10:45:00 AM 0.37 32.666 0.113 6.93 4.12 14.2
12/28/2022 11:00:00 AM 0.41 32.738 0.113 6.96 4.13 14.2
12/28/2022 11:15:00 AM 0.45 32.81 0.113 6.96 4.1 14.21
12/28/2022 11:30:00 AM 0.47 32.846 0.113 7 3.98 14.21
12/28/2022 11:45:00 AM 0.49 32.882 0.113 6.99 4.37 14.21
12/28/2022 12:00:00 PM 0.52 32.936 0.113 6.99 3.95 14.21
12/28/2022 12:15:00 PM 0.58 33.044 0.113 7 4.32 14.2
12/28/2022 12:30:00 PM 0.61 33.098 0.112 7 4.2 14.2
12/28/2022 12:45:00 PM 0.63 33.134 0.113 7 4.21 14.19
12/28/2022 1:00:00 PM 0.66 33.188 0.112 7 4.61 14.2
12/28/2022 1:15:00 PM 0.72 33.296 0.111 7.01 4.45 14.19
12/28/2022 1:30:00 PM 0.78 33.404 0.111 7.01 4.73 14.17
12/28/2022 1:45:00 PM 0.8 33.44 0.111 7.03 4.66 14.17
12/28/2022 2:00:00 PM 0.79 33.422 0.111 7.03 4.89 14.16
12/28/2022 2:15:00 PM 0.76 33.368 0.11 7.03 5.4 14.16
12/28/2022 2:30:00 PM 0.73 33.314 0.11 7.03 5.45 14.14
12/28/2022 2:45:00 PM 0.73 33.314 0.11 7.02 5.7 14.14
12/28/2022 3:00:00 PM 0.7 33.26 0.11 7.03 5.53 14.12
12/28/2022 3:15:00 PM 0.69 33.242 0.11 7.02 5.75 14.1
12/28/2022 3:30:00 PM 0.7 33.26 0.11 7.03 5.57 14.1
12/28/2022 3:45:00 PM 0.7 33.26 0.11 7.03 5.57 14.09
12/28/2022 4:00:00 PM 0.7 33.26 0.11 7.03 5.38 14.07
12/28/2022 4:15:00 PM 0.69 33.242 0.111 7.02 5.33 14.04
12/28/2022 4:30:00 PM 0.69 33.242 0.111 7.03 5.03 14.03
12/28/2022 4:45:00 PM 0.69 33.242 0.111 7.03 5.29 14.02
12/28/2022 5:00:00 PM 0.68 33.224 0.111 7.01 4.77 14
12/28/2022 5:15:00 PM 0.68 33.224 0.111 7.02 5.02 13.98
12/28/2022 5:30:00 PM 0.67 33.206 0.112 7.02 4.69 13.97
12/28/2022 5:45:00 PM 0.66 33.188 0.111 6.99 4.56 13.96
12/28/2022 6:00:00 PM 0.65 33.17 0.111 6.99 4.47 13.95
12/28/2022 6:15:00 PM 0.64 33.152 0.112 7.01 4.54 13.95
12/28/2022 6:30:00 PM 0.63 33.134 0.112 6.99 4.36 13.94
12/28/2022 6:45:00 PM 0.62 33.116 0.112 7 4.35 13.93
12/28/2022 7:00:00 PM 0.61 33.098 0.112 7 4.45 13.94
12/28/2022 7:15:00 PM 0.6 33.08 0.113 6.99 4.37 13.93
12/28/2022 7:30:00 PM 0.6 33.08 0.113 6.99 4.28 13.92
12/28/2022 7:45:00 PM 0.59 33.062 0.113 6.98 4.36 13.92
12/28/2022 8:00:00 PM 0.57 33.026 0.113 6.99 4.36 13.92
12/28/2022 8:15:00 PM 0.56 33.008 0.113 6.98 4.34 13.93
12/28/2022 8:30:00 PM 0.55 32.99 0.113 6.99 4.23 13.93
12/28/2022 8:45:00 PM 0.54 32.972 0.113 6.99 4.23 13.93
12/28/2022 9:00:00 PM 0.52 32.936 0.114 6.97 4.23 13.93
12/28/2022 9:15:00 PM 0.51 32.918 0.114 6.97 4.32 13.94
12/28/2022 9:30:00 PM 0.5 32.9 0.114 6.98 4.21 13.94
12/28/2022 9:45:00 PM 0.49 32.882 0.114 6.98 4.96 13.94
12/28/2022 10:00:00 PM 0.48 32.864 0.114 6.98 4.4 13.94
12/28/2022 10:15:00 PM 0.47 32.846 0.114 6.96 4.35 13.94
12/28/2022 10:30:00 PM 0.46 32.828 0.114 6.97 4.46 13.94
12/28/2022 10:45:00 PM 0.46 32.828 0.114 6.98 4.35 13.94
12/28/2022 11:00:00 PM 0.45 32.81 0.115 6.97 4.3 13.94
12/28/2022 11:15:00 PM 0.45 32.81 0.114 6.97 4.21 13.93
12/28/2022 11:30:00 PM 0.44 32.792 0.115 6.97 4.16 13.94
12/28/2022 11:45:00 PM 0.43 32.774 0.115 6.97 4.15 13.94
12/29/2022 12:00:00 AM 0.42 32.756 0.115 6.97 4.18 13.94
12/29/2022 12:15:00 AM 0.41 32.738 0.115 6.97 4.26 13.94
12/29/2022 12:30:00 AM 0.41 32.738 0.115 6.97 4.32 13.94
12/29/2022 12:45:00 AM 0.4 32.72 0.115 6.97 4.39 13.95
12/29/2022 1:00:00 AM 0.39 32.702 0.115 6.97 4.28 13.95
12/29/2022 1:15:00 AM 0.38 32.684 0.115 6.97 4.25 13.95
12/29/2022 1:30:00 AM 0.37 32.666 0.115 6.95 4.07 13.94
12/29/2022 1:45:00 AM 0.36 32.648 0.115 6.97 4 13.95
12/29/2022 2:00:00 AM 0.35 32.63 0.115 6.96 3.94 13.95
12/29/2022 2:15:00 AM 0.34 32.612 0.116 6.97 3.96 13.96
12/29/2022 2:30:00 AM 0.33 32.594 0.115 6.97 3.91 13.97
12/29/2022 2:45:00 AM 0.32 32.576 0.116 6.96 3.82 13.97
12/29/2022 3:00:00 AM 0.31 32.558 0.116 6.97 3.95 13.98
12/29/2022 3:15:00 AM 0.3 32.54 0.116 6.94 3.93 13.98
12/29/2022 3:30:00 AM 0.29 32.522 0.116 6.97 4.05 13.99
12/29/2022 3:45:00 AM 0.28 32.504 0.116 6.97 3.89 13.99
12/29/2022 4:00:00 AM 0.26 32.468 0.116 6.97 3.8 14
12/29/2022 4:15:00 AM 0.25 32.45 0.116 6.95 4.06 14
12/29/2022 4:30:00 AM 0.23 32.414 0.116 6.97 4.21 14.01
12/29/2022 4:45:00 AM 0.22 32.396 0.116 6.96 3.96 14.01
12/29/2022 5:00:00 AM 0.2 32.36 0.117 6.97 3.85 14.02
12/29/2022 5:15:00 AM 0.19 32.342 0.117 6.97 3.96 14.03
12/29/2022 5:30:00 AM 0.17 32.306 0.117 6.97 3.87 14.03
12/29/2022 5:45:00 AM 0.16 32.288 0.117 6.96 3.74 14.04
12/29/2022 6:00:00 AM 0.15 32.27 0.117 6.96 4.11 14.04
12/29/2022 6:15:00 AM 0.13 32.234 0.118 6.97 3.89 14.05
12/29/2022 6:30:00 AM 0.12 32.216 0.118 6.97 3.93 14.06
12/29/2022 6:45:00 AM 0.11 32.198 0.118 6.97 4.06 14.06
12/29/2022 7:00:00 AM 0.1 32.18 0.118 6.94 4.05 14.07
12/29/2022 7:15:00 AM 0.09 32.162 0.118 6.94 4.19 14.07
12/29/2022 7:30:00 AM 0.08 32.144 0.119 6.97 4.02 14.07
12/29/2022 7:45:00 AM 0.07 32.126 0.119 6.97 3.92 14.08
12/29/2022 8:00:00 AM 0.06 32.108 0.119 6.97 3.89 14.09
12/29/2022 8:15:00 AM 0.05 32.09 0.119 6.97 3.8 14.1
12/29/2022 8:30:00 AM 0.05 32.09 0.119 6.98 3.78 14.12
12/29/2022 8:45:00 AM 0.04 32.072 0.119 6.98 3.74 14.14
12/29/2022 9:00:00 AM 0.05 32.09 0.119 6.96 3.83 14.15
12/29/2022 9:15:00 AM 0.05 32.09 0.12 6.98 3.78 14.17
12/29/2022 9:30:00 AM 0.07 32.126 0.12 6.99 3.73 14.18
12/29/2022 9:45:00 AM 0.09 32.162 0.12 6.99 3.68 14.2
12/29/2022 10:00:00 AM 0.13 32.234 0.12 6.97 3.76 14.22
12/29/2022 10:15:00 AM 0.19 32.342 0.12 6.99 3.72 14.23
12/29/2022 10:30:00 AM 0.25 32.45 0.12 7.01 3.85 14.24
12/29/2022 10:45:00 AM 0.3 32.54 0.12 7.01 3.65 14.24
12/29/2022 11:00:00 AM 0.37 32.666 0.12 7.01 3.68 14.24
12/29/2022 11:15:00 AM 0.44 32.792 0.12 7.02 3.74 14.25
12/29/2022 11:30:00 AM 0.51 32.918 0.12 7.03 3.54 14.25
12/29/2022 11:45:00 AM 0.57 33.026 0.12 7.03 3.62 14.26
12/29/2022 12:00:00 PM 0.63 33.134 0.12 7.03 3.54 14.25
12/29/2022 12:15:00 PM 0.69 33.242 0.12 7.04 3.44 14.26
12/29/2022 12:30:00 PM 0.75 33.35 0.119 7.04 3.86 14.27
12/29/2022 12:45:00 PM 0.79 33.422 0.119 7.04 3.55 14.27
12/29/2022 1:00:00 PM 0.83 33.494 0.119 7.05 3.47 14.26
12/29/2022 1:15:00 PM 0.87 33.566 0.118 7.05 3.48 14.25
12/29/2022 1:30:00 PM 0.91 33.638 0.118 7.05 3.59 14.24
12/29/2022 1:45:00 PM 0.94 33.692 0.118 7.05 3.66 14.23
12/29/2022 2:00:00 PM 0.99 33.782 0.118 7.04 3.69 14.21
12/29/2022 2:15:00 PM 1.06 33.908 0.118 7.05 3.61 14.19
12/29/2022 2:30:00 PM 1.14 34.052 0.118 7.06 3.46 14.17
12/29/2022 2:45:00 PM 1.23 34.214 0.117 7.06 3.48 14.14
12/29/2022 3:00:00 PM 1.29 34.322 0.117 7.06 3.2 14.11
12/29/2022 3:15:00 PM 1.35 34.43 0.117 7.05 3.29 14.07
12/29/2022 3:30:00 PM 1.4 34.52 0.117 7.06 3.23 14.04
12/29/2022 3:45:00 PM 1.44 34.592 0.118 7.07 3.39 14
12/29/2022 4:00:00 PM 1.46 34.628 0.118 7.07 3.17 13.96
12/29/2022 4:15:00 PM 1.48 34.664 0.118 7.06 3.15 13.94
12/29/2022 4:30:00 PM 1.49 34.682 0.118 7.07 3.13 13.9
12/29/2022 4:45:00 PM 1.5 34.7 0.118 7.07 3.4 13.87
12/29/2022 5:00:00 PM 1.51 34.718 0.118 7.05 3.16 13.84
12/29/2022 5:15:00 PM 1.51 34.718 0.118 7.06 3.13 13.82
12/29/2022 5:30:00 PM 1.5 34.7 0.118 7.06 3.33 13.8
12/29/2022 5:45:00 PM 1.48 34.664 0.118 7.03 3.28 13.78
12/29/2022 6:00:00 PM 1.47 34.646 0.118 7.04 3.31 13.76
12/29/2022 6:15:00 PM 1.45 34.61 0.118 7.05 3.4 13.75
12/29/2022 6:30:00 PM 1.42 34.556 0.118 7.04 3.48 13.74
12/29/2022 6:45:00 PM 1.4 34.52 0.119 7.04 3.41 13.74
12/29/2022 7:00:00 PM 1.38 34.484 0.119 7.04 3.71 13.73
12/29/2022 7:15:00 PM 1.36 34.448 0.119 7 3.87 13.72
12/29/2022 7:30:00 PM 1.34 34.412 0.119 7.03 4 13.73
12/29/2022 7:45:00 PM 1.31 34.358 0.12 7.03 3.85 13.73
12/29/2022 8:00:00 PM 1.28 34.304 0.12 7.02 3.97 13.72
12/29/2022 8:15:00 PM 1.25 34.25 0.12 7.02 4.01 13.73
12/29/2022 8:30:00 PM 1.24 34.232 0.12 7.02 4.03 13.73
12/29/2022 8:45:00 PM 1.24 34.232 0.12 7.01 4.14 13.73
12/29/2022 9:00:00 PM 1.24 34.232 0.121 7.01 4.2 13.73
12/29/2022 9:15:00 PM 1.24 34.232 0.121 7.01 4.15 13.73
12/29/2022 9:30:00 PM 1.25 34.25 0.121 7 4.2 13.74
12/29/2022 9:45:00 PM 1.26 34.268 0.121 7.01 4.05 13.73
12/29/2022 10:00:00 PM 1.27 34.286 0.121 6.99 3.99 13.72
12/29/2022 10:15:00 PM 1.28 34.304 0.122 7.01 4.11 13.72
12/29/2022 10:30:00 PM 1.29 34.322 0.122 7.01 4.04 13.72
12/29/2022 10:45:00 PM 1.31 34.358 0.122 7.01 4.08 13.72
12/29/2022 11:00:00 PM 1.32 34.376 0.122 7.01 3.99 13.71
12/29/2022 11:15:00 PM 1.34 34.412 0.122 7.01 4.11 13.7
12/29/2022 11:30:00 PM 1.36 34.448 0.122 7.01 3.79 13.69
12/29/2022 11:45:00 PM 1.38 34.484 0.122 7.01 4.09 13.69
12/30/2022 12:00:00 AM 1.41 34.538 0.122 7.01 3.93 13.68
12/30/2022 12:15:00 AM 1.43 34.574 0.122 7.01 3.84 13.66
12/30/2022 12:30:00 AM 1.45 34.61 0.122 7 3.94 13.66
12/30/2022 12:45:00 AM 1.48 34.664 0.122 7.01 3.91 13.65
12/30/2022 1:00:00 AM 1.5 34.7 0.122 6.99 3.85 13.63
12/30/2022 1:15:00 AM 1.53 34.754 0.122 7.01 3.82 13.62
12/30/2022 1:30:00 AM 1.55 34.79 0.122 7.01 4.2 13.62
12/30/2022 1:45:00 AM 1.57 34.826 0.122 7.02 3.92 13.61
12/30/2022 2:00:00 AM 1.59 34.862 0.122 7.01 3.92 13.6
12/30/2022 2:15:00 AM 1.61 34.898 0.122 7.01 3.83 13.59
12/30/2022 2:30:00 AM 1.63 34.934 0.122 7.01 3.93 13.59
12/30/2022 2:45:00 AM 1.64 34.952 0.122 7.01 3.94 13.58
12/30/2022 3:00:00 AM 1.66 34.988 0.122 7.01 3.87 13.58
12/30/2022 3:15:00 AM 1.67 35.006 0.122 7.01 3.89 13.57
12/30/2022 3:30:00 AM 1.66 34.988 0.122 7 3.88 13.56
12/30/2022 3:45:00 AM 1.67 35.006 0.122 7.01 3.9 13.56
12/30/2022 4:00:00 AM 1.68 35.024 0.122 7.01 4.25 13.56
12/30/2022 4:15:00 AM 1.69 35.042 0.122 7 4.07 13.56
12/30/2022 4:30:00 AM 1.7 35.06 0.122 7.01 3.88 13.55
12/30/2022 4:45:00 AM 1.71 35.078 0.122 6.98 4.01 13.55
12/30/2022 5:00:00 AM 1.71 35.078 0.122 7 3.89 13.56
12/30/2022 5:15:00 AM 1.72 35.096 0.122 7 4.04 13.56
12/30/2022 5:30:00 AM 1.72 35.096 0.122 7 3.99 13.55
12/30/2022 5:45:00 AM 1.71 35.078 0.122 7.01 4.03 13.55
12/30/2022 6:00:00 AM 1.7 35.06 0.122 7.01 4.29 13.55
12/30/2022 6:15:00 AM 1.7 35.06 0.122 7.01 4.48 13.55
12/30/2022 6:30:00 AM 1.71 35.078 0.122 7 4.37 13.56
12/30/2022 6:45:00 AM 1.71 35.078 0.122 7 4.5 13.55
12/30/2022 7:00:00 AM 1.71 35.078 0.122 6.99 4.44 13.56
12/30/2022 7:15:00 AM 1.72 35.096 0.123 7.01 4.71 13.56
12/30/2022 7:30:00 AM 1.72 35.096 0.123 7 4.55 13.57
12/30/2022 7:45:00 AM 1.72 35.096 0.123 7 4.65 13.57
12/30/2022 8:00:00 AM 1.71 35.078 0.123 6.99 4.62 13.58
12/30/2022 8:15:00 AM 1.71 35.078 0.123 7.01 4.47 13.59
12/30/2022 8:30:00 AM 1.71 35.078 0.123 6.98 4.62 13.6
12/30/2022 8:45:00 AM 1.7 35.06 0.123 7 4.68 13.62
12/30/2022 9:00:00 AM 1.72 35.096 0.124 7.01 4.46 13.64
12/30/2022 9:15:00 AM 1.75 35.15 0.124 7.01 4.46 13.66
12/30/2022 9:30:00 AM 1.78 35.204 0.124 7.02 4.25 13.67
12/30/2022 9:45:00 AM 1.81 35.258 0.124 7.02 4.44 13.69
12/30/2022 10:00:00 AM 1.84 35.312 0.124 7.02 4.35 13.71
12/30/2022 10:15:00 AM 1.89 35.402 0.124 7.02 4.43 13.72
12/30/2022 10:30:00 AM 1.93 35.474 0.124 7.03 4.06 13.73
12/30/2022 10:45:00 AM 1.96 35.528 0.124 7.04 4.09 13.75
12/30/2022 11:00:00 AM 2 35.6 0.124 7.04 3.97 13.76
12/30/2022 11:15:00 AM 2.04 35.672 0.124 7.05 3.87 13.77
12/30/2022 11:30:00 AM 2.06 35.708 0.124 7.05 3.77 13.77
12/30/2022 11:45:00 AM 2.1 35.78 0.124 7.05 3.81 13.78
12/30/2022 12:00:00 PM 2.15 35.87 0.124 7.06 3.95 13.78
12/30/2022 12:15:00 PM 2.19 35.942 0.124 7.06 3.6 13.77
12/30/2022 12:30:00 PM 2.23 36.014 0.124 7.05 3.82 13.78
12/30/2022 12:45:00 PM 2.28 36.104 0.123 7.06 3.83 13.78
12/30/2022 1:00:00 PM 2.32 36.176 0.124 7.08 3.95 13.78
12/30/2022 1:15:00 PM 2.37 36.266 0.124 7.07 3.86 13.77
12/30/2022 1:30:00 PM 2.44 36.392 0.123 7.07 3.94 13.76
12/30/2022 1:45:00 PM 2.49 36.482 0.123 7.09 4.03 13.75
12/30/2022 2:00:00 PM 2.56 36.608 0.123 7.09 4.52 13.74
12/30/2022 2:15:00 PM 2.6 36.68 0.123 7.1 4.27 13.73
12/30/2022 2:30:00 PM 2.65 36.77 0.123 7.08 4.27 13.72
12/30/2022 2:45:00 PM 2.68 36.824 0.123 7.09 4.38 13.71
12/30/2022 3:00:00 PM 2.69 36.842 0.123 7.1 4.57 13.71
12/30/2022 3:15:00 PM 2.69 36.842 0.123 7.11 4.65 13.69
12/30/2022 3:30:00 PM 2.66 36.788 0.124 7.11 5.01 13.68
12/30/2022 3:45:00 PM 2.63 36.734 0.124 7.11 5.39 13.68
12/30/2022 4:00:00 PM 2.59 36.662 0.124 7.11 5.78 13.67
12/30/2022 4:15:00 PM 2.55 36.59 0.124 7.09 6.25 13.66
12/30/2022 4:30:00 PM 2.49 36.482 0.124 7.1 7.21 13.64
12/30/2022 4:45:00 PM 2.42 36.356 0.124 7.11 8.07 13.63
12/30/2022 5:00:00 PM 2.35 36.23 0.124 7.1 9.08 13.62
12/30/2022 5:15:00 PM 2.26 36.068 0.124 7.09 10.52 13.62
12/30/2022 5:30:00 PM 2.16 35.888 0.124 7.08 11.8 13.63
12/30/2022 5:45:00 PM 2.06 35.708 0.124 7.09 13.55 13.64
12/30/2022 6:00:00 PM 1.95 35.51 0.124 7.06 15.58 13.66
12/30/2022 6:15:00 PM 1.83 35.294 0.124 7.08 17.06 13.66
12/30/2022 6:30:00 PM 1.72 35.096 0.123 7.06 19.63 13.68
12/30/2022 6:45:00 PM 1.62 34.916 0.122 7.05 19.71 13.69
12/30/2022 7:00:00 PM 1.51 34.718 0.121 7.03 21.82 13.69
12/30/2022 7:15:00 PM 1.41 34.538 0.12 7.02 21.13 13.72
12/30/2022 7:30:00 PM 1.33 34.394 0.118 7.01 21.95 13.75
12/30/2022 7:45:00 PM 1.24 34.232 0.117 7.01 22.93 13.78
12/30/2022 8:00:00 PM 1.16 34.088 0.115 7.01 23.43 13.83
12/30/2022 8:15:00 PM 1.09 33.962 0.113 6.98 25.58 13.87
12/30/2022 8:30:00 PM 1.03 33.854 0.112 7 24.22 13.91
12/30/2022 8:45:00 PM 0.97 33.746 0.111 7.01 26.81 13.94
12/30/2022 9:00:00 PM 0.92 33.656 0.111 7 23.86 13.97
12/30/2022 9:15:00 PM 0.86 33.548 0.11 7 25.22 14
12/30/2022 9:30:00 PM 0.81 33.458 0.11 7 22.72 14.04
12/30/2022 9:45:00 PM 0.76 33.368 0.11 6.97 22.64 14.07
12/30/2022 10:00:00 PM 0.72 33.296 0.111 7 23.35 14.09
12/30/2022 10:15:00 PM 0.68 33.224 0.111 7 23.73 14.11
12/30/2022 10:30:00 PM 0.65 33.17 0.112 7.01 23.19 14.13
12/30/2022 10:45:00 PM 0.62 33.116 0.113 7.01 22.6 14.14
12/30/2022 11:00:00 PM 0.6 33.08 0.113 7.01 22.65 14.14
12/30/2022 11:15:00 PM 0.59 33.062 0.114 7.02 21.94 14.15
12/30/2022 11:30:00 PM 0.58 33.044 0.114 7.02 22.21 14.15
12/30/2022 11:45:00 PM 0.58 33.044 0.114 7.02 23.27 14.14
12/31/2022 12:00:00 AM 0.58 33.044 0.114 7.02 22.65 14.15
12/31/2022 12:15:00 AM 0.58 33.044 0.113 7.03 22.64 14.14
12/31/2022 12:30:00 AM 0.59 33.062 0.112 7.03 21.35 14.14
12/31/2022 12:45:00 AM 0.59 33.062 0.112 7.04 21.36 14.13
12/31/2022 1:00:00 AM 0.6 33.08 0.111 7.02 19.46 14.13
12/31/2022 1:15:00 AM 0.6 33.08 0.11 7.03 17.2 14.12
12/31/2022 1:30:00 AM 0.61 33.098 0.109 7.03 17.81 14.12
12/31/2022 1:45:00 AM 0.62 33.116 0.108 7.03 17.75 14.12
12/31/2022 2:00:00 AM 0.63 33.134 0.108 7.01 16.87 14.1
12/31/2022 2:15:00 AM 0.64 33.152 0.107 7.03 16.34 14.1
12/31/2022 2:30:00 AM 0.65 33.17 0.106 7.04 16.11 14.1
12/31/2022 2:45:00 AM 0.67 33.206 0.106 7.04 16.37 14.09
12/31/2022 3:00:00 AM 0.68 33.224 0.105 7.04 15.55 14.08
12/31/2022 3:15:00 AM 0.69 33.242 0.105 7.01 14.21 14.08
12/31/2022 3:30:00 AM 0.71 33.278 0.104 7.03 14.42 14.08
12/31/2022 3:45:00 AM 0.72 33.296 0.104 7.04 11.79 14.07
12/31/2022 4:00:00 AM 0.73 33.314 0.104 7.03 13 14.06
12/31/2022 4:15:00 AM 0.73 33.314 0.103 7.04 12.12 14.06
12/31/2022 4:30:00 AM 0.74 33.332 0.103 7.03 11.84 14.05
12/31/2022 4:45:00 AM 0.75 33.35 0.103 7.03 12.84 14.05
12/31/2022 5:00:00 AM 0.77 33.386 0.102 7.03 11.46 14.04
12/31/2022 5:15:00 AM 0.79 33.422 0.102 7 11.65 14.04
12/31/2022 5:30:00 AM 0.8 33.44 0.102 7.03 11.75 14.03
12/31/2022 5:45:00 AM 0.81 33.458 0.102 7.03 10.3 14.03
12/31/2022 6:00:00 AM 0.83 33.494 0.101 7.03 11.25 14.03
12/31/2022 6:15:00 AM 0.83 33.494 0.101 7.03 10.85 14.02
12/31/2022 6:30:00 AM 0.84 33.512 0.101 7.02 11.08 14.02
12/31/2022 6:45:00 AM 0.84 33.512 0.101 7.01 10.73 14.02
12/31/2022 7:00:00 AM 0.85 33.53 0.101 7.03 11.11 14.01
12/31/2022 7:15:00 AM 0.86 33.548 0.101 7.03 10.58 14
12/31/2022 7:30:00 AM 0.88 33.584 0.1 7.02 11.32 14
12/31/2022 7:45:00 AM 0.9 33.62 0.1 7 10.63 13.99
12/31/2022 8:00:00 AM 0.91 33.638 0.1 7.02 10.01 13.98
12/31/2022 8:15:00 AM 0.93 33.674 0.1 7.02 10.31 13.98
12/31/2022 8:30:00 AM 0.95 33.71 0.1 7.02 9.65 13.98
12/31/2022 8:45:00 AM 0.97 33.746 0.1 7.02 10.14 13.97
12/31/2022 9:00:00 AM 1 33.8 0.1 7.02 9.66 13.97
12/31/2022 9:15:00 AM 1.03 33.854 0.1 7.02 9.65 13.97
12/31/2022 9:30:00 AM 1.05 33.89 0.1 7.02 9.15 13.97
12/31/2022 9:45:00 AM 1.08 33.944 0.1 7.02 9.25 13.97
12/31/2022 10:00:00 AM 1.12 34.016 0.1 7.02 9.34 13.97
12/31/2022 10:15:00 AM 1.15 34.07 0.099 7.02 9.54 13.96
12/31/2022 10:30:00 AM 1.19 34.142 0.099 7.02 9.47 13.96
12/31/2022 10:45:00 AM 1.23 34.214 0.099 7.03 8.84 13.95
12/31/2022 11:00:00 AM 1.28 34.304 0.099 7 8.74 13.96
12/31/2022 11:15:00 AM 1.32 34.376 0.099 7.03 8.62 13.96
12/31/2022 11:30:00 AM 1.37 34.466 0.099 7.04 8.96 13.96
12/31/2022 11:45:00 AM 1.41 34.538 0.099 7.03 9.13 13.96
12/31/2022 12:00:00 PM 1.45 34.61 0.099 7.04 8.82 13.95
12/31/2022 12:15:00 PM 1.49 34.682 0.099 7.03 8.62 13.94
12/31/2022 12:30:00 PM 1.53 34.754 0.099 7.04 8.59 13.93
12/31/2022 12:45:00 PM 1.57 34.826 0.099 7.05 8.16 13.93
12/31/2022 1:00:00 PM 1.61 34.898 0.099 7.05 8.22 13.92
12/31/2022 1:15:00 PM 1.65 34.97 0.099 7.05 8.34 13.91
12/31/2022 1:30:00 PM 1.69 35.042 0.099 7.05 8.69 13.91
12/31/2022 1:45:00 PM 1.72 35.096 0.099 7.05 8.9 13.9
12/31/2022 2:00:00 PM 1.74 35.132 0.099 7.05 8.4 13.88
12/31/2022 2:15:00 PM 1.77 35.186 0.099 7.05 8.61 13.87
12/31/2022 2:30:00 PM 1.79 35.222 0.099 7.06 9.16 13.86
12/31/2022 2:45:00 PM 1.81 35.258 0.099 7.05 8.9 13.85
12/31/2022 3:00:00 PM 1.82 35.276 0.099 7.07 9.5 13.84
12/31/2022 3:15:00 PM 1.82 35.276 0.099 7.07 10.21 13.82
12/31/2022 3:30:00 PM 1.82 35.276 0.099 7.03 10.54 13.8
12/31/2022 3:45:00 PM 1.81 35.258 0.099 7.07 10.75 13.79
12/31/2022 4:00:00 PM 1.79 35.222 0.098 7.07 10.65 13.78
12/31/2022 4:15:00 PM 1.78 35.204 0.098 7.06 11.6 13.77
12/31/2022 4:30:00 PM 1.76 35.168 0.098 7.06 11.88 13.75
12/31/2022 4:45:00 PM 1.75 35.15 0.097 7.05 12.67 13.74
12/31/2022 5:00:00 PM 1.73 35.114 0.097 7.06 12.8 13.73
12/31/2022 5:15:00 PM 1.71 35.078 0.097 7.06 13.71 13.72
12/31/2022 5:30:00 PM 1.69 35.042 0.096 7.05 12.97 13.71
12/31/2022 5:45:00 PM 1.66 34.988 0.096 7.04 14.92 13.71
12/31/2022 6:00:00 PM 1.64 34.952 0.095 7.03 15.48 13.7
12/31/2022 6:15:00 PM 1.62 34.916 0.094 7.04 16.22 13.7
12/31/2022 6:30:00 PM 1.6 34.88 0.094 7.03 17.06 13.7
12/31/2022 6:45:00 PM 1.58 34.844 0.093 7.02 13.11 13.7
12/31/2022 7:00:00 PM 1.55 34.79 0.093 7.02 18.04 13.71
12/31/2022 7:15:00 PM 1.53 34.754 0.093 7.02 16.44 13.71
12/31/2022 7:30:00 PM 1.51 34.718 0.093 6.99 18.32 13.71
12/31/2022 7:45:00 PM 1.48 34.664 0.092 7.01 20.2 13.72
12/31/2022 8:00:00 PM 1.45 34.61 0.092 7 21.02 13.73
12/31/2022 8:15:00 PM 1.43 34.574 0.092 7 22.08 13.73
12/31/2022 8:30:00 PM 1.41 34.538 0.093 7 18.97 13.74
12/31/2022 8:45:00 PM 1.4 34.52 0.093 6.99 23.26 13.74
12/31/2022 9:00:00 PM 1.38 34.484 0.093 6.98 25.91 13.75
12/31/2022 9:15:00 PM 1.37 34.466 0.093 6.97 26.68 13.75
12/31/2022 9:30:00 PM 1.35 34.43 0.093 6.99 23.44 13.75
12/31/2022 9:45:00 PM 1.34 34.412 0.093 6.96 25.98 13.75
12/31/2022 10:00:00 PM 1.34 34.412 0.094 6.97 26.69 13.76
12/31/2022 10:15:00 PM 1.34 34.412 0.094 6.98 23.32 13.75
12/31/2022 10:30:00 PM 1.35 34.43 0.095 6.97 23.15 13.75
12/31/2022 10:45:00 PM 1.35 34.43 0.095 6.98 24.74 13.75
12/31/2022 11:00:00 PM 1.35 34.43 0.094 6.98 22.94 13.75
12/31/2022 11:15:00 PM 1.36 34.448 0.094 6.95 24.06 13.75
12/31/2022 11:30:00 PM 1.37 34.466 0.094 6.97 25.52 13.75
12/31/2022 11:45:00 PM 1.38 34.484 0.093 6.97 26.49 13.75
1/1/2023 12:00:00 AM 1.4 34.52 0.093 6.97 22.99 13.74
1/1/2023 12:15:00 AM 1.41 34.538 0.093 6.98 23.51 13.74
1/1/2023 12:30:00 AM 1.42 34.556 0.093 6.95 23.28 13.74
1/1/2023 12:45:00 AM 1.43 34.574 0.093 6.97 23.18 13.73
1/1/2023 1:00:00 AM 1.43 34.574 0.093 6.97 23.37 13.73
1/1/2023 1:15:00 AM 1.45 34.61 0.093 6.97 23.67 13.72
1/1/2023 1:30:00 AM 1.46 34.628 0.092 6.97 23.01 13.72
1/1/2023 1:45:00 AM 1.48 34.664 0.092 6.95 23.42 13.72
1/1/2023 2:00:00 AM 1.49 34.682 0.093 6.97 21.71 13.71
1/1/2023 2:15:00 AM 1.51 34.718 0.093 6.97 20.92 13.7
1/1/2023 2:30:00 AM 1.52 34.736 0.093 6.97 20.6 13.7
1/1/2023 2:45:00 AM 1.52 34.736 0.093 6.96 21.28 13.7
1/1/2023 3:00:00 AM 1.54 34.772 0.093 6.97 21.85 13.69
1/1/2023 3:15:00 AM 1.56 34.808 0.093 6.94 19.94 13.68
1/1/2023 3:30:00 AM 1.58 34.844 0.093 6.97 20.32 13.67
1/1/2023 3:45:00 AM 1.6 34.88 0.092 6.98 17.97 13.68
1/1/2023 4:00:00 AM 1.62 34.916 0.092 6.95 17.42 13.67
1/1/2023 4:15:00 AM 1.64 34.952 0.092 6.98 19.03 13.66
1/1/2023 4:30:00 AM 1.65 34.97 0.092 6.97 19.64 13.66
1/1/2023 4:45:00 AM 1.66 34.988 0.091 6.97 17.01 13.65
1/1/2023 5:00:00 AM 1.68 35.024 0.091 6.98 17.81 13.66
1/1/2023 5:15:00 AM 1.69 35.042 0.091 6.97 16.46 13.65
1/1/2023 5:30:00 AM 1.7 35.06 0.091 6.98 17.82 13.65
1/1/2023 5:45:00 AM 1.71 35.078 0.091 6.98 41.53 13.65
1/1/2023 6:00:00 AM 1.72 35.096 0.091 6.95 16.23 13.65
1/1/2023 6:15:00 AM 1.73 35.114 0.091 6.98 16.36 13.65
1/1/2023 6:30:00 AM 1.74 35.132 0.091 6.96 31.8 13.65
1/1/2023 6:45:00 AM 1.75 35.15 0.091 6.96 15.63 13.65
1/1/2023 7:00:00 AM 1.76 35.168 0.091 6.98 16.16 13.65
1/1/2023 7:15:00 AM 1.77 35.186 0.091 6.96 15.69 13.64
1/1/2023 7:30:00 AM 1.78 35.204 0.091 6.96 12.33 13.65
1/1/2023 7:45:00 AM 1.79 35.222 0.091 6.96 16.14 13.64
1/1/2023 8:00:00 AM 1.8 35.24 0.091 6.98 15.7 13.64
1/1/2023 8:15:00 AM 1.8 35.24 0.091 6.97 15.04 13.64
1/1/2023 8:30:00 AM 1.81 35.258 0.091 6.96 14.75 13.64
1/1/2023 8:45:00 AM 1.83 35.294 0.091 6.98 15.22 13.64
1/1/2023 9:00:00 AM 1.84 35.312 0.091 6.97 14.67 13.64
1/1/2023 9:15:00 AM 1.86 35.348 0.091 6.97 15.4 13.65
1/1/2023 9:30:00 AM 1.88 35.384 0.091 6.99 14.79 13.65
1/1/2023 9:45:00 AM 1.9 35.42 0.091 6.99 15.34 13.66
1/1/2023 10:00:00 AM 1.92 35.456 0.091 6.96 15.03 13.66
1/1/2023 10:15:00 AM 1.95 35.51 0.091 6.98 13.25 13.67
1/1/2023 10:30:00 AM 1.99 35.582 0.091 7 13.83 13.67
1/1/2023 10:45:00 AM 2.01 35.618 0.091 7 14.18 13.68
1/1/2023 11:00:00 AM 2.03 35.654 0.091 7 14.14 13.68
1/1/2023 11:15:00 AM 2.05 35.69 0.091 6.99 12.92 13.68
1/1/2023 11:30:00 AM 2.1 35.78 0.091 7 13.51 13.69
1/1/2023 11:45:00 AM 2.16 35.888 0.091 6.98 12.58 13.68
1/1/2023 12:00:00 PM 2.2 35.96 0.091 7.01 12.94 13.69
1/1/2023 12:15:00 PM 2.26 36.068 0.091 7.01 12.99 13.69
1/1/2023 12:30:00 PM 2.3 36.14 0.091 7.02 12.95 13.68
1/1/2023 12:45:00 PM 2.36 36.248 0.091 7 12.26 13.68
1/1/2023 1:00:00 PM 2.4 36.32 0.091 7.02 12.6 13.67
1/1/2023 1:15:00 PM 2.43 36.374 0.091 7.02 12.82 13.66
1/1/2023 1:30:00 PM 2.45 36.41 0.091 7.03 13.6 13.64
1/1/2023 1:45:00 PM 2.47 36.446 0.091 7.02 12.7 13.63
1/1/2023 2:00:00 PM 2.49 36.482 0.09 7.02 12.51 13.63
1/1/2023 2:15:00 PM 2.52 36.536 0.09 7.01 12.46 13.62
1/1/2023 2:30:00 PM 2.54 36.572 0.09 7.01 11.41 13.61
1/1/2023 2:45:00 PM 2.55 36.59 0.09 7.02 12.19 13.6
1/1/2023 3:00:00 PM 2.57 36.626 0.09 7.02 12.28 13.59
1/1/2023 3:15:00 PM 2.58 36.644 0.09 7.01 11.75 13.59
1/1/2023 3:30:00 PM 2.59 36.662 0.09 7.02 10.79 13.58
1/1/2023 3:45:00 PM 2.6 36.68 0.09 7.01 11.53 13.56
1/1/2023 4:00:00 PM 2.62 36.716 0.09 7 11.43 13.55
1/1/2023 4:15:00 PM 2.62 36.716 0.09 7 11.49 13.54
1/1/2023 4:30:00 PM 2.63 36.734 0.09 6.99 10.86 13.52
1/1/2023 4:45:00 PM 2.63 36.734 0.09 6.98 10.99 13.51
1/1/2023 5:00:00 PM 2.63 36.734 0.09 6.99 12.1 13.49
1/1/2023 5:15:00 PM 2.62 36.716 0.09 6.97 11.54 13.47
1/1/2023 5:30:00 PM 2.61 36.698 0.09 6.95 11.86 13.46
1/1/2023 5:45:00 PM 2.6 36.68 0.09 6.97 11.34 13.45
1/1/2023 6:00:00 PM 2.58 36.644 0.09 6.96 11.48 13.44
1/1/2023 6:15:00 PM 2.56 36.608 0.091 6.96 12.25 13.44
1/1/2023 6:30:00 PM 2.54 36.572 0.091 6.95 12.08 13.43
1/1/2023 6:45:00 PM 2.52 36.536 0.091 6.94 10.98 13.42
1/1/2023 7:00:00 PM 2.5 36.5 0.091 6.93 11.22 13.42
1/1/2023 7:15:00 PM 2.49 36.482 0.091 6.94 11.07 13.41
1/1/2023 7:30:00 PM 2.48 36.464 0.091 6.94 10.35 13.42
1/1/2023 7:45:00 PM 2.46 36.428 0.091 6.94 10.95 13.41
1/1/2023 8:00:00 PM 2.45 36.41 0.091 6.93 10.6 13.41
1/1/2023 8:15:00 PM 2.43 36.374 0.091 6.93 10.72 13.41
1/1/2023 8:30:00 PM 2.42 36.356 0.091 6.93 10.48 13.41
1/1/2023 8:45:00 PM 2.41 36.338 0.091 6.92 10.9 13.42
1/1/2023 9:00:00 PM 2.4 36.32 0.091 6.92 11.33 13.41
1/1/2023 9:15:00 PM 2.38 36.284 0.091 6.91 10.99 13.42
1/1/2023 9:30:00 PM 2.37 36.266 0.091 6.92 11.08 13.43
1/1/2023 9:45:00 PM 2.36 36.248 0.091 6.91 11.02 13.43
1/1/2023 10:00:00 PM 2.35 36.23 0.092 6.91 11.3 13.43
1/1/2023 10:15:00 PM 2.34 36.212 0.092 6.89 10.76 13.44
1/1/2023 10:30:00 PM 2.33 36.194 0.092 6.91 11.6 13.44
1/1/2023 10:45:00 PM 2.31 36.158 0.092 6.9 10.5 13.44
1/1/2023 11:00:00 PM 2.31 36.158 0.091 6.9 10.94 13.44
1/1/2023 11:15:00 PM 2.3 36.14 0.091 6.9 10.58 13.45
1/1/2023 11:30:00 PM 2.29 36.122 0.092 6.9 10.18 13.45
1/1/2023 11:45:00 PM 2.28 36.104 0.091 6.9 10.39 13.45
1/2/2023 12:00:00 AM 2.27 36.086 0.091 6.88 10.02 13.45
1/2/2023 12:15:00 AM 2.27 36.086 0.091 6.91 9.47 13.45
1/2/2023 12:30:00 AM 2.26 36.068 0.091 6.89 10.14 13.45
1/2/2023 12:45:00 AM 2.25 36.05 0.091 6.9 9.15 13.45
1/2/2023 1:00:00 AM 2.24 36.032 0.091 6.9 9.19 13.45
1/2/2023 1:15:00 AM 2.24 36.032 0.091 6.89 9.55 13.45
1/2/2023 1:30:00 AM 2.23 36.014 0.091 6.9 9.18 13.45
1/2/2023 1:45:00 AM 2.23 36.014 0.091 6.89 9.43 13.45
1/2/2023 2:00:00 AM 2.22 35.996 0.091 6.9 9.48 13.45
1/2/2023 2:15:00 AM 2.21 35.978 0.091 6.89 8.9 13.46
1/2/2023 2:30:00 AM 2.21 35.978 0.091 6.89 9 13.46
1/2/2023 2:45:00 AM 2.2 35.96 0.091 6.88 8.63 13.46
1/2/2023 3:00:00 AM 2.2 35.96 0.091 6.9 9.23 13.46
1/2/2023 3:15:00 AM 2.2 35.96 0.091 6.89 8.66 13.46
1/2/2023 3:30:00 AM 2.19 35.942 0.091 6.9 8.92 13.46
1/2/2023 3:45:00 AM 2.19 35.942 0.091 6.9 9.01 13.47
1/2/2023 4:00:00 AM 2.19 35.942 0.091 6.9 9 13.46
1/2/2023 4:15:00 AM 2.19 35.942 0.091 6.87 9.11 13.46
1/2/2023 4:30:00 AM 2.2 35.96 0.091 6.9 8.79 13.47
1/2/2023 4:45:00 AM 2.2 35.96 0.091 6.9 8.82 13.47
1/2/2023 5:00:00 AM 2.21 35.978 0.091 6.89 8.75 13.46
1/2/2023 5:15:00 AM 2.21 35.978 0.091 6.9 9.19 13.47
1/2/2023 5:30:00 AM 2.21 35.978 0.091 6.9 8.54 13.46
1/2/2023 5:45:00 AM 2.22 35.996 0.091 6.89 8.23 13.46
1/2/2023 6:00:00 AM 2.22 35.996 0.091 6.89 8.56 13.46
1/2/2023 6:15:00 AM 2.23 36.014 0.091 6.88 8.26 13.46
1/2/2023 6:30:00 AM 2.23 36.014 0.091 6.9 8.26 13.46
1/2/2023 6:45:00 AM 2.24 36.032 0.091 6.9 7.82 13.46
1/2/2023 7:00:00 AM 2.24 36.032 0.091 6.9 8.47 13.46
1/2/2023 7:15:00 AM 2.25 36.05 0.091 6.88 7.78 13.46
1/2/2023 7:30:00 AM 2.25 36.05 0.091 6.9 8.44 13.46
1/2/2023 7:45:00 AM 2.25 36.05 0.091 6.9 8.01 13.46
1/2/2023 8:00:00 AM 2.25 36.05 0.091 6.89 7.97 13.46
1/2/2023 8:15:00 AM 2.26 36.068 0.091 6.87 7.98 13.47
1/2/2023 8:30:00 AM 2.27 36.086 0.091 6.9 8.02 13.47
1/2/2023 8:45:00 AM 2.28 36.104 0.091 6.9 8.14 13.48
1/2/2023 9:00:00 AM 2.3 36.14 0.091 6.9 7.69 13.49
1/2/2023 9:15:00 AM 2.31 36.158 0.091 6.9 8.01 13.49
1/2/2023 9:30:00 AM 2.33 36.194 0.091 6.9 7.44 13.51
1/2/2023 9:45:00 AM 2.36 36.248 0.09 6.91 7.59 13.51
1/2/2023 10:00:00 AM 2.4 36.32 0.09 6.92 7.24 13.52
1/2/2023 10:15:00 AM 2.43 36.374 0.09 6.9 7.19 13.53
1/2/2023 10:30:00 AM 2.46 36.428 0.091 6.92 7.22 13.55
1/2/2023 10:45:00 AM 2.51 36.518 0.09 6.93 7.48 13.56
1/2/2023 11:00:00 AM 2.57 36.626 0.09 6.92 7.05 13.57
1/2/2023 11:15:00 AM 2.63 36.734 0.09 6.92 7.64 13.58
1/2/2023 11:30:00 AM 2.68 36.824 0.09 6.95 7.92 13.58
1/2/2023 11:45:00 AM 2.74 36.932 0.09 6.95 7.68 13.57
1/2/2023 12:00:00 PM 2.8 37.04 0.09 6.96 8.33 13.56
1/2/2023 12:15:00 PM 2.86 37.148 0.09 6.93 8.93 13.55
1/2/2023 12:30:00 PM 2.92 37.256 0.09 6.97 9.06 13.54
1/2/2023 12:45:00 PM 2.98 37.364 0.09 6.96 8.63 13.53
1/2/2023 1:00:00 PM 3.05 37.49 0.09 6.95 8.51 13.51
1/2/2023 1:15:00 PM 3.12 37.616 0.09 6.98 8.63 13.5
1/2/2023 1:30:00 PM 3.19 37.742 0.09 6.96 8.7 13.49
1/2/2023 1:45:00 PM 3.28 37.904 0.09 6.99 8.82 13.47
1/2/2023 2:00:00 PM 3.37 38.066 0.09 6.99 7.86 13.46
1/2/2023 2:15:00 PM 3.42 38.156 0.09 6.97 7.7 13.44
1/2/2023 2:30:00 PM 3.48 38.264 0.09 7 7.2 13.42
1/2/2023 2:45:00 PM 3.53 38.354 0.09 7 6.94 13.4
1/2/2023 3:00:00 PM 3.57 38.426 0.09 7 7.43 13.36
1/2/2023 3:15:00 PM 3.61 38.498 0.09 7 6.95 13.34
1/2/2023 3:30:00 PM 3.66 38.588 0.09 7.01 7.28 13.31
1/2/2023 3:45:00 PM 3.68 38.624 0.09 6.98 7.29 13.28
1/2/2023 4:00:00 PM 3.69 38.642 0.09 7 7.59 13.25
1/2/2023 4:15:00 PM 3.7 38.66 0.09 6.99 7.49 13.23
1/2/2023 4:30:00 PM 3.69 38.642 0.091 7 7.53 13.21
1/2/2023 4:45:00 PM 3.68 38.624 0.09 6.96 7.99 13.19
1/2/2023 5:00:00 PM 3.65 38.57 0.091 6.97 9.19 13.17
1/2/2023 5:15:00 PM 3.6 38.48 0.091 6.98 9.54 13.16
1/2/2023 5:30:00 PM 3.56 38.408 0.091 6.98 9.95 13.15
1/2/2023 5:45:00 PM 3.5 38.3 0.091 6.97 9.49 13.15
1/2/2023 6:00:00 PM 3.45 38.21 0.091 6.93 9.06 13.14
1/2/2023 6:15:00 PM 3.4 38.12 0.091 6.96 8.32 13.13
1/2/2023 6:30:00 PM 3.36 38.048 0.091 6.95 8.31 13.13
1/2/2023 6:45:00 PM 3.32 37.976 0.091 6.95 8 13.13
1/2/2023 7:00:00 PM 3.27 37.886 0.091 6.91 8.62 13.13
1/2/2023 7:15:00 PM 3.23 37.814 0.091 6.94 8.35 13.13
1/2/2023 7:30:00 PM 3.19 37.742 0.091 6.93 8.57 13.14
1/2/2023 7:45:00 PM 3.14 37.652 0.092 6.93 7.94 13.14
1/2/2023 8:00:00 PM 3.1 37.58 0.092 6.92 7.7 13.15
1/2/2023 8:15:00 PM 3.06 37.508 0.092 6.92 8.27 13.14
1/2/2023 8:30:00 PM 3.01 37.418 0.092 6.91 7.5 13.16
1/2/2023 8:45:00 PM 2.96 37.328 0.092 6.91 7.7 13.17
1/2/2023 9:00:00 PM 2.91 37.238 0.092 6.89 7.44 13.18
1/2/2023 9:15:00 PM 2.86 37.148 0.092 6.89 7.96 13.19
1/2/2023 9:30:00 PM 2.81 37.058 0.092 6.9 7.74 13.2
1/2/2023 9:45:00 PM 2.77 36.986 0.093 6.9 7.77 13.22
1/2/2023 10:00:00 PM 2.71 36.878 0.093 6.89 7.71 13.24
1/2/2023 10:15:00 PM 2.67 36.806 0.093 6.89 7.44 13.25
1/2/2023 10:30:00 PM 2.62 36.716 0.093 6.85 7.76 13.27
1/2/2023 10:45:00 PM 2.57 36.626 0.093 6.88 7.92 13.28
1/2/2023 11:00:00 PM 2.52 36.536 0.093 6.88 7.63 13.3
1/2/2023 11:15:00 PM 2.47 36.446 0.094 6.85 7.6 13.31
1/2/2023 11:30:00 PM 2.43 36.374 0.094 6.88 8.3 13.32
1/2/2023 11:45:00 PM 2.4 36.32 0.094 6.87 8.55 13.33
1/3/2023 12:00:00 AM 2.37 36.266 0.094 6.88 7.68 13.35
1/3/2023 12:15:00 AM 2.34 36.212 0.094 6.88 7.37 13.36
1/3/2023 12:30:00 AM 2.32 36.176 0.094 6.87 7.72 13.37
1/3/2023 12:45:00 AM 2.29 36.122 0.094 6.87 7.45 13.39
1/3/2023 1:00:00 AM 2.27 36.086 0.094 6.88 7.52 13.4
1/3/2023 1:15:00 AM 2.25 36.05 0.094 6.88 7.42 13.4
1/3/2023 1:30:00 AM 2.24 36.032 0.094 6.88 7.13 13.4
1/3/2023 1:45:00 AM 2.24 36.032 0.094 6.88 7.27 13.41
1/3/2023 2:00:00 AM 2.24 36.032 0.094 6.88 7.73 13.41
1/3/2023 2:15:00 AM 2.24 36.032 0.094 6.88 7.47 13.41
1/3/2023 2:30:00 AM 2.24 36.032 0.094 6.88 7.54 13.42
1/3/2023 2:45:00 AM 2.24 36.032 0.094 6.89 7.32 13.41
1/3/2023 3:00:00 AM 2.25 36.05 0.094 6.88 7.09 13.41
1/3/2023 3:15:00 AM 2.26 36.068 0.094 6.89 6.92 13.41
1/3/2023 3:30:00 AM 2.27 36.086 0.094 6.89 7.25 13.41
1/3/2023 3:45:00 AM 2.28 36.104 0.094 6.89 7.28 13.4
1/3/2023 4:00:00 AM 2.29 36.122 0.094 6.89 7.19 13.41
1/3/2023 4:15:00 AM 2.3 36.14 0.094 6.9 7.06 13.4
1/3/2023 4:30:00 AM 2.31 36.158 0.094 6.9 7.1 13.4
1/3/2023 4:45:00 AM 2.32 36.176 0.094 6.9 6.72 13.39
1/3/2023 5:00:00 AM 2.33 36.194 0.094 6.89 7.06 13.39
1/3/2023 5:15:00 AM 2.35 36.23 0.094 6.91 6.75 13.38
1/3/2023 5:30:00 AM 2.36 36.248 0.094 6.9 6.71 13.37
1/3/2023 5:45:00 AM 2.37 36.266 0.094 6.91 6.92 13.36
1/3/2023 6:00:00 AM 2.39 36.302 0.094 6.91 6.5 13.35
1/3/2023 6:15:00 AM 2.4 36.32 0.094 6.91 6.56 13.34
1/3/2023 6:30:00 AM 2.42 36.356 0.094 6.91 6.65 13.34
1/3/2023 6:45:00 AM 2.44 36.392 0.094 6.91 6.51 13.33
1/3/2023 7:00:00 AM 2.45 36.41 0.094 6.91 6.48 13.32
1/3/2023 7:15:00 AM 2.47 36.446 0.094 6.88 6.47 13.31
1/3/2023 7:30:00 AM 2.48 36.464 0.094 6.91 6.75 13.3
1/3/2023 7:45:00 AM 2.5 36.5 0.094 6.9 6.42 13.3
1/3/2023 8:00:00 AM 2.52 36.536 0.094 6.92 6.47 13.29
1/3/2023 8:15:00 AM 2.54 36.572 0.094 6.91 6.22 13.28
1/3/2023 8:30:00 AM 2.56 36.608 0.095 6.92 6.41 13.28
1/3/2023 8:45:00 AM 2.58 36.644 0.094 6.92 6.59 13.27
1/3/2023 9:00:00 AM 2.6 36.68 0.094 6.92 6.21 13.27
1/3/2023 9:15:00 AM 2.62 36.716 0.094 6.92 5.92 13.27
1/3/2023 9:30:00 AM 2.64 36.752 0.094 6.92 5.95 13.27
1/3/2023 9:45:00 AM 2.66 36.788 0.094 6.92 5.9 13.27
1/3/2023 10:00:00 AM 2.68 36.824 0.094 6.92 6.15 13.27
1/3/2023 10:15:00 AM 2.71 36.878 0.094 6.92 6.15 13.28
1/3/2023 10:30:00 AM 2.73 36.914 0.094 6.94 6.13 13.27
1/3/2023 10:45:00 AM 2.75 36.95 0.094 6.94 6.11 13.28
1/3/2023 11:00:00 AM 2.77 36.986 0.094 6.93 6.45 13.28
1/3/2023 11:15:00 AM 2.8 37.04 0.094 6.94 5.94 13.28
1/3/2023 11:30:00 AM 2.83 37.094 0.094 6.92 6.43 13.28
1/3/2023 11:45:00 AM 2.86 37.148 0.095 6.94 7.4 13.28
1/3/2023 12:00:00 PM 2.89 37.202 0.095 6.95 7.63 13.28
1/3/2023 12:15:00 PM 2.91 37.238 0.096 6.95 8.01 13.28
1/3/2023 12:30:00 PM 2.94 37.292 0.097 6.94 9.51 13.27
1/3/2023 12:45:00 PM 2.97 37.346 0.098 6.95 13.44 13.26
1/3/2023 1:00:00 PM 2.98 37.364 0.098 6.92 17.98 13.24
1/3/2023 1:15:00 PM 3 37.4 0.099 6.95 21.49 13.23
1/3/2023 1:30:00 PM 3.02 37.436 0.1 6.95 25.98 13.23
1/3/2023 1:45:00 PM 3.04 37.472 0.101 6.95 24.71 13.23
1/3/2023 2:00:00 PM 3.06 37.508 0.102 6.95 24.39 13.23
1/3/2023 2:15:00 PM 3.07 37.526 0.103 6.96 23.41 13.22
1/3/2023 2:30:00 PM 3.08 37.544 0.103 6.94 23.31 13.21
1/3/2023 2:45:00 PM 3.09 37.562 0.104 6.96 24.1 13.21
1/3/2023 3:00:00 PM 3.09 37.562 0.104 6.94 27.32 13.19
1/3/2023 3:15:00 PM 3.09 37.562 0.104 6.96 31.9 13.19
1/3/2023 3:30:00 PM 3.08 37.544 0.104 6.96 29.97 13.19
1/3/2023 3:45:00 PM 3.08 37.544 0.103 6.96 30.22 13.18
1/3/2023 4:00:00 PM 3.07 37.526 0.102 6.95 31.62 13.17
1/3/2023 4:15:00 PM 3.07 37.526 0.101 6.94 30.14 13.16
1/3/2023 4:30:00 PM 3.07 37.526 0.101 6.94 29.58 13.16
1/3/2023 4:45:00 PM 3.07 37.526 0.101 6.94 29.83 13.15
1/3/2023 5:00:00 PM 3.08 37.544 0.1 6.93 32.65 13.13
1/3/2023 5:15:00 PM 3.08 37.544 0.1 6.92 31.28 13.13
1/3/2023 5:30:00 PM 3.09 37.562 0.1 6.93 34.76 13.12
1/3/2023 5:45:00 PM 3.11 37.598 0.1 6.9 33.73 13.11
1/3/2023 6:00:00 PM 3.12 37.616 0.1 6.92 33.17 13.1
1/3/2023 6:15:00 PM 3.13 37.634 0.1 6.89 33.62 13.09
1/3/2023 6:30:00 PM 3.14 37.652 0.1 6.92 36.1 13.07
1/3/2023 6:45:00 PM 3.16 37.688 0.101 6.92 34.53 13.06
1/3/2023 7:00:00 PM 3.17 37.706 0.101 6.91 33.07 13.05
1/3/2023 7:15:00 PM 3.18 37.724 0.101 6.89 32.65 13.04
1/3/2023 7:30:00 PM 3.19 37.742 0.101 6.91 31.52 13.03
1/3/2023 7:45:00 PM 3.2 37.76 0.101 6.91 30.76 13.03
1/3/2023 8:00:00 PM 3.21 37.778 0.1 6.89 34.78 13.02
1/3/2023 8:15:00 PM 3.22 37.796 0.1 6.91 36.12 13.01
1/3/2023 8:30:00 PM 3.23 37.814 0.1 6.91 31.12 13
1/3/2023 8:45:00 PM 3.24 37.832 0.099 6.91 29.3 13
1/3/2023 9:00:00 PM 3.25 37.85 0.099 6.87 28.53 13
1/3/2023 9:15:00 PM 3.25 37.85 0.098 6.91 27.8 12.99
1/3/2023 9:30:00 PM 3.26 37.868 0.098 6.9 26.49 12.99
1/3/2023 9:45:00 PM 3.26 37.868 0.097 6.9 27.45 12.99
1/3/2023 10:00:00 PM 3.25 37.85 0.097 6.86 25.75 12.99
1/3/2023 10:15:00 PM 3.25 37.85 0.097 6.9 27.25 12.98
1/3/2023 10:30:00 PM 3.26 37.868 0.096 6.89 25.33 12.99
1/3/2023 10:45:00 PM 3.26 37.868 0.096 6.88 24.31 12.98
1/3/2023 11:00:00 PM 3.27 37.886 0.095 6.86 27.27 12.98
1/3/2023 11:15:00 PM 3.27 37.886 0.095 6.89 25.63 12.98
1/3/2023 11:30:00 PM 3.28 37.904 0.095 6.85 22.97 12.97
1/3/2023 11:45:00 PM 3.29 37.922 0.095 6.89 24.4 12.96
1/4/2023 12:00:00 AM 3.29 37.922 0.095 6.88 22.92 12.96
1/4/2023 12:15:00 AM 3.3 37.94 0.095 6.88 23.97 12.95
1/4/2023 12:30:00 AM 3.31 37.958 0.095 6.85 21.6 12.95
1/4/2023 12:45:00 AM 3.32 37.976 0.095 6.88 22.33 12.94
1/4/2023 1:00:00 AM 3.33 37.994 0.095 6.88 21.02 12.94
1/4/2023 1:15:00 AM 3.34 38.012 0.096 6.88 20.66 12.93
1/4/2023 1:30:00 AM 3.35 38.03 0.096 6.84 39.22 12.92
1/4/2023 1:45:00 AM 3.36 38.048 0.096 6.88 18.77 12.92
1/4/2023 2:00:00 AM 3.37 38.066 0.096 6.86 15.62 12.91
1/4/2023 2:15:00 AM 3.37 38.066 0.096 6.87 17.13 12.91
1/4/2023 2:30:00 AM 3.38 38.084 0.096 6.87 16.95 12.9
1/4/2023 2:45:00 AM 3.39 38.102 0.096 6.87 16.49 12.89
1/4/2023 3:00:00 AM 3.4 38.12 0.096 6.87 16.08 12.9
1/4/2023 3:15:00 AM 3.41 38.138 0.096 6.87 15.33 12.89
1/4/2023 3:30:00 AM 3.42 38.156 0.096 6.86 14.37 12.89
1/4/2023 3:45:00 AM 3.42 38.156 0.095 6.87 14.9 12.88
1/4/2023 4:00:00 AM 3.43 38.174 0.095 6.86 15.18 12.88
1/4/2023 4:15:00 AM 3.43 38.174 0.095 6.86 13.97 12.88
1/4/2023 4:30:00 AM 3.44 38.192 0.095 6.86 13.92 12.88
1/4/2023 4:45:00 AM 3.44 38.192 0.095 6.86 12.82 12.87
1/4/2023 5:00:00 AM 3.45 38.21 0.095 6.85 12.74 12.87
1/4/2023 5:15:00 AM 3.45 38.21 0.094 6.86 12.54 12.87
1/4/2023 5:30:00 AM 3.45 38.21 0.094 6.85 12.38 12.87
1/4/2023 5:45:00 AM 3.45 38.21 0.094 6.85 12.69 12.87
1/4/2023 6:00:00 AM 3.45 38.21 0.094 6.82 12.7 12.87
1/4/2023 6:15:00 AM 3.44 38.192 0.094 6.85 11.77 12.86
1/4/2023 6:30:00 AM 3.45 38.21 0.094 6.84 11.63 12.87
1/4/2023 6:45:00 AM 3.44 38.192 0.094 6.85 12.1 12.87
1/4/2023 7:00:00 AM 3.44 38.192 0.093 6.84 11.69 12.87
1/4/2023 7:15:00 AM 3.44 38.192 0.094 6.85 11.44 12.87
1/4/2023 7:30:00 AM 3.44 38.192 0.094 6.84 11.97 12.87
1/4/2023 7:45:00 AM 3.44 38.192 0.093 6.84 11.4 12.87
1/4/2023 8:00:00 AM 3.45 38.21 0.093 6.84 11.47 12.88
1/4/2023 8:15:00 AM 3.46 38.228 0.093 6.84 11.38 12.88
1/4/2023 8:30:00 AM 3.47 38.246 0.093 6.82 11.54 12.88
1/4/2023 8:45:00 AM 3.48 38.264 0.093 6.84 10.82 12.89
1/4/2023 9:00:00 AM 3.5 38.3 0.093 6.81 10.56 12.9
1/4/2023 9:15:00 AM 3.52 38.336 0.093 6.85 10.94 12.91
1/4/2023 9:30:00 AM 3.54 38.372 0.093 6.82 10.38 12.92
1/4/2023 9:45:00 AM 3.57 38.426 0.093 6.85 9.97 12.93
1/4/2023 10:00:00 AM 3.6 38.48 0.093 6.85 10.06 12.94
1/4/2023 10:15:00 AM 3.64 38.552 0.093 6.85 10.09 12.95
1/4/2023 10:30:00 AM 3.67 38.606 0.093 6.83 9.25 12.96
1/4/2023 10:45:00 AM 3.71 38.678 0.093 6.87 8.93 12.97
1/4/2023 11:00:00 AM 3.76 38.768 0.093 6.87 8.91 12.98
1/4/2023 11:15:00 AM 3.81 38.858 0.093 6.88 9.18 12.99
1/4/2023 11:30:00 AM 3.86 38.948 0.093 6.88 9.38 12.99
1/4/2023 11:45:00 AM 3.91 39.038 0.093 6.88 8.9 12.99
1/4/2023 12:00:00 PM 3.95 39.11 0.093 6.89 8.95 12.99
1/4/2023 12:15:00 PM 4.01 39.218 0.093 6.9 8.89 12.97
1/4/2023 12:30:00 PM 4.06 39.308 0.093 6.9 8.44 12.97
1/4/2023 12:45:00 PM 4.11 39.398 0.093 6.91 8.74 12.95
1/4/2023 1:00:00 PM 4.16 39.488 0.093 6.88 8.55 12.94
1/4/2023 1:15:00 PM 4.21 39.578 0.093 6.92 8.14 12.93
1/4/2023 1:30:00 PM 4.25 39.65 0.093 6.92 8.01 12.91
1/4/2023 1:45:00 PM 4.3 39.74 0.093 6.92 8.43 12.9
1/4/2023 2:00:00 PM 4.33 39.794 0.093 6.92 8.51 12.89
1/4/2023 2:15:00 PM 4.37 39.866 0.093 6.93 8.15 12.87
1/4/2023 2:30:00 PM 4.4 39.92 0.093 6.92 8.63 12.85
1/4/2023 2:45:00 PM 4.43 39.974 0.093 6.93 8.34 12.83
1/4/2023 3:00:00 PM 4.46 40.028 0.093 6.92 8.18 12.81
1/4/2023 3:15:00 PM 4.49 40.082 0.093 6.93 8.4 12.78
1/4/2023 3:30:00 PM 4.51 40.118 0.093 6.92 8.14 12.76
1/4/2023 3:45:00 PM 4.53 40.154 0.093 6.92 7.83 12.73
1/4/2023 4:00:00 PM 4.55 40.19 0.093 6.92 8.38 12.71
1/4/2023 4:15:00 PM 4.57 40.226 0.093 6.91 8.22 12.69
1/4/2023 4:30:00 PM 4.58 40.244 0.093 6.91 8.09 12.67
1/4/2023 4:45:00 PM 4.6 40.28 0.093 6.91 8.1 12.64
1/4/2023 5:00:00 PM 4.61 40.298 0.092 6.86 8.68 12.62
1/4/2023 5:15:00 PM 4.63 40.334 0.092 6.91 8 12.6
1/4/2023 5:30:00 PM 4.64 40.352 0.092 6.9 8.6 12.57
1/4/2023 5:45:00 PM 4.65 40.37 0.092 6.89 8.17 12.56
1/4/2023 6:00:00 PM 4.66 40.388 0.092 6.87 8.23 12.54
1/4/2023 6:15:00 PM 4.67 40.406 0.092 6.9 8.94 12.53
1/4/2023 6:30:00 PM 4.67 40.406 0.092 6.87 9.15 12.52
1/4/2023 6:45:00 PM 4.68 40.424 0.093 6.89 9.56 12.5
1/4/2023 7:00:00 PM 4.68 40.424 0.092 6.88 9.05 12.49
1/4/2023 7:15:00 PM 4.69 40.442 0.093 6.89 9.07 12.48
1/4/2023 7:30:00 PM 4.69 40.442 0.093 6.86 9.61 12.48
1/4/2023 7:45:00 PM 4.69 40.442 0.093 6.88 10.03 12.47
1/4/2023 8:00:00 PM 4.69 40.442 0.093 6.88 10.41 12.47
1/4/2023 8:15:00 PM 4.69 40.442 0.093 6.88 11.02 12.46
1/4/2023 8:30:00 PM 4.69 40.442 0.093 6.86 11.4 12.46
1/4/2023 8:45:00 PM 4.68 40.424 0.093 6.88 10.81 12.46
1/4/2023 9:00:00 PM 4.68 40.424 0.093 6.86 12.32 12.46
1/4/2023 9:15:00 PM 4.68 40.424 0.094 6.87 11.13 12.46
1/4/2023 9:30:00 PM 4.68 40.424 0.094 6.85 11.55 12.46
1/4/2023 9:45:00 PM 4.68 40.424 0.094 6.87 11.19 12.46
1/4/2023 10:00:00 PM 4.68 40.424 0.094 6.86 11.61 12.46
1/4/2023 10:15:00 PM 4.68 40.424 0.094 6.87 11.99 12.47
1/4/2023 10:30:00 PM 4.68 40.424 0.094 6.86 11.68 12.46
1/4/2023 10:45:00 PM 4.68 40.424 0.094 6.87 12.23 12.47
1/4/2023 11:00:00 PM 4.68 40.424 0.094 6.84 12.53 12.47
1/4/2023 11:15:00 PM 4.69 40.442 0.094 6.88 11.97 12.47
1/4/2023 11:30:00 PM 4.69 40.442 0.094 6.87 11.86 12.47
1/4/2023 11:45:00 PM 4.69 40.442 0.095 6.88 13.14 12.47
1/5/2023 12:00:00 AM 4.69 40.442 0.095 6.85 12.73 12.47
1/5/2023 12:15:00 AM 4.69 40.442 0.095 6.87 13.68 12.47
1/5/2023 12:30:00 AM 4.69 40.442 0.095 6.87 13.34 12.47
1/5/2023 12:45:00 AM 4.69 40.442 0.095 6.87 13.61 12.46
1/5/2023 1:00:00 AM 4.69 40.442 0.095 6.86 13.94 12.46
1/5/2023 1:15:00 AM 4.69 40.442 0.095 6.87 13.37 12.45
1/5/2023 1:30:00 AM 4.69 40.442 0.095 6.83 14.92 12.45
1/5/2023 1:45:00 AM 4.72 40.496 0.096 6.87 15.29 12.45
1/5/2023 2:00:00 AM 4.72 40.496 0.096 6.85 15.49 12.44
1/5/2023 2:15:00 AM 4.72 40.496 0.096 6.88 14.61 12.44
1/5/2023 2:30:00 AM 4.71 40.478 0.096 6.85 14.62 12.44
1/5/2023 2:45:00 AM 4.7 40.46 0.096 6.88 13.74 12.45
1/5/2023 3:00:00 AM 4.69 40.442 0.096 6.87 13.86 12.44
1/5/2023 3:15:00 AM 4.68 40.424 0.096 6.88 12.89 12.44
1/5/2023 3:30:00 AM 4.66 40.388 0.096 6.86 12.78 12.44
1/5/2023 3:45:00 AM 4.64 40.352 0.096 6.88 11.68 12.45
1/5/2023 4:00:00 AM 4.62 40.316 0.096 6.86 12.19 12.45
1/5/2023 4:15:00 AM 4.59 40.262 0.096 6.89 11.05 12.46
1/5/2023 4:30:00 AM 4.56 40.208 0.096 6.88 11.47 12.47
1/5/2023 4:45:00 AM 4.53 40.154 0.096 6.88 11.5 12.48
1/5/2023 5:00:00 AM 4.5 40.1 0.096 6.88 10.76 12.49
1/5/2023 5:15:00 AM 4.47 40.046 0.095 6.88 9.57 12.5
1/5/2023 5:30:00 AM 4.44 39.992 0.095 6.88 9.53 12.51
1/5/2023 5:45:00 AM 4.42 39.956 0.095 6.88 9.55 12.52
1/5/2023 6:00:00 AM 4.39 39.902 0.095 6.87 9.79 12.53
1/5/2023 6:15:00 AM 4.36 39.848 0.095 6.88 9.34 12.54
1/5/2023 6:30:00 AM 4.33 39.794 0.094 6.87 9.38 12.56
1/5/2023 6:45:00 AM 4.3 39.74 0.094 6.85 8.92 12.56
1/5/2023 7:00:00 AM 4.28 39.704 0.094 6.86 9.29 12.57
1/5/2023 7:15:00 AM 4.24 39.632 0.094 6.87 8.8 12.58
1/5/2023 7:30:00 AM 4.22 39.596 0.094 6.86 8.98 12.6
1/5/2023 7:45:00 AM 4.18 39.524 0.094 6.87 9.53 12.61
1/5/2023 8:00:00 AM 4.16 39.488 0.093 6.87 8.68 12.63
1/5/2023 8:15:00 AM 4.13 39.434 0.093 6.85 8.77 12.64
1/5/2023 8:30:00 AM 4.11 39.398 0.093 6.87 8.76 12.66
1/5/2023 8:45:00 AM 4.09 39.362 0.093 6.84 8.75 12.68
1/5/2023 9:00:00 AM 4.07 39.326 0.093 6.87 8.6 12.7
1/5/2023 9:15:00 AM 4.06 39.308 0.093 6.87 8.51 12.71
1/5/2023 9:30:00 AM 4.05 39.29 0.093 6.87 8.29 12.73
1/5/2023 9:45:00 AM 4.05 39.29 0.093 6.87 8.39 12.76
1/5/2023 10:00:00 AM 4.05 39.29 0.093 6.88 7.75 12.79
1/5/2023 10:15:00 AM 4.07 39.326 0.093 6.88 7.79 12.81
1/5/2023 10:30:00 AM 4.09 39.362 0.093 6.89 7.5 12.83
1/5/2023 10:45:00 AM 4.12 39.416 0.093 6.89 7.71 12.85
1/5/2023 11:00:00 AM 4.16 39.488 0.093 6.9 7.74 12.85
1/5/2023 11:15:00 AM 4.2 39.56 0.093 6.89 7.17 12.86
1/5/2023 11:30:00 AM 4.26 39.668 0.093 6.92 7.26 12.87
1/5/2023 11:45:00 AM 4.31 39.758 0.093 6.92 7.66 12.87
1/5/2023 12:00:00 PM 4.37 39.866 0.093 6.93 6.99 12.88
1/5/2023 12:15:00 PM 4.45 40.01 0.093 6.92 7.09 12.87
1/5/2023 12:30:00 PM 4.53 40.154 0.093 6.95 7.12 12.87
1/5/2023 12:45:00 PM 4.6 40.28 0.093 6.95 6.98 12.85
1/5/2023 1:00:00 PM 4.67 40.406 0.093 6.96 7.07 12.84
1/5/2023 1:15:00 PM 4.74 40.532 0.093 6.96 6.72 12.83
1/5/2023 1:30:00 PM 4.8 40.64 0.093 6.97 6.88 12.81
1/5/2023 1:45:00 PM 4.87 40.766 0.093 6.97 6.69 12.79
1/5/2023 2:00:00 PM 4.94 40.892 0.093 6.97 7.99 12.79
1/5/2023 2:15:00 PM 5 41 0.093 6.98 6.75 12.77
1/5/2023 2:30:00 PM 5.04 41.072 0.093 6.98 6.6 12.76
1/5/2023 2:45:00 PM 5.07 41.126 0.093 6.99 6.38 12.74
1/5/2023 3:00:00 PM 5.11 41.198 0.093 6.99 6.46 12.72
1/5/2023 3:15:00 PM 5.14 41.252 0.093 6.99 6.81 12.7
1/5/2023 3:30:00 PM 5.18 41.324 0.093 6.99 6.35 12.67
1/5/2023 3:45:00 PM 5.19 41.342 0.093 6.99 6.25 12.64
1/5/2023 4:00:00 PM 5.2 41.36 0.093 6.98 6.16 12.62
1/5/2023 4:15:00 PM 5.19 41.342 0.093 6.98 6.33 12.59
1/5/2023 4:30:00 PM 5.18 41.324 0.093 6.97 6.43 12.57
1/5/2023 4:45:00 PM 5.16 41.288 0.093 6.98 6.3 12.54
1/5/2023 5:00:00 PM 5.14 41.252 0.093 6.97 6.35 12.53
1/5/2023 5:15:00 PM 5.11 41.198 0.093 6.96 6.82 12.51
1/5/2023 5:30:00 PM 5.09 41.162 0.093 6.95 6.33 12.5
1/5/2023 5:45:00 PM 5.06 41.108 0.093 6.95 6.43 12.48
1/5/2023 6:00:00 PM 5.02 41.036 0.093 6.94 6.31 12.48
1/5/2023 6:15:00 PM 4.99 40.982 0.093 6.91 7.04 12.47
1/5/2023 6:30:00 PM 4.95 40.91 0.093 6.94 6.95 12.46
1/5/2023 6:45:00 PM 4.92 40.856 0.093 6.94 7.36 12.45
1/5/2023 7:00:00 PM 4.88 40.784 0.093 6.92 7.21 12.45
1/5/2023 7:15:00 PM 4.84 40.712 0.093 6.92 7.63 12.45
1/5/2023 7:30:00 PM 4.81 40.658 0.093 6.89 7.81 12.45
1/5/2023 7:45:00 PM 4.77 40.586 0.093 6.9 7.73 12.46
1/5/2023 8:00:00 PM 4.73 40.514 0.093 6.89 7.52 12.46
1/5/2023 8:15:00 PM 4.69 40.442 0.093 6.9 8.18 12.48
1/5/2023 8:30:00 PM 4.64 40.352 0.093 6.89 8.08 12.48
1/5/2023 8:45:00 PM 4.59 40.262 0.093 6.86 8.66 12.49
1/5/2023 9:00:00 PM 4.54 40.172 0.093 6.87 7.89 12.5
1/5/2023 9:15:00 PM 4.49 40.082 0.093 6.89 8.1 12.51
1/5/2023 9:30:00 PM 4.45 40.01 0.093 6.84 8.54 12.53
1/5/2023 9:45:00 PM 4.4 39.92 0.093 6.88 7.99 12.54
1/5/2023 10:00:00 PM 4.36 39.848 0.093 6.87 8.6 12.55
1/5/2023 10:15:00 PM 4.31 39.758 0.093 6.87 8.68 12.56
1/5/2023 10:30:00 PM 4.26 39.668 0.093 6.86 7.97 12.57
1/5/2023 10:45:00 PM 4.21 39.578 0.093 6.83 8.07 12.59
1/5/2023 11:00:00 PM 4.16 39.488 0.093 6.84 7.55 12.61
1/5/2023 11:15:00 PM 4.12 39.416 0.093 6.85 7.95 12.62
1/5/2023 11:30:00 PM 4.07 39.326 0.093 6.86 7.77 12.63
1/5/2023 11:45:00 PM 4.02 39.236 0.093 6.86 7.83 12.65
1/6/2023 12:00:00 AM 3.98 39.164 0.093 6.86 7.56 12.66
1/6/2023 12:15:00 AM 3.93 39.074 0.093 6.84 8.18 12.67
1/6/2023 12:30:00 AM 3.89 39.002 0.093 6.86 7.73 12.67
1/6/2023 12:45:00 AM 3.86 38.948 0.094 6.85 7.75 12.68
1/6/2023 1:00:00 AM 3.83 38.894 0.094 6.85 7.89 12.69
1/6/2023 1:15:00 AM 3.79 38.822 0.094 6.85 7.9 12.7
1/6/2023 1:30:00 AM 3.77 38.786 0.093 6.85 7.79 12.71
1/6/2023 1:45:00 AM 3.74 38.732 0.094 6.86 7.89 12.72
1/6/2023 2:00:00 AM 3.71 38.678 0.094 6.84 8.25 12.73
1/6/2023 2:15:00 AM 3.68 38.624 0.094 6.85 7.73 12.74
1/6/2023 2:30:00 AM 3.66 38.588 0.094 6.86 7.43 12.74
1/6/2023 2:45:00 AM 3.64 38.552 0.094 6.85 8.04 12.75
1/6/2023 3:00:00 AM 3.62 38.516 0.094 6.86 7.43 12.75
1/6/2023 3:15:00 AM 3.6 38.48 0.094 6.85 7.35 12.77
1/6/2023 3:30:00 AM 3.58 38.444 0.094 6.86 7.31 12.77
1/6/2023 3:45:00 AM 3.56 38.408 0.094 6.86 7.06 12.78
1/6/2023 4:00:00 AM 3.54 38.372 0.094 6.85 7.14 12.78
1/6/2023 4:15:00 AM 3.52 38.336 0.094 6.86 7.78 12.79
1/6/2023 4:30:00 AM 3.51 38.318 0.094 6.86 7.36 12.79
1/6/2023 4:45:00 AM 3.49 38.282 0.094 6.84 7.27 12.8
1/6/2023 5:00:00 AM 3.47 38.246 0.094 6.87 7.37 12.81
1/6/2023 5:15:00 AM 3.46 38.228 0.094 6.86 7.21 12.81
1/6/2023 5:30:00 AM 3.44 38.192 0.094 6.85 7.72 12.81
1/6/2023 5:45:00 AM 3.43 38.174 0.094 6.87 7.52 12.82
1/6/2023 6:00:00 AM 3.41 38.138 0.094 6.87 7.33 12.82
1/6/2023 6:15:00 AM 3.4 38.12 0.094 6.86 7.13 12.82
1/6/2023 6:30:00 AM 3.38 38.084 0.094 6.87 7.13 12.83
1/6/2023 6:45:00 AM 3.36 38.048 0.094 6.87 7.06 12.83
1/6/2023 7:00:00 AM 3.35 38.03 0.094 6.88 7.08 12.84
1/6/2023 7:15:00 AM 3.33 37.994 0.094 6.87 7.06 12.84
1/6/2023 7:30:00 AM 3.32 37.976 0.094 6.88 7.14 12.84
1/6/2023 7:45:00 AM 3.31 37.958 0.094 6.87 6.7 12.85
1/6/2023 8:00:00 AM 3.3 37.94 0.094 6.88 6.83 12.86
1/6/2023 8:15:00 AM 3.3 37.94 0.094 6.87 7.06 12.87
1/6/2023 8:30:00 AM 3.3 37.94 0.094 6.88 6.84 12.88
1/6/2023 8:45:00 AM 3.3 37.94 0.094 6.87 6.45 12.89
1/6/2023 9:00:00 AM 3.31 37.958 0.094 6.89 6.77 12.9
1/6/2023 9:15:00 AM 3.33 37.994 0.094 6.88 6.56 12.92
1/6/2023 9:30:00 AM 3.34 38.012 0.094 6.89 6.57 12.94
1/6/2023 9:45:00 AM 3.37 38.066 0.095 6.87 6.32 12.96
1/6/2023 10:00:00 AM 3.39 38.102 0.094 6.9 6.38 12.98
1/6/2023 10:15:00 AM 3.42 38.156 0.095 6.9 6.34 13
1/6/2023 10:30:00 AM 3.45 38.21 0.095 6.89 6.11 13.01
1/6/2023 10:45:00 AM 3.48 38.264 0.095 6.92 6.36 13.03
1/6/2023 11:00:00 AM 3.51 38.318 0.095 6.93 6.03 13.04
1/6/2023 11:15:00 AM 3.54 38.372 0.095 6.93 6 13.05
1/6/2023 11:30:00 AM 3.57 38.426 0.095 6.93 6.11 13.05
1/6/2023 11:45:00 AM 3.59 38.462 0.095 6.94 6.27 13.05
1/6/2023 12:00:00 PM 3.61 38.498 0.094 6.94 6.53 13.05
1/6/2023 12:15:00 PM 3.65 38.57 0.094 6.92 5.98 13.05
1/6/2023 12:30:00 PM 3.69 38.642 0.095 6.95 5.79 13.06
1/6/2023 12:45:00 PM 3.73 38.714 0.094 6.96 6.16 13.06
1/6/2023 1:00:00 PM 3.76 38.768 0.095 6.96 5.63 13.07
1/6/2023 1:15:00 PM 3.8 38.84 0.095 6.96 5.66 13.06
1/6/2023 1:30:00 PM 3.83 38.894 0.095 6.97 5.83 13.07
1/6/2023 1:45:00 PM 3.86 38.948 0.095 6.97 5.67 13.06
1/6/2023 2:00:00 PM 3.89 39.002 0.095 6.98 5.68 13.06
1/6/2023 2:15:00 PM 3.9 39.02 0.095 6.98 5.75 13.05
1/6/2023 2:30:00 PM 3.93 39.074 0.095 6.98 5.71 13.04
1/6/2023 2:45:00 PM 3.96 39.128 0.095 6.98 5.8 13.04
1/6/2023 3:00:00 PM 3.99 39.182 0.095 6.99 5.68 13.03
1/6/2023 3:15:00 PM 4 39.2 0.095 6.98 5.95 13.02
1/6/2023 3:30:00 PM 4.01 39.218 0.095 6.99 5.91 13.01
1/6/2023 3:45:00 PM 4.01 39.218 0.095 6.98 5.75 13
1/6/2023 4:00:00 PM 4.02 39.236 0.095 6.99 5.85 12.98
1/6/2023 4:15:00 PM 4.03 39.254 0.095 6.98 5.98 12.97
1/6/2023 4:30:00 PM 4.03 39.254 0.096 6.98 5.8 12.95
1/6/2023 4:45:00 PM 4.04 39.272 0.096 6.97 5.61 12.93
1/6/2023 5:00:00 PM 4.05 39.29 0.096 6.98 5.93 12.91
1/6/2023 5:15:00 PM 4.04 39.272 0.096 6.95 5.78 12.89
1/6/2023 5:30:00 PM 4.02 39.236 0.096 6.97 5.6 12.87
1/6/2023 5:45:00 PM 4 39.2 0.096 6.97 5.48 12.86
1/6/2023 6:00:00 PM 3.99 39.182 0.096 6.96 5.87 12.84
1/6/2023 6:15:00 PM 3.97 39.146 0.096 6.96 5.67 12.84
1/6/2023 6:30:00 PM 3.96 39.128 0.097 6.96 5.67 12.83
1/6/2023 6:45:00 PM 3.95 39.11 0.097 6.95 6.3 12.82
1/6/2023 7:00:00 PM 3.94 39.092 0.097 6.95 5.74 12.81
1/6/2023 7:15:00 PM 3.92 39.056 0.097 6.95 5.65 12.8
1/6/2023 7:30:00 PM 3.91 39.038 0.097 6.93 5.92 12.8
1/6/2023 7:45:00 PM 3.9 39.02 0.097 6.94 5.86 12.8
1/6/2023 8:00:00 PM 3.89 39.002 0.097 6.91 6.01 12.79
1/6/2023 8:15:00 PM 3.87 38.966 0.097 6.94 5.83 12.79
1/6/2023 8:30:00 PM 3.86 38.948 0.097 6.9 5.8 12.79
1/6/2023 8:45:00 PM 3.84 38.912 0.097 6.93 5.91 12.79
1/6/2023 9:00:00 PM 3.83 38.894 0.098 6.92 6.09 12.79
1/6/2023 9:15:00 PM 3.81 38.858 0.098 6.92 5.89 12.79
1/6/2023 9:30:00 PM 3.79 38.822 0.098 6.89 5.96 12.8
1/6/2023 9:45:00 PM 3.77 38.786 0.098 6.92 5.88 12.8
1/6/2023 10:00:00 PM 3.75 38.75 0.098 6.92 5.96 12.8
1/6/2023 10:15:00 PM 3.74 38.732 0.098 6.92 6.05 12.8
1/6/2023 10:30:00 PM 3.72 38.696 0.098 6.91 5.98 12.8
1/6/2023 10:45:00 PM 3.7 38.66 0.098 6.91 5.72 12.8
1/6/2023 11:00:00 PM 3.68 38.624 0.098 6.91 5.61 12.81
1/6/2023 11:15:00 PM 3.66 38.588 0.098 6.91 5.83 12.81
1/6/2023 11:30:00 PM 3.65 38.57 0.099 6.92 5.74 12.82
1/6/2023 11:45:00 PM 3.63 38.534 0.099 6.91 5.66 12.82
1/7/2023 12:00:00 AM 3.61 38.498 0.099 6.9 5.76 12.83
1/7/2023 12:15:00 AM 3.59 38.462 0.099 6.91 5.5 12.84
1/7/2023 12:30:00 AM 3.57 38.426 0.099 6.91 5.62 12.84
1/7/2023 12:45:00 AM 3.56 38.408 0.099 6.91 6.04 12.85
1/7/2023 1:00:00 AM 3.54 38.372 0.099 6.91 6.09 12.85
1/7/2023 1:15:00 AM 3.52 38.336 0.099 6.91 5.7 12.86
1/7/2023 1:30:00 AM 3.51 38.318 0.099 6.89 5.61 12.86
1/7/2023 1:45:00 AM 3.49 38.282 0.099 6.91 5.87 12.86
1/7/2023 2:00:00 AM 3.48 38.264 0.099 6.9 5.89 12.87
1/7/2023 2:15:00 AM 3.46 38.228 0.1 6.91 5.97 12.87
1/7/2023 2:30:00 AM 3.45 38.21 0.1 6.9 5.71 12.88
1/7/2023 2:45:00 AM 3.43 38.174 0.1 6.91 6.04 12.88
1/7/2023 3:00:00 AM 3.42 38.156 0.1 6.88 5.98 12.88
1/7/2023 3:15:00 AM 3.41 38.138 0.1 6.91 5.78 12.88
1/7/2023 3:30:00 AM 3.39 38.102 0.1 6.91 5.74 12.89
1/7/2023 3:45:00 AM 3.38 38.084 0.1 6.91 5.77 12.89
1/7/2023 4:00:00 AM 3.37 38.066 0.1 6.91 5.68 12.89
1/7/2023 4:15:00 AM 3.36 38.048 0.1 6.91 5.66 12.89
1/7/2023 4:30:00 AM 3.35 38.03 0.101 6.91 5.64 12.9
1/7/2023 4:45:00 AM 3.33 37.994 0.1 6.88 5.57 12.9
1/7/2023 5:00:00 AM 3.32 37.976 0.101 6.91 5.35 12.9
1/7/2023 5:15:00 AM 3.31 37.958 0.1 6.91 5.77 12.91
1/7/2023 5:30:00 AM 3.3 37.94 0.1 6.9 5.61 12.91
1/7/2023 5:45:00 AM 3.29 37.922 0.101 6.9 5.69 12.91
1/7/2023 6:00:00 AM 3.28 37.904 0.101 6.9 5.71 12.92
1/7/2023 6:15:00 AM 3.27 37.886 0.101 6.91 5.67 12.92
1/7/2023 6:30:00 AM 3.26 37.868 0.101 6.89 5.6 12.92
1/7/2023 6:45:00 AM 3.26 37.868 0.101 6.91 5.64 12.93
1/7/2023 7:00:00 AM 3.25 37.85 0.101 6.92 5.7 12.93
1/7/2023 7:15:00 AM 3.24 37.832 0.101 6.91 5.55 12.93
1/7/2023 7:30:00 AM 3.23 37.814 0.101 6.91 5.6 12.93
1/7/2023 7:45:00 AM 3.23 37.814 0.101 6.9 5.68 12.94
1/7/2023 8:00:00 AM 3.22 37.796 0.101 6.92 5.72 12.94
1/7/2023 8:15:00 AM 3.22 37.796 0.101 6.88 5.44 12.95
1/7/2023 8:30:00 AM 3.22 37.796 0.101 6.92 5.45 12.96
1/7/2023 8:45:00 AM 3.22 37.796 0.101 6.92 5.5 12.97
1/7/2023 9:00:00 AM 3.22 37.796 0.101 6.92 5.21 12.98
1/7/2023 9:15:00 AM 3.22 37.796 0.101 6.91 5.36 12.99
1/7/2023 9:30:00 AM 3.23 37.814 0.101 6.92 5.18 13.01
1/7/2023 9:45:00 AM 3.24 37.832 0.101 6.92 4.95 13.03
1/7/2023 10:00:00 AM 3.25 37.85 0.101 6.93 4.95 13.04
1/7/2023 10:15:00 AM 3.27 37.886 0.101 6.93 4.73 13.07
1/7/2023 10:30:00 AM 3.28 37.904 0.101 6.93 4.83 13.08
1/7/2023 10:45:00 AM 3.3 37.94 0.101 6.94 4.91 13.1
1/7/2023 11:00:00 AM 3.32 37.976 0.101 6.93 4.52 13.12
1/7/2023 11:15:00 AM 3.35 38.03 0.101 6.95 4.6 13.14
1/7/2023 11:30:00 AM 3.38 38.084 0.101 6.96 4.7 13.16
1/7/2023 11:45:00 AM 3.43 38.174 0.101 6.97 4.65 13.17
1/7/2023 12:00:00 PM 3.49 38.282 0.101 6.97 4.61 13.18
1/7/2023 12:15:00 PM 3.53 38.354 0.101 6.97 4.75 13.18
1/7/2023 12:30:00 PM 3.54 38.372 0.101 6.98 4.7 13.18
1/7/2023 12:45:00 PM 3.57 38.426 0.101 6.98 4.7 13.19
1/7/2023 1:00:00 PM 3.59 38.462 0.101 6.99 4.29 13.18
1/7/2023 1:15:00 PM 3.63 38.534 0.102 6.96 4.71 13.19
1/7/2023 1:30:00 PM 3.65 38.57 0.102 6.99 4.55 13.18
1/7/2023 1:45:00 PM 3.69 38.642 0.102 6.99 4.54 13.19
1/7/2023 2:00:00 PM 3.75 38.75 0.102 7.01 4.46 13.19
1/7/2023 2:15:00 PM 3.77 38.786 0.102 7 4.42 13.2
1/7/2023 2:30:00 PM 3.79 38.822 0.102 7.01 4.43 13.19
1/7/2023 2:45:00 PM 3.8 38.84 0.102 6.98 4.55 13.17
1/7/2023 3:00:00 PM 3.8 38.84 0.102 7.01 4.23 13.16
1/7/2023 3:15:00 PM 3.81 38.858 0.102 7.01 4.22 13.16
1/7/2023 3:30:00 PM 3.82 38.876 0.102 7 4.33 13.15
1/7/2023 3:45:00 PM 3.82 38.876 0.102 7.01 4.24 13.14
1/7/2023 4:00:00 PM 3.83 38.894 0.102 7.01 4.24 13.12
1/7/2023 4:15:00 PM 3.83 38.894 0.102 7 4.14 13.11
1/7/2023 4:30:00 PM 3.83 38.894 0.102 7 4 13.08
1/7/2023 4:45:00 PM 3.83 38.894 0.102 6.97 4.01 13.06
1/7/2023 5:00:00 PM 3.83 38.894 0.102 7 4.45 13.03
1/7/2023 5:15:00 PM 3.82 38.876 0.103 6.99 4.34 13.02
1/7/2023 5:30:00 PM 3.82 38.876 0.102 6.98 4.18 13.01
1/7/2023 5:45:00 PM 3.8 38.84 0.103 6.99 4.33 12.99
1/7/2023 6:00:00 PM 3.79 38.822 0.103 6.98 4.46 12.97
1/7/2023 6:15:00 PM 3.78 38.804 0.103 6.98 4.35 12.96
1/7/2023 6:30:00 PM 3.77 38.786 0.103 6.98 4.7 12.95
1/7/2023 6:45:00 PM 3.76 38.768 0.103 6.98 4.39 12.94
1/7/2023 7:00:00 PM 3.75 38.75 0.103 6.96 4.26 12.93
1/7/2023 7:15:00 PM 3.73 38.714 0.103 6.97 4.31 12.91
1/7/2023 7:30:00 PM 3.71 38.678 0.103 6.97 4.44 12.91
1/7/2023 7:45:00 PM 3.7 38.66 0.103 6.96 4.47 12.9
1/7/2023 8:00:00 PM 3.68 38.624 0.103 6.94 4.43 12.9
1/7/2023 8:15:00 PM 3.66 38.588 0.103 6.94 4.54 12.89
1/7/2023 8:30:00 PM 3.65 38.57 0.103 6.96 4.67 12.89
1/7/2023 8:45:00 PM 3.62 38.516 0.103 6.94 4.36 12.89
1/7/2023 9:00:00 PM 3.6 38.48 0.104 6.96 4.43 12.89
1/7/2023 9:15:00 PM 3.59 38.462 0.104 6.94 4.32 12.89
1/7/2023 9:30:00 PM 3.56 38.408 0.104 6.95 4.45 12.89
1/7/2023 9:45:00 PM 3.54 38.372 0.104 6.92 4.6 12.89
1/7/2023 10:00:00 PM 3.52 38.336 0.104 6.95 4.42 12.89
1/7/2023 10:15:00 PM 3.5 38.3 0.104 6.94 4.6 12.9
1/7/2023 10:30:00 PM 3.47 38.246 0.104 6.95 4.64 12.9
1/7/2023 10:45:00 PM 3.45 38.21 0.104 6.94 5.01 12.91
1/7/2023 11:00:00 PM 3.42 38.156 0.104 6.94 4.89 12.91
1/7/2023 11:15:00 PM 3.4 38.12 0.104 6.94 4.62 12.91
1/7/2023 11:30:00 PM 3.37 38.066 0.104 6.94 4.4 12.92
1/7/2023 11:45:00 PM 3.35 38.03 0.104 6.91 4.49 12.93
1/8/2023 12:00:00 AM 3.32 37.976 0.104 6.94 4.83 12.94
1/8/2023 12:15:00 AM 3.29 37.922 0.104 6.93 4.75 12.95
1/8/2023 12:30:00 AM 3.25 37.85 0.104 6.94 4.64 12.96
1/8/2023 12:45:00 AM 3.2 37.76 0.104 6.94 5.02 12.97
1/8/2023 1:00:00 AM 3.15 37.67 0.104 6.93 4.91 12.98
1/8/2023 1:15:00 AM 3.11 37.598 0.105 6.94 4.82 12.99
1/8/2023 1:30:00 AM 3.06 37.508 0.105 6.91 4.88 13
1/8/2023 1:45:00 AM 3.01 37.418 0.105 6.93 4.74 13.01
1/8/2023 2:00:00 AM 2.97 37.346 0.105 6.93 4.63 13.03
1/8/2023 2:15:00 AM 2.92 37.256 0.105 6.91 5 13.04
1/8/2023 2:30:00 AM 2.87 37.166 0.105 6.93 4.96 13.06
1/8/2023 2:45:00 AM 2.82 37.076 0.105 6.92 5.06 13.07
1/8/2023 3:00:00 AM 2.78 37.004 0.105 6.93 4.51 13.09
1/8/2023 3:15:00 AM 2.73 36.914 0.105 6.93 4.63 13.1
1/8/2023 3:30:00 AM 2.69 36.842 0.105 6.93 4.86 13.12
1/8/2023 3:45:00 AM 2.65 36.77 0.105 6.93 4.63 13.14
1/8/2023 4:00:00 AM 2.62 36.716 0.105 6.93 4.52 13.16
1/8/2023 4:15:00 AM 2.59 36.662 0.106 6.93 4.67 13.17
1/8/2023 4:30:00 AM 2.56 36.608 0.106 6.92 4.56 13.19
1/8/2023 4:45:00 AM 2.52 36.536 0.106 6.92 4.45 13.2
1/8/2023 5:00:00 AM 2.49 36.482 0.106 6.92 4.59 13.22
1/8/2023 5:15:00 AM 2.46 36.428 0.106 6.92 4.48 13.23
1/8/2023 5:30:00 AM 2.43 36.374 0.106 6.93 4.6 13.24
1/8/2023 5:45:00 AM 2.41 36.338 0.106 6.93 4.88 13.25
1/8/2023 6:00:00 AM 2.38 36.284 0.106 6.93 4.84 13.26
1/8/2023 6:15:00 AM 2.36 36.248 0.106 6.93 4.82 13.28
1/8/2023 6:30:00 AM 2.34 36.212 0.106 6.91 4.71 13.28
1/8/2023 6:45:00 AM 2.32 36.176 0.106 6.92 4.68 13.29
1/8/2023 7:00:00 AM 2.31 36.158 0.106 6.93 4.96 13.3
1/8/2023 7:15:00 AM 2.3 36.14 0.106 6.94 4.9 13.31
1/8/2023 7:30:00 AM 2.29 36.122 0.106 6.94 4.8 13.31
1/8/2023 7:45:00 AM 2.27 36.086 0.106 6.94 4.78 13.32
1/8/2023 8:00:00 AM 2.25 36.05 0.106 6.92 4.61 13.33
1/8/2023 8:15:00 AM 2.24 36.032 0.107 6.95 4.69 13.35
1/8/2023 8:30:00 AM 2.23 36.014 0.107 6.94 4.41 13.36
1/8/2023 8:45:00 AM 2.23 36.014 0.107 6.95 4.35 13.39
1/8/2023 9:00:00 AM 2.23 36.014 0.107 6.95 4.5 13.41
1/8/2023 9:15:00 AM 2.23 36.014 0.107 6.94 4.45 13.43
1/8/2023 9:30:00 AM 2.24 36.032 0.107 6.96 4.42 13.46
1/8/2023 9:45:00 AM 2.24 36.032 0.107 6.96 4.46 13.49
1/8/2023 10:00:00 AM 2.26 36.068 0.107 6.97 4.11 13.52
1/8/2023 10:15:00 AM 2.27 36.086 0.107 6.98 4.36 13.54
1/8/2023 10:30:00 AM 2.3 36.14 0.107 6.98 4.22 13.57
1/8/2023 10:45:00 AM 2.33 36.194 0.107 6.99 4.13 13.6
1/8/2023 11:00:00 AM 2.38 36.284 0.107 6.99 4.06 13.62
1/8/2023 11:15:00 AM 2.43 36.374 0.107 7.01 4 13.63
1/8/2023 11:30:00 AM 2.47 36.446 0.107 7.01 4.14 13.65
1/8/2023 11:45:00 AM 2.5 36.5 0.107 7.02 3.96 13.66
1/8/2023 12:00:00 PM 2.56 36.608 0.107 7.02 3.97 13.67
1/8/2023 12:15:00 PM 2.64 36.752 0.107 7.03 3.95 13.68
1/8/2023 12:30:00 PM 2.71 36.878 0.107 7.04 4.01 13.67
1/8/2023 12:45:00 PM 2.76 36.968 0.107 7.03 3.95 13.66
1/8/2023 1:00:00 PM 2.8 37.04 0.107 7.04 3.9 13.66
1/8/2023 1:15:00 PM 2.84 37.112 0.107 7.04 3.8 13.65
1/8/2023 1:30:00 PM 2.87 37.166 0.107 7.05 3.94 13.65
1/8/2023 1:45:00 PM 2.91 37.238 0.107 7.05 4.04 13.64
1/8/2023 2:00:00 PM 2.95 37.31 0.107 7.06 4.18 13.63
1/8/2023 2:15:00 PM 3 37.4 0.107 7.06 4.3 13.6
1/8/2023 2:30:00 PM 3.07 37.526 0.107 7.07 4.57 13.58
1/8/2023 2:45:00 PM 3.12 37.616 0.107 7.04 4.76 13.56
1/8/2023 3:00:00 PM 3.16 37.688 0.107 7.07 4.72 13.54
1/8/2023 3:15:00 PM 3.2 37.76 0.107 7.07 4.86 13.51
1/8/2023 3:30:00 PM 3.22 37.796 0.107 7.05 5.52 13.48
1/8/2023 3:45:00 PM 3.23 37.814 0.107 7.07 6.57 13.45
1/8/2023 4:00:00 PM 3.22 37.796 0.108 7.06 7.63 13.43
1/8/2023 4:15:00 PM 3.21 37.778 0.108 7.06 6.99 13.4
1/8/2023 4:30:00 PM 3.2 37.76 0.108 7.04 6.74 13.38
1/8/2023 4:45:00 PM 3.18 37.724 0.108 7.06 5.77 13.36
1/8/2023 5:00:00 PM 3.17 37.706 0.108 7.05 5.42 13.33
1/8/2023 5:15:00 PM 3.14 37.652 0.108 7.05 4.92 13.3
1/8/2023 5:30:00 PM 3.12 37.616 0.108 7.03 4.34 13.28
1/8/2023 5:45:00 PM 3.09 37.562 0.108 7.03 4.41 13.25
1/8/2023 6:00:00 PM 3.05 37.49 0.108 7.03 4.11 13.22
1/8/2023 6:15:00 PM 3.01 37.418 0.108 7.02 4.02 13.21
1/8/2023 6:30:00 PM 2.96 37.328 0.108 7.01 3.93 13.2
1/8/2023 6:45:00 PM 2.91 37.238 0.109 7.02 4.4 13.19
1/8/2023 7:00:00 PM 2.85 37.13 0.109 7.01 3.89 13.18
1/8/2023 7:15:00 PM 2.79 37.022 0.109 7 4.02 13.18
1/8/2023 7:30:00 PM 2.73 36.914 0.109 7 4.04 13.17
1/8/2023 7:45:00 PM 2.67 36.806 0.109 6.99 3.89 13.18
1/8/2023 8:00:00 PM 2.62 36.716 0.109 6.99 4.08 13.18
1/8/2023 8:15:00 PM 2.57 36.626 0.109 6.98 4 13.19
1/8/2023 8:30:00 PM 2.53 36.554 0.109 6.97 4.04 13.18
1/8/2023 8:45:00 PM 2.48 36.464 0.109 6.98 3.97 13.18
1/8/2023 9:00:00 PM 2.44 36.392 0.109 6.95 3.98 13.19
1/8/2023 9:15:00 PM 2.4 36.32 0.109 6.97 4.03 13.19
1/8/2023 9:30:00 PM 2.36 36.248 0.11 6.93 4.02 13.2
1/8/2023 9:45:00 PM 2.32 36.176 0.11 6.96 4.12 13.2
1/8/2023 10:00:00 PM 2.29 36.122 0.11 6.96 3.88 13.21
1/8/2023 10:15:00 PM 2.25 36.05 0.11 6.94 3.86 13.22
1/8/2023 10:30:00 PM 2.22 35.996 0.11 6.95 4.54 13.22
1/8/2023 10:45:00 PM 2.19 35.942 0.11 6.96 3.87 13.23
1/8/2023 11:00:00 PM 2.14 35.852 0.11 6.95 4.25 13.24
1/8/2023 11:15:00 PM 2.1 35.78 0.11 6.96 3.89 13.25
1/8/2023 11:30:00 PM 2.06 35.708 0.11 6.93 4 13.26
1/8/2023 11:45:00 PM 2.01 35.618 0.11 6.95 4.04 13.28
1/9/2023 12:00:00 AM 1.98 35.564 0.11 6.95 4.5 13.29
1/9/2023 12:15:00 AM 1.95 35.51 0.11 6.95 4.17 13.3
1/9/2023 12:30:00 AM 1.93 35.474 0.11 6.95 3.9 13.3
1/9/2023 12:45:00 AM 1.9 35.42 0.11 6.94 4.09 13.31
1/9/2023 1:00:00 AM 1.86 35.348 0.111 6.95 4.26 13.33
1/9/2023 1:15:00 AM 1.83 35.294 0.11 6.95 4.09 13.34
1/9/2023 1:30:00 AM 1.79 35.222 0.11 6.95 4.21 13.34
1/9/2023 1:45:00 AM 1.75 35.15 0.11 6.93 4.25 13.36
1/9/2023 2:00:00 AM 1.71 35.078 0.111 6.95 3.98 13.37
1/9/2023 2:15:00 AM 1.67 35.006 0.111 6.93 4.14 13.38
1/9/2023 2:30:00 AM 1.64 34.952 0.111 6.95 4.07 13.4
1/9/2023 2:45:00 AM 1.61 34.898 0.111 6.92 4.23 13.4
1/9/2023 3:00:00 AM 1.59 34.862 0.111 6.95 4.05 13.41
1/9/2023 3:15:00 AM 1.56 34.808 0.111 6.92 4.15 13.42
1/9/2023 3:30:00 AM 1.53 34.754 0.111 6.95 3.97 13.43
1/9/2023 3:45:00 AM 1.51 34.718 0.111 6.94 3.99 13.44
1/9/2023 4:00:00 AM 1.49 34.682 0.112 6.95 4.02 13.45
1/9/2023 4:15:00 AM 1.47 34.646 0.111 6.92 4.15 13.46
1/9/2023 4:30:00 AM 1.45 34.61 0.112 6.95 4.07 13.47
1/9/2023 4:45:00 AM 1.42 34.556 0.112 6.95 3.95 13.48
1/9/2023 5:00:00 AM 1.39 34.502 0.112 6.94 4.26 13.49
1/9/2023 5:15:00 AM 1.36 34.448 0.112 6.96 4.13 13.5
1/9/2023 5:30:00 AM 1.34 34.412 0.112 6.92 4.1 13.51
1/9/2023 5:45:00 AM 1.33 34.394 0.112 6.95 4.03 13.52
1/9/2023 6:00:00 AM 1.32 34.376 0.112 6.95 4.34 13.52
1/9/2023 6:15:00 AM 1.31 34.358 0.112 6.95 4.52 13.53
1/9/2023 6:30:00 AM 1.3 34.34 0.112 6.95 4.24 13.53
1/9/2023 6:45:00 AM 1.29 34.322 0.112 6.95 4.26 13.54
1/9/2023 7:00:00 AM 1.28 34.304 0.112 6.96 4.14 13.55
1/9/2023 7:15:00 AM 1.27 34.286 0.112 6.95 4.31 13.55
1/9/2023 7:30:00 AM 1.26 34.268 0.112 6.95 4.23 13.55
1/9/2023 7:45:00 AM 1.26 34.268 0.112 6.96 4.3 13.56
1/9/2023 8:00:00 AM 1.26 34.268 0.112 6.96 4.28 13.57
1/9/2023 8:15:00 AM 1.26 34.268 0.112 6.97 4.4 13.57
1/9/2023 8:30:00 AM 1.27 34.286 0.113 6.95 10.32 13.59
1/9/2023 8:45:00 AM 1.27 34.286 0.112 6.97 3.94 13.6
1/9/2023 9:00:00 AM 1.28 34.304 0.113 6.97 4.12 13.61
1/9/2023 9:15:00 AM 1.29 34.322 0.112 6.98 3.93 13.63
1/9/2023 9:30:00 AM 1.3 34.34 0.112 6.95 3.97 13.64
1/9/2023 9:45:00 AM 1.31 34.358 0.113 6.97 4.27 13.65
1/9/2023 10:00:00 AM 1.33 34.394 0.113 6.99 4.05 13.66
1/9/2023 10:15:00 AM 1.35 34.43 0.113 7 3.85 13.68
1/9/2023 10:30:00 AM 1.37 34.466 0.112 6.99 3.93 13.69
1/9/2023 10:45:00 AM 1.39 34.502 0.113 7 3.97 13.71
1/9/2023 11:00:00 AM 1.43 34.574 0.113 7.01 3.99 13.73
1/9/2023 11:15:00 AM 1.47 34.646 0.113 7 3.91 13.74
1/9/2023 11:30:00 AM 1.51 34.718 0.113 7.01 3.77 13.76
1/9/2023 11:45:00 AM 1.57 34.826 0.113 7.01 3.69 13.77
1/9/2023 12:00:00 PM 1.63 34.934 0.113 7.03 3.8 13.79
1/9/2023 12:15:00 PM 1.7 35.06 0.113 7.02 3.85 13.8
1/9/2023 12:30:00 PM 1.77 35.186 0.112 7.05 3.62 13.81
1/9/2023 12:45:00 PM 1.88 35.384 0.112 7.05 3.59 13.82
1/9/2023 1:00:00 PM 1.94 35.492 0.113 7.06 3.55 13.82
1/9/2023 1:15:00 PM 2.04 35.672 0.113 7.06 3.46 13.83
1/9/2023 1:30:00 PM 2.12 35.816 0.112 7.07 3.59 13.82
1/9/2023 1:45:00 PM 2.18 35.924 0.112 7.04 3.51 13.81
1/9/2023 2:00:00 PM 2.23 36.014 0.112 7.06 3.51 13.8
1/9/2023 2:15:00 PM 2.29 36.122 0.112 7.09 3.45 13.79
1/9/2023 2:30:00 PM 2.32 36.176 0.112 7.09 3.45 13.78
1/9/2023 2:45:00 PM 2.36 36.248 0.112 7.08 3.52 13.76
1/9/2023 3:00:00 PM 2.39 36.302 0.112 7.07 3.67 13.74
1/9/2023 3:15:00 PM 2.39 36.302 0.113 7.09 3.61 13.72
1/9/2023 3:30:00 PM 2.4 36.32 0.112 7.08 3.62 13.7
1/9/2023 3:45:00 PM 2.42 36.356 0.112 7.09 3.5 13.68
1/9/2023 4:00:00 PM 2.45 36.41 0.112 7.09 3.44 13.66
1/9/2023 4:15:00 PM 2.47 36.446 0.112 7.09 3.59 13.62
1/9/2023 4:30:00 PM 2.49 36.482 0.113 7.09 3.69 13.59
1/9/2023 4:45:00 PM 2.51 36.518 0.112 7.09 3.37 13.55
1/9/2023 5:00:00 PM 2.52 36.536 0.112 7.09 3.47 13.51
1/9/2023 5:15:00 PM 2.53 36.554 0.113 7.08 3.58 13.47
1/9/2023 5:30:00 PM 2.55 36.59 0.112 7.07 3.4 13.43
1/9/2023 5:45:00 PM 2.55 36.59 0.112 7.07 3.44 13.39
1/9/2023 6:00:00 PM 2.56 36.608 0.113 7.07 3.41 13.36
1/9/2023 6:15:00 PM 2.56 36.608 0.113 7.06 3.52 13.34
1/9/2023 6:30:00 PM 2.55 36.59 0.113 7.06 3.79 13.31
1/9/2023 6:45:00 PM 2.53 36.554 0.112 7.04 3.52 13.29
1/9/2023 7:00:00 PM 2.5 36.5 0.113 7.05 3.65 13.27
1/9/2023 7:15:00 PM 2.47 36.446 0.113 7.02 3.73 13.26
1/9/2023 7:30:00 PM 2.43 36.374 0.113 7.04 3.49 13.24
1/9/2023 7:45:00 PM 2.42 36.356 0.113 7.01 3.53 13.24
1/9/2023 8:00:00 PM 2.4 36.32 0.113 7.03 3.62 13.23
1/9/2023 8:15:00 PM 2.38 36.284 0.113 7 3.78 13.22
1/9/2023 8:30:00 PM 2.37 36.266 0.113 7.02 3.71 13.22
1/9/2023 8:45:00 PM 2.36 36.248 0.113 7.02 3.69 13.22
1/9/2023 9:00:00 PM 2.35 36.23 0.113 7.02 3.63 13.21
1/9/2023 9:15:00 PM 2.34 36.212 0.113 7.02 3.73 13.21
1/9/2023 9:30:00 PM 2.33 36.194 0.113 7.01 3.68 13.21
1/9/2023 9:45:00 PM 2.33 36.194 0.113 7.01 3.85 13.2
1/9/2023 10:00:00 PM 2.32 36.176 0.113 7.01 4.01 13.21
1/9/2023 10:15:00 PM 2.32 36.176 0.113 7.01 4.19 13.2
1/9/2023 10:30:00 PM 2.31 36.158 0.113 6.99 3.85 13.2
1/9/2023 10:45:00 PM 2.31 36.158 0.113 6.98 4.11 13.2
1/9/2023 11:00:00 PM 2.31 36.158 0.113 7 3.89 13.2
1/9/2023 11:15:00 PM 2.32 36.176 0.114 7.01 3.92 13.19
1/9/2023 11:30:00 PM 2.32 36.176 0.114 6.98 3.82 13.19
1/9/2023 11:45:00 PM 2.33 36.194 0.114 6.98 3.97 13.19
1/10/2023 12:00:00 AM 2.34 36.212 0.114 7.01 3.76 13.18
1/10/2023 12:15:00 AM 2.34 36.212 0.114 7 3.96 13.18
1/10/2023 12:30:00 AM 2.35 36.23 0.114 7 3.98 13.17
1/10/2023 12:45:00 AM 2.36 36.248 0.114 7 3.97 13.17
1/10/2023 1:00:00 AM 2.35 36.23 0.114 6.98 3.96 13.17
1/10/2023 1:15:00 AM 2.35 36.23 0.114 7 3.91 13.17
1/10/2023 1:30:00 AM 2.36 36.248 0.113 7 3.71 13.17
1/10/2023 1:45:00 AM 2.36 36.248 0.114 7 3.98 13.17
1/10/2023 2:00:00 AM 2.36 36.248 0.114 6.99 3.99 13.17
1/10/2023 2:15:00 AM 2.36 36.248 0.114 7 3.81 13.17
1/10/2023 2:30:00 AM 2.36 36.248 0.114 7 4.04 13.17
1/10/2023 2:45:00 AM 2.36 36.248 0.114 7 4.15 13.16
1/10/2023 3:00:00 AM 2.36 36.248 0.114 7 4.12 13.17
1/10/2023 3:15:00 AM 2.36 36.248 0.114 7 4.1 13.16
1/10/2023 3:30:00 AM 2.36 36.248 0.114 7 3.94 13.16
1/10/2023 3:45:00 AM 2.36 36.248 0.113 7 4.02 13.16
1/10/2023 4:00:00 AM 2.36 36.248 0.114 6.99 4.21 13.16
1/10/2023 4:15:00 AM 2.36 36.248 0.114 7 4.1 13.17
1/10/2023 4:30:00 AM 2.36 36.248 0.114 7 4.13 13.16
1/10/2023 4:45:00 AM 2.37 36.266 0.113 6.99 4.11 13.16
1/10/2023 5:00:00 AM 2.37 36.266 0.114 7 4.2 13.16
1/10/2023 5:15:00 AM 2.37 36.266 0.114 7 4.07 13.16
1/10/2023 5:30:00 AM 2.37 36.266 0.114 7 4.22 13.16
1/10/2023 5:45:00 AM 2.37 36.266 0.114 7 4.11 13.17
1/10/2023 6:00:00 AM 2.37 36.266 0.114 7 4.1 13.17
1/10/2023 6:15:00 AM 2.37 36.266 0.114 7 3.99 13.17
1/10/2023 6:30:00 AM 2.37 36.266 0.114 7 4.03 13.17
1/10/2023 6:45:00 AM 2.36 36.248 0.114 6.97 4.17 13.17
1/10/2023 7:00:00 AM 2.36 36.248 0.114 7 4.46 13.17
1/10/2023 7:15:00 AM 2.35 36.23 0.114 6.99 4.28 13.17
1/10/2023 7:30:00 AM 2.35 36.23 0.114 6.99 4.12 13.18
1/10/2023 7:45:00 AM 2.34 36.212 0.114 6.98 4.04 13.18
1/10/2023 8:00:00 AM 2.34 36.212 0.114 7 4.13 13.19
1/10/2023 8:15:00 AM 2.33 36.194 0.114 6.98 4.01 13.2
1/10/2023 8:30:00 AM 2.33 36.194 0.114 7 3.93 13.21
1/10/2023 8:45:00 AM 2.34 36.212 0.114 6.99 4.06 13.22
1/10/2023 9:00:00 AM 2.34 36.212 0.114 7.01 3.82 13.24
1/10/2023 9:15:00 AM 2.35 36.23 0.114 7.01 3.95 13.27
1/10/2023 9:30:00 AM 2.35 36.23 0.114 7.01 3.88 13.28
1/10/2023 9:45:00 AM 2.36 36.248 0.114 7 3.9 13.3
1/10/2023 10:00:00 AM 2.38 36.284 0.114 7.02 3.97 13.33
1/10/2023 10:15:00 AM 2.39 36.302 0.114 7 3.77 13.35
1/10/2023 10:30:00 AM 2.4 36.32 0.114 7.03 3.73 13.36
1/10/2023 10:45:00 AM 2.42 36.356 0.114 7.03 3.79 13.39
1/10/2023 11:00:00 AM 2.43 36.374 0.114 7.04 3.51 13.41
1/10/2023 11:15:00 AM 2.46 36.428 0.114 7.03 3.65 13.43
1/10/2023 11:30:00 AM 2.49 36.482 0.114 7.05 3.45 13.46
1/10/2023 11:45:00 AM 2.51 36.518 0.114 7.02 3.53 13.47
1/10/2023 12:00:00 PM 2.52 36.536 0.114 7.06 3.58 13.48
1/10/2023 12:15:00 PM 2.54 36.572 0.114 7.03 3.53 13.5
1/10/2023 12:30:00 PM 2.55 36.59 0.114 7.06 3.66 13.51
1/10/2023 12:45:00 PM 2.57 36.626 0.114 7.07 3.68 13.52
1/10/2023 1:00:00 PM 2.59 36.662 0.114 7.04 3.57 13.53
1/10/2023 1:15:00 PM 2.61 36.698 0.114 7.07 3.51 13.54
1/10/2023 1:30:00 PM 2.62 36.716 0.114 7.07 3.5 13.54
1/10/2023 1:45:00 PM 2.64 36.752 0.114 7.05 3.53 13.55
1/10/2023 2:00:00 PM 2.66 36.788 0.114 7.08 3.46 13.55
1/10/2023 2:15:00 PM 2.68 36.824 0.114 7.07 3.48 13.55
1/10/2023 2:30:00 PM 2.69 36.842 0.114 7.08 3.45 13.55
1/10/2023 2:45:00 PM 2.7 36.86 0.114 7.07 3.5 13.55
1/10/2023 3:00:00 PM 2.71 36.878 0.114 7.09 3.42 13.53
1/10/2023 3:15:00 PM 2.72 36.896 0.114 7.05 3.48 13.52
1/10/2023 3:30:00 PM 2.73 36.914 0.114 7.09 3.33 13.51
1/10/2023 3:45:00 PM 2.73 36.914 0.114 7.07 3.52 13.5
1/10/2023 4:00:00 PM 2.73 36.914 0.114 7.08 3.46 13.48
1/10/2023 4:15:00 PM 2.73 36.914 0.114 7.08 3.26 13.47
1/10/2023 4:30:00 PM 2.73 36.914 0.114 7.08 3.32 13.44
1/10/2023 4:45:00 PM 2.72 36.896 0.114 7.06 3.36 13.42
1/10/2023 5:00:00 PM 2.72 36.896 0.114 7.07 3.4 13.4
1/10/2023 5:15:00 PM 2.71 36.878 0.114 7.07 3.34 13.37
1/10/2023 5:30:00 PM 2.7 36.86 0.114 7.06 3.32 13.35
1/10/2023 5:45:00 PM 2.69 36.842 0.114 7.06 3.35 13.33
1/10/2023 6:00:00 PM 2.69 36.842 0.114 7.06 3.45 13.31
1/10/2023 6:15:00 PM 2.68 36.824 0.115 7.05 3.35 13.29
1/10/2023 6:30:00 PM 2.67 36.806 0.114 7.04 3.68 13.28
1/10/2023 6:45:00 PM 2.66 36.788 0.115 7.05 3.51 13.26
1/10/2023 7:00:00 PM 2.65 36.77 0.115 7.05 3.36 13.25
1/10/2023 7:15:00 PM 2.64 36.752 0.115 7.04 3.45 13.24
1/10/2023 7:30:00 PM 2.63 36.734 0.115 7.04 3.46 13.23
1/10/2023 7:45:00 PM 2.62 36.716 0.115 7.03 3.35 13.23
1/10/2023 8:00:00 PM 2.6 36.68 0.115 7.03 3.4 13.22
1/10/2023 8:15:00 PM 2.6 36.68 0.115 7.02 3.52 13.21
1/10/2023 8:30:00 PM 2.58 36.644 0.115 7.04 3.42 13.21
1/10/2023 8:45:00 PM 2.57 36.626 0.115 7.02 3.44 13.2
1/10/2023 9:00:00 PM 2.56 36.608 0.115 7.03 3.49 13.19
1/10/2023 9:15:00 PM 2.55 36.59 0.115 7.02 3.84 13.19
1/10/2023 9:30:00 PM 2.54 36.572 0.115 7.02 3.87 13.19
1/10/2023 9:45:00 PM 2.54 36.572 0.115 7.02 3.81 13.19
1/10/2023 10:00:00 PM 2.53 36.554 0.116 7 3.66 13.18
1/10/2023 10:15:00 PM 2.52 36.536 0.116 7.02 3.65 13.19
1/10/2023 10:30:00 PM 2.51 36.518 0.115 7 3.67 13.19
1/10/2023 10:45:00 PM 2.5 36.5 0.116 7.02 3.58 13.18
1/10/2023 11:00:00 PM 2.49 36.482 0.116 7.02 3.49 13.19
1/10/2023 11:15:00 PM 2.48 36.464 0.116 7.02 3.6 13.19
1/10/2023 11:30:00 PM 2.47 36.446 0.116 7.02 3.71 13.19
1/10/2023 11:45:00 PM 2.47 36.446 0.116 7.02 3.45 13.19
1/11/2023 12:00:00 AM 2.46 36.428 0.116 7.01 3.6 13.19
1/11/2023 12:15:00 AM 2.45 36.41 0.116 7 3.46 13.19
1/11/2023 12:30:00 AM 2.44 36.392 0.116 7.01 3.41 13.19
1/11/2023 12:45:00 AM 2.43 36.374 0.116 7.02 3.47 13.19
1/11/2023 1:00:00 AM 2.42 36.356 0.116 7.02 3.4 13.19
1/11/2023 1:15:00 AM 2.41 36.338 0.116 7 3.25 13.19
1/11/2023 1:30:00 AM 2.4 36.32 0.116 7 3.67 13.2
1/11/2023 1:45:00 AM 2.39 36.302 0.116 7 3.41 13.2
1/11/2023 2:00:00 AM 2.39 36.302 0.117 7.02 3.57 13.2
1/11/2023 2:15:00 AM 2.37 36.266 0.117 7.02 3.45 13.2
1/11/2023 2:30:00 AM 2.37 36.266 0.117 7 3.84 13.21
1/11/2023 2:45:00 AM 2.35 36.23 0.117 7.01 3.81 13.21
1/11/2023 3:00:00 AM 2.35 36.23 0.117 7 3.53 13.22
1/11/2023 3:15:00 AM 2.34 36.212 0.117 7.01 3.8 13.22
1/11/2023 3:30:00 AM 2.33 36.194 0.117 7.01 3.88 13.22
1/11/2023 3:45:00 AM 2.32 36.176 0.117 7.01 3.73 13.23
1/11/2023 4:00:00 AM 2.31 36.158 0.117 7 4.2 13.23
1/11/2023 4:15:00 AM 2.3 36.14 0.117 7 3.92 13.24
1/11/2023 4:30:00 AM 2.29 36.122 0.117 7.02 3.69 13.24
1/11/2023 4:45:00 AM 2.27 36.086 0.117 7.01 3.55 13.24
1/11/2023 5:00:00 AM 2.26 36.068 0.117 7.01 3.81 13.25
1/11/2023 5:15:00 AM 2.25 36.05 0.117 7.01 3.85 13.25
1/11/2023 5:30:00 AM 2.24 36.032 0.117 7.02 3.88 13.25
1/11/2023 5:45:00 AM 2.23 36.014 0.117 7.02 3.51 13.26
1/11/2023 6:00:00 AM 2.22 35.996 0.117 7 3.69 13.26
1/11/2023 6:15:00 AM 2.21 35.978 0.118 7.01 3.45 13.27
1/11/2023 6:30:00 AM 2.2 35.96 0.118 7.01 3.55 13.27
1/11/2023 6:45:00 AM 2.19 35.942 0.118 7 3.54 13.27
1/11/2023 7:00:00 AM 2.18 35.924 0.118 7.01 3.59 13.28
1/11/2023 7:15:00 AM 2.17 35.906 0.118 7.02 3.47 13.28
1/11/2023 7:30:00 AM 2.16 35.888 0.118 7.01 3.52 13.29
1/11/2023 7:45:00 AM 2.15 35.87 0.118 7.01 3.48 13.3
1/11/2023 8:00:00 AM 2.15 35.87 0.118 7 3.51 13.31
1/11/2023 8:15:00 AM 2.14 35.852 0.118 7.02 3.43 13.32
1/11/2023 8:30:00 AM 2.14 35.852 0.118 7.02 3.37 13.34
1/11/2023 8:45:00 AM 2.15 35.87 0.118 7 3.44 13.37
1/11/2023 9:00:00 AM 2.16 35.888 0.118 7.03 3.68 13.4
1/11/2023 9:15:00 AM 2.17 35.906 0.118 7.02 3.46 13.43
1/11/2023 9:30:00 AM 2.19 35.942 0.118 7.04 3.46 13.47
1/11/2023 9:45:00 AM 2.21 35.978 0.118 7.05 3.56 13.5
1/11/2023 10:00:00 AM 2.25 36.05 0.118 7.04 3.47 13.53
1/11/2023 10:15:00 AM 2.29 36.122 0.118 7.06 3.45 13.56
1/11/2023 10:30:00 AM 2.32 36.176 0.118 7.04 3.91 13.58
1/11/2023 10:45:00 AM 2.37 36.266 0.118 7.07 3.6 13.61
1/11/2023 11:00:00 AM 2.42 36.356 0.118 7.06 3.35 13.63
1/11/2023 11:15:00 AM 2.47 36.446 0.118 7.09 3.64 13.65
1/11/2023 11:30:00 AM 2.53 36.554 0.118 7.09 3.46 13.67
1/11/2023 11:45:00 AM 2.58 36.644 0.118 7.09 3.5 13.69
1/11/2023 12:00:00 PM 2.65 36.77 0.118 7.1 3.57 13.69
1/11/2023 12:15:00 PM 2.72 36.896 0.118 7.1 3.48 13.7
1/11/2023 12:30:00 PM 2.78 37.004 0.118 7.12 3.58 13.7
1/11/2023 12:45:00 PM 2.84 37.112 0.118 7.12 3.37 13.7
1/11/2023 1:00:00 PM 2.9 37.22 0.118 7.11 3.35 13.7
1/11/2023 1:15:00 PM 2.95 37.31 0.118 7.12 3.34 13.7
1/11/2023 1:30:00 PM 3.01 37.418 0.118 7.14 3.32 13.69
1/11/2023 1:45:00 PM 3.06 37.508 0.118 7.14 3.28 13.68
1/11/2023 2:00:00 PM 3.12 37.616 0.118 7.15 3.21 13.68
1/11/2023 2:15:00 PM 3.18 37.724 0.118 7.14 3.25 13.67
1/11/2023 2:30:00 PM 3.22 37.796 0.118 7.16 3.19 13.66
1/11/2023 2:45:00 PM 3.26 37.868 0.118 7.14 3.26 13.65
1/11/2023 3:00:00 PM 3.29 37.922 0.118 7.16 3.16 13.64
1/11/2023 3:15:00 PM 3.33 37.994 0.118 7.16 3.22 13.62
1/11/2023 3:30:00 PM 3.36 38.048 0.118 7.16 3.21 13.6
1/11/2023 3:45:00 PM 3.37 38.066 0.118 7.16 3.29 13.58
1/11/2023 4:00:00 PM 3.39 38.102 0.118 7.16 3.06 13.55
1/11/2023 4:15:00 PM 3.4 38.12 0.118 7.15 3.08 13.53
1/11/2023 4:30:00 PM 3.4 38.12 0.118 7.16 3.07 13.49
1/11/2023 4:45:00 PM 3.4 38.12 0.118 7.16 3 13.44
1/11/2023 5:00:00 PM 3.4 38.12 0.118 7.14 3.12 13.4
1/11/2023 5:15:00 PM 3.4 38.12 0.118 7.15 3.26 13.36
1/11/2023 5:30:00 PM 3.4 38.12 0.118 7.14 3.16 13.32
1/11/2023 5:45:00 PM 3.4 38.12 0.118 7.11 3.2 13.29
1/11/2023 6:00:00 PM 3.4 38.12 0.118 7.13 3.26 13.25
1/11/2023 6:15:00 PM 3.39 38.102 0.118 7.12 3.3 13.23
1/11/2023 6:30:00 PM 3.38 38.084 0.118 7.1 3.19 13.21
1/11/2023 6:45:00 PM 3.36 38.048 0.118 7.1 3.29 13.18
1/11/2023 7:00:00 PM 3.33 37.994 0.118 7.1 3.23 13.17
1/11/2023 7:15:00 PM 3.31 37.958 0.118 7.1 3.31 13.15
1/11/2023 7:30:00 PM 3.3 37.94 0.118 7.1 3.88 13.13
1/11/2023 7:45:00 PM 3.28 37.904 0.118 7.08 3.11 13.11
1/11/2023 8:00:00 PM 3.25 37.85 0.118 7.08 3.5 13.1
1/11/2023 8:15:00 PM 3.21 37.778 0.118 7.07 3.29 13.08
1/11/2023 8:30:00 PM 3.18 37.724 0.118 7.08 3.18 13.07
1/11/2023 8:45:00 PM 3.16 37.688 0.118 7.05 3.55 13.06
1/11/2023 9:00:00 PM 3.14 37.652 0.118 7.07 3.33 13.05
1/11/2023 9:15:00 PM 3.12 37.616 0.118 7.04 3.21 13.04
1/11/2023 9:30:00 PM 3.1 37.58 0.118 7.06 3.37 13.03
1/11/2023 9:45:00 PM 3.09 37.562 0.118 7.04 3.23 13.03
1/11/2023 10:00:00 PM 3.07 37.526 0.118 7.06 3.25 13.02
1/11/2023 10:15:00 PM 3.05 37.49 0.119 7.03 3.23 13.02
1/11/2023 10:30:00 PM 3.04 37.472 0.118 7.05 3.13 13.02
1/11/2023 10:45:00 PM 3.02 37.436 0.119 7.04 3.21 13.02
1/11/2023 11:00:00 PM 2.99 37.382 0.119 7.05 3.04 13.02
1/11/2023 11:15:00 PM 2.97 37.346 0.119 7.04 3.14 13.02
1/11/2023 11:30:00 PM 2.93 37.274 0.119 7.03 3.12 13.03
1/11/2023 11:45:00 PM 2.91 37.238 0.119 7.02 3.13 13.03
1/12/2023 12:00:00 AM 2.9 37.22 0.119 7.04 3.15 13.03
1/12/2023 12:15:00 AM 2.9 37.22 0.119 7.04 3.24 13.03
1/12/2023 12:30:00 AM 2.89 37.202 0.119 7.02 3.34 13.03
1/12/2023 12:45:00 AM 2.88 37.184 0.119 7.04 3.33 13.03
1/12/2023 1:00:00 AM 2.87 37.166 0.119 7.02 3.3 13.03
1/12/2023 1:15:00 AM 2.87 37.166 0.119 7.04 3.36 13.03
1/12/2023 1:30:00 AM 2.86 37.148 0.119 7.01 3.41 13.03
1/12/2023 1:45:00 AM 2.85 37.13 0.119 7.04 3.38 13.03
1/12/2023 2:00:00 AM 2.85 37.13 0.119 7.03 3.57 13.03
1/12/2023 2:15:00 AM 2.85 37.13 0.119 7.02 3.47 13.03
1/12/2023 2:30:00 AM 2.84 37.112 0.119 7.03 3.61 13.03
1/12/2023 2:45:00 AM 2.83 37.094 0.119 7.02 3.59 13.03
1/12/2023 3:00:00 AM 2.82 37.076 0.119 7.02 3.56 13.04
1/12/2023 3:15:00 AM 2.82 37.076 0.12 7.04 3.6 13.03
1/12/2023 3:30:00 AM 2.81 37.058 0.12 7.02 3.5 13.04
1/12/2023 3:45:00 AM 2.81 37.058 0.12 7.03 3.54 13.03
1/12/2023 4:00:00 AM 2.8 37.04 0.12 7.02 3.56 13.03
1/12/2023 4:15:00 AM 2.8 37.04 0.12 7.02 3.59 13.04
1/12/2023 4:30:00 AM 2.79 37.022 0.12 7.03 3.59 13.03
1/12/2023 4:45:00 AM 2.79 37.022 0.12 7.03 3.51 13.04
1/12/2023 5:00:00 AM 2.79 37.022 0.12 7.04 3.6 13.03
1/12/2023 5:15:00 AM 2.78 37.004 0.12 7.04 3.67 13.04
1/12/2023 5:30:00 AM 2.78 37.004 0.12 7.04 3.55 13.03
1/12/2023 5:45:00 AM 2.77 36.986 0.12 7.03 3.38 13.03
1/12/2023 6:00:00 AM 2.77 36.986 0.12 7.02 3.63 13.03
1/12/2023 6:15:00 AM 2.77 36.986 0.12 7.03 3.64 13.03
1/12/2023 6:30:00 AM 2.75 36.95 0.12 7.03 3.6 13.04
1/12/2023 6:45:00 AM 2.72 36.896 0.12 7.04 3.77 13.04
1/12/2023 7:00:00 AM 2.7 36.86 0.122 7.02 3.91 13.04
1/12/2023 7:15:00 AM 2.69 36.842 0.122 7.04 3.57 13.04
1/12/2023 7:30:00 AM 2.68 36.824 0.122 7.03 3.61 13.05
1/12/2023 7:45:00 AM 2.68 36.824 0.121 7.04 3.52 13.05
1/12/2023 8:00:00 AM 2.67 36.806 0.122 7.02 3.52 13.05
1/12/2023 8:15:00 AM 2.65 36.77 0.122 7.04 3.55 13.06
1/12/2023 8:30:00 AM 2.65 36.77 0.121 7.04 3.43 13.07
1/12/2023 8:45:00 AM 2.66 36.788 0.121 7.03 3.48 13.08
1/12/2023 9:00:00 AM 2.66 36.788 0.12 7.04 3.54 13.1
1/12/2023 9:15:00 AM 2.66 36.788 0.12 7.05 3.47 13.12
1/12/2023 9:30:00 AM 2.67 36.806 0.12 7.04 3.53 13.14
1/12/2023 9:45:00 AM 2.68 36.824 0.12 7.05 3.56 13.17
1/12/2023 10:00:00 AM 2.7 36.86 0.12 7.05 3.51 13.17
1/12/2023 10:15:00 AM 2.71 36.878 0.121 7.05 3.34 13.2
1/12/2023 10:30:00 AM 2.74 36.932 0.12 7.06 3.46 13.23
1/12/2023 10:45:00 AM 2.77 36.986 0.12 7.07 3.25 13.27
1/12/2023 11:00:00 AM 2.8 37.04 0.12 7.07 3.47 13.29
1/12/2023 11:15:00 AM 2.82 37.076 0.12 7.07 3.31 13.31
1/12/2023 11:30:00 AM 2.85 37.13 0.12 7.07 3.25 13.34
1/12/2023 11:45:00 AM 2.87 37.166 0.12 7.08 3.26 13.35
1/12/2023 12:00:00 PM 2.9 37.22 0.12 7.1 3.28 13.37
1/12/2023 12:15:00 PM 2.94 37.292 0.12 7.1 3.2 13.39
1/12/2023 12:30:00 PM 2.96 37.328 0.12 7.1 3.35 13.4
1/12/2023 12:45:00 PM 2.99 37.382 0.12 7.1 3.5 13.39
1/12/2023 1:00:00 PM 3.01 37.418 0.12 7.1 3.27 13.39
1/12/2023 1:15:00 PM 3.03 37.454 0.12 7.12 3.25 13.38
1/12/2023 1:30:00 PM 3.04 37.472 0.12 7.1 3.22 13.37
1/12/2023 1:45:00 PM 3.06 37.508 0.12 7.12 3.19 13.37
1/12/2023 2:00:00 PM 3.08 37.544 0.12 7.1 3.1 13.36
1/12/2023 2:15:00 PM 3.1 37.58 0.12 7.12 3.07 13.35
1/12/2023 2:30:00 PM 3.13 37.634 0.12 7.11 3.34 13.35
1/12/2023 2:45:00 PM 3.15 37.67 0.12 7.13 3.22 13.35
1/12/2023 3:00:00 PM 3.17 37.706 0.12 7.12 3.12 13.34
1/12/2023 3:15:00 PM 3.19 37.742 0.12 7.13 3.04 13.33
1/12/2023 3:30:00 PM 3.22 37.796 0.12 7.11 2.98 13.32
1/12/2023 3:45:00 PM 3.23 37.814 0.12 7.13 3.02 13.29
1/12/2023 4:00:00 PM 3.24 37.832 0.12 7.12 3.08 13.27
1/12/2023 4:15:00 PM 3.26 37.868 0.121 7.13 3.02 13.24
1/12/2023 4:30:00 PM 3.27 37.886 0.121 7.12 3.17 13.21
1/12/2023 4:45:00 PM 3.28 37.904 0.121 7.11 2.98 13.19
1/12/2023 5:00:00 PM 3.3 37.94 0.121 7.1 3.18 13.15
1/12/2023 5:15:00 PM 3.31 37.958 0.121 7.1 3.13 13.12
1/12/2023 5:30:00 PM 3.32 37.976 0.121 7.11 3.11 13.09
1/12/2023 5:45:00 PM 3.34 38.012 0.12 7.1 3.17 13.06
1/12/2023 6:00:00 PM 3.35 38.03 0.12 7.11 3.1 13.04
1/12/2023 6:15:00 PM 3.37 38.066 0.12 7.1 3.14 13.01
1/12/2023 6:30:00 PM 3.38 38.084 0.12 7.1 3.33 12.98
1/12/2023 6:45:00 PM 3.4 38.12 0.12 7.1 3.37 12.96
1/12/2023 7:00:00 PM 3.42 38.156 0.12 7.1 3.33 12.95
1/12/2023 7:15:00 PM 3.43 38.174 0.12 7.1 3.32 12.93
1/12/2023 7:30:00 PM 3.44 38.192 0.12 7.09 3.57 12.9
1/12/2023 7:45:00 PM 3.45 38.21 0.119 7.09 3.54 12.89
1/12/2023 8:00:00 PM 3.46 38.228 0.119 7.09 3.53 12.87
1/12/2023 8:15:00 PM 3.47 38.246 0.119 7.07 3.68 12.86
1/12/2023 8:30:00 PM 3.48 38.264 0.119 7.09 3.94 12.84
1/12/2023 8:45:00 PM 3.49 38.282 0.119 7.07 3.94 12.83
1/12/2023 9:00:00 PM 3.5 38.3 0.118 7.08 4.07 12.82
1/12/2023 9:15:00 PM 3.51 38.318 0.118 7.07 4.54 12.81
1/12/2023 9:30:00 PM 3.52 38.336 0.118 7.06 4.47 12.8
1/12/2023 9:45:00 PM 3.53 38.354 0.118 7.07 4.46 12.79
1/12/2023 10:00:00 PM 3.54 38.372 0.119 7.07 4.95 12.77
1/12/2023 10:15:00 PM 3.55 38.39 0.119 7.06 5 12.76
1/12/2023 10:30:00 PM 3.56 38.408 0.12 7.05 5.85 12.76
1/12/2023 10:45:00 PM 3.57 38.426 0.121 7.07 7.25 12.75
1/12/2023 11:00:00 PM 3.58 38.444 0.121 7.07 10.11 12.75
1/12/2023 11:15:00 PM 3.59 38.462 0.121 7.05 14.03 12.75
1/12/2023 11:30:00 PM 3.59 38.462 0.121 7.07 16.44 12.75
1/12/2023 11:45:00 PM 3.6 38.48 0.121 7.07 23.65 12.75
1/13/2023 12:00:00 AM 3.6 38.48 0.121 7.06 20.17 12.75
1/13/2023 12:15:00 AM 3.61 38.498 0.121 7.06 21.7 12.77
1/13/2023 12:30:00 AM 3.62 38.516 0.12 7.07 21.96 12.76
1/13/2023 12:45:00 AM 3.63 38.534 0.12 7.06 23.7 12.77
1/13/2023 1:00:00 AM 3.64 38.552 0.12 7.07 21.33 12.78
1/13/2023 1:15:00 AM 3.65 38.57 0.12 7.07 20.68 12.78
1/13/2023 1:30:00 AM 3.66 38.588 0.121 7.06 18.99 12.77
1/13/2023 1:45:00 AM 3.68 38.624 0.122 7.06 17.5 12.76
1/13/2023 2:00:00 AM 3.69 38.642 0.122 7.06 17.28 12.74
1/13/2023 2:15:00 AM 3.7 38.66 0.122 7.06 18.11 12.75
1/13/2023 2:30:00 AM 3.71 38.678 0.121 7.06 18.12 12.75
1/13/2023 2:45:00 AM 3.7 38.66 0.12 7.04 20.15 12.76
1/13/2023 3:00:00 AM 3.7 38.66 0.119 7.07 20.72 12.76
1/13/2023 3:15:00 AM 3.69 38.642 0.118 7.05 19.11 12.77
1/13/2023 3:30:00 AM 3.68 38.624 0.117 7.06 18.5 12.77
1/13/2023 3:45:00 AM 3.68 38.624 0.116 7.04 21.32 12.77
1/13/2023 4:00:00 AM 3.67 38.606 0.117 7.06 18.71 12.78
1/13/2023 4:15:00 AM 3.67 38.606 0.117 7.03 19.5 12.78
1/13/2023 4:30:00 AM 3.67 38.606 0.117 7.05 23.92 12.77
1/13/2023 4:45:00 AM 3.67 38.606 0.117 7.03 23.3 12.78
1/13/2023 5:00:00 AM 3.66 38.588 0.117 7.05 26.42 12.78
1/13/2023 5:15:00 AM 3.67 38.606 0.116 7.02 27.94 12.78
1/13/2023 5:30:00 AM 3.67 38.606 0.116 7.04 30.16 12.78
1/13/2023 5:45:00 AM 3.67 38.606 0.116 7.01 33.91 12.77
1/13/2023 6:00:00 AM 3.68 38.624 0.116 7.05 36.64 12.78
1/13/2023 6:15:00 AM 3.68 38.624 0.116 7.02 36.25 12.77
1/13/2023 6:30:00 AM 3.68 38.624 0.115 7.05 38.29 12.77
1/13/2023 6:45:00 AM 3.68 38.624 0.114 7.04 41.06 12.77
1/13/2023 7:00:00 AM 3.68 38.624 0.113 7.05 41.78 12.77
1/13/2023 7:15:00 AM 3.68 38.624 0.111 7.06 41.4 12.77
1/13/2023 7:30:00 AM 3.67 38.606 0.109 7.06 38.77 12.78
1/13/2023 7:45:00 AM 3.66 38.588 0.108 7.03 37.3 12.78
1/13/2023 8:00:00 AM 3.65 38.57 0.106 7.05 43.97 12.79
1/13/2023 8:15:00 AM 3.64 38.552 0.105 7.06 42.42 12.79
1/13/2023 8:30:00 AM 3.63 38.534 0.103 7.03 46.89 12.8
1/13/2023 8:45:00 AM 3.62 38.516 0.102 7.05 46.37 12.82
1/13/2023 9:00:00 AM 3.6 38.48 0.101 7.06 47.05 12.83
1/13/2023 9:15:00 AM 3.59 38.462 0.1 7.05 50.01 12.84
1/13/2023 9:30:00 AM 3.58 38.444 0.099 7.04 50.39 12.84
1/13/2023 9:45:00 AM 3.57 38.426 0.098 7.03 53.28 12.86
1/13/2023 10:00:00 AM 3.56 38.408 0.097 7.03 53.77 12.87
1/13/2023 10:15:00 AM 3.55 38.39 0.097 7.03 53.05 12.88
1/13/2023 10:30:00 AM 3.55 38.39 0.095 7.05 49.34 12.88
1/13/2023 10:45:00 AM 3.54 38.372 0.095 7.04 53.86 12.9
1/13/2023 11:00:00 AM 3.53 38.354 0.094 7.05 49.41 12.91
1/13/2023 11:15:00 AM 3.53 38.354 0.094 7.02 47.69 12.92
1/13/2023 11:30:00 AM 3.52 38.336 0.093 7.05 45.92 12.94
1/13/2023 11:45:00 AM 3.52 38.336 0.093 7.02 44.11 12.95
1/13/2023 12:00:00 PM 3.51 38.318 0.093 7.04 41.4 12.96
1/13/2023 12:15:00 PM 3.5 38.3 0.092 7.04 38.62 12.98
1/13/2023 12:30:00 PM 3.48 38.264 0.092 7.04 38.13 12.99
1/13/2023 12:45:00 PM 3.46 38.228 0.092 7.02 38.89 13
1/13/2023 1:00:00 PM 3.44 38.192 0.092 7.01 32.49 13.02
1/13/2023 1:15:00 PM 3.43 38.174 0.092 7.03 29.41 13.02
1/13/2023 1:30:00 PM 3.41 38.138 0.092 7.03 28.79 13.04
1/13/2023 1:45:00 PM 3.39 38.102 0.092 7.03 25.81 13.05
1/13/2023 2:00:00 PM 3.36 38.048 0.092 7.03 25.11 13.06
1/13/2023 2:15:00 PM 3.34 38.012 0.091 7.01 23.01 13.07
1/13/2023 2:30:00 PM 3.31 37.958 0.091 7.01 21.95 13.07
1/13/2023 2:45:00 PM 3.29 37.922 0.091 7.02 19.7 13.09
1/13/2023 3:00:00 PM 3.26 37.868 0.091 7.01 19.57 13.09
1/13/2023 3:15:00 PM 3.23 37.814 0.091 7 18.8 13.1
1/13/2023 3:30:00 PM 3.21 37.778 0.091 6.99 18.27 13.1
1/13/2023 3:45:00 PM 3.18 37.724 0.091 7.02 17.43 13.11
1/13/2023 4:00:00 PM 3.15 37.67 0.091 7.01 16.54 13.11
1/13/2023 4:15:00 PM 3.11 37.598 0.091 7.01 16.03 13.11
1/13/2023 4:30:00 PM 3.08 37.544 0.091 7 15.31 13.12
1/13/2023 4:45:00 PM 3.05 37.49 0.091 7 15.26 13.11
1/13/2023 5:00:00 PM 3.02 37.436 0.091 7.01 11.12 13.12
1/13/2023 5:15:00 PM 2.98 37.364 0.091 6.97 14.71 13.12
1/13/2023 5:30:00 PM 2.95 37.31 0.091 7 14.04 13.12
1/13/2023 5:45:00 PM 2.91 37.238 0.091 7 10.03 13.13
1/13/2023 6:00:00 PM 2.88 37.184 0.092 6.99 93.53 13.13
1/13/2023 6:15:00 PM 2.85 37.13 0.092 7 12.99 13.13
1/13/2023 6:30:00 PM 2.82 37.076 0.092 6.98 200.26 13.14
1/13/2023 6:45:00 PM 2.79 37.022 0.092 6.97 13.11 13.14
1/13/2023 7:00:00 PM 2.75 36.95 0.092 6.99 12.52 13.15
1/13/2023 7:15:00 PM 2.72 36.896 0.092 6.99 13 13.16
1/13/2023 7:30:00 PM 2.69 36.842 0.093 6.99 12.74 13.16
1/13/2023 7:45:00 PM 2.66 36.788 0.093 6.99 12.25 13.17
1/13/2023 8:00:00 PM 2.63 36.734 0.093 6.99 13.56 13.18
1/13/2023 8:15:00 PM 2.6 36.68 0.093 6.99 13.11 13.19
1/13/2023 8:30:00 PM 2.57 36.626 0.093 6.98 12.51 13.19
1/13/2023 8:45:00 PM 2.54 36.572 0.093 6.98 12.45 13.2
1/13/2023 9:00:00 PM 2.51 36.518 0.093 6.98 12.62 13.21
1/13/2023 9:15:00 PM 2.48 36.464 0.093 6.99 11.61 13.22
1/13/2023 9:30:00 PM 2.45 36.41 0.093 6.98 13.18 13.22
1/13/2023 9:45:00 PM 2.42 36.356 0.093 6.99 12.01 13.23
1/13/2023 10:00:00 PM 2.39 36.302 0.093 6.97 12.12 13.24
1/13/2023 10:15:00 PM 2.35 36.23 0.093 6.98 11.79 13.25
1/13/2023 10:30:00 PM 2.32 36.176 0.094 6.98 11.81 13.27
1/13/2023 10:45:00 PM 2.29 36.122 0.093 6.97 12.06 13.28
1/13/2023 11:00:00 PM 2.26 36.068 0.094 6.98 11.92 13.28
1/13/2023 11:15:00 PM 2.23 36.014 0.094 6.97 11.87 13.29
1/13/2023 11:30:00 PM 2.2 35.96 0.094 6.97 11.06 13.3
1/13/2023 11:45:00 PM 2.17 35.906 0.093 6.96 10.67 13.3
1/14/2023 12:00:00 AM 2.14 35.852 0.094 6.97 11.66 13.32
1/14/2023 12:15:00 AM 2.11 35.798 0.094 6.96 10.48 13.33
1/14/2023 12:30:00 AM 2.07 35.726 0.094 6.98 11.49 13.35
1/14/2023 12:45:00 AM 2.04 35.672 0.094 6.98 10.51 13.36
1/14/2023 1:00:00 AM 2.01 35.618 0.094 6.98 11.14 13.37
1/14/2023 1:15:00 AM 1.97 35.546 0.093 6.98 10.85 13.38
1/14/2023 1:30:00 AM 1.93 35.474 0.093 6.97 10.79 13.39
1/14/2023 1:45:00 AM 1.89 35.402 0.094 6.98 10.78 13.39
1/14/2023 2:00:00 AM 1.86 35.348 0.094 6.98 10.03 13.41
1/14/2023 2:15:00 AM 1.82 35.276 0.094 6.98 11.42 13.42
1/14/2023 2:30:00 AM 1.76 35.168 0.093 6.94 10.64 13.44
1/14/2023 2:45:00 AM 1.73 35.114 0.094 6.98 9.95 13.44
1/14/2023 3:00:00 AM 1.7 35.06 0.093 6.98 10.75 13.46
1/14/2023 3:15:00 AM 1.68 35.024 0.093 6.98 9.88 13.48
1/14/2023 3:30:00 AM 1.66 34.988 0.094 6.96 10.49 13.48
1/14/2023 3:45:00 AM 1.63 34.934 0.093 6.97 10.07 13.5
1/14/2023 4:00:00 AM 1.61 34.898 0.093 6.96 9.87 13.51
1/14/2023 4:15:00 AM 1.58 34.844 0.093 6.97 10.09 13.52
1/14/2023 4:30:00 AM 1.56 34.808 0.094 6.96 9.92 13.53
1/14/2023 4:45:00 AM 1.53 34.754 0.093 6.97 10.06 13.55
1/14/2023 5:00:00 AM 1.51 34.718 0.094 6.96 10.23 13.55
1/14/2023 5:15:00 AM 1.48 34.664 0.094 6.97 10.05 13.57
1/14/2023 5:30:00 AM 1.46 34.628 0.094 6.96 10.13 13.58
1/14/2023 5:45:00 AM 1.43 34.574 0.094 6.96 10.17 13.59
1/14/2023 6:00:00 AM 1.41 34.538 0.094 6.97 9.89 13.6
1/14/2023 6:15:00 AM 1.38 34.484 0.094 6.94 9.99 13.62
1/14/2023 6:30:00 AM 1.36 34.448 0.094 6.96 10.28 13.63
1/14/2023 6:45:00 AM 1.33 34.394 0.094 6.96 9.7 13.63
1/14/2023 7:00:00 AM 1.31 34.358 0.094 6.97 9.79 13.64
1/14/2023 7:15:00 AM 1.29 34.322 0.094 6.97 10.42 13.65
1/14/2023 7:30:00 AM 1.27 34.286 0.094 6.96 9.86 13.66
1/14/2023 7:45:00 AM 1.25 34.25 0.094 6.97 9.89 13.67
1/14/2023 8:00:00 AM 1.23 34.214 0.094 6.97 9.67 13.68
1/14/2023 8:15:00 AM 1.2 34.16 0.094 6.96 9.29 13.69
1/14/2023 8:30:00 AM 1.18 34.124 0.094 6.95 9.25 13.71
1/14/2023 8:45:00 AM 1.16 34.088 0.095 6.97 8.9 13.73
1/14/2023 9:00:00 AM 1.15 34.07 0.094 6.97 9.17 13.75
1/14/2023 9:15:00 AM 1.13 34.034 0.094 6.96 9.15 13.77
1/14/2023 9:30:00 AM 1.12 34.016 0.094 6.97 8.42 13.79
1/14/2023 9:45:00 AM 1.12 34.016 0.094 6.98 8.48 13.82
1/14/2023 10:00:00 AM 1.13 34.034 0.094 6.95 9.12 13.84
1/14/2023 10:15:00 AM 1.13 34.034 0.094 6.98 8.48 13.85
1/14/2023 10:30:00 AM 1.14 34.052 0.094 6.99 8.3 13.88
1/14/2023 10:45:00 AM 1.15 34.07 0.094 6.98 8.23 13.9
1/14/2023 11:00:00 AM 1.16 34.088 0.095 7.01 8.3 13.91
1/14/2023 11:15:00 AM 1.19 34.142 0.095 7 7.98 13.94
1/14/2023 11:30:00 AM 1.21 34.178 0.095 7.01 8.45 13.95
1/14/2023 11:45:00 AM 1.24 34.232 0.095 7.02 7.87 13.97
1/14/2023 12:00:00 PM 1.26 34.268 0.094 7.03 8.06 13.98
1/14/2023 12:15:00 PM 1.29 34.322 0.094 6.99 7.6 14
1/14/2023 12:30:00 PM 1.32 34.376 0.094 7.03 7.24 14
1/14/2023 12:45:00 PM 1.35 34.43 0.094 7.04 7.58 14.01
1/14/2023 1:00:00 PM 1.39 34.502 0.094 7.01 7.42 14.02
1/14/2023 1:15:00 PM 1.43 34.574 0.094 7.05 7.33 14.02
1/14/2023 1:30:00 PM 1.45 34.61 0.094 7.02 7.27 14.02
1/14/2023 1:45:00 PM 1.48 34.664 0.094 7.03 7.77 14.02
1/14/2023 2:00:00 PM 1.5 34.7 0.094 7.04 7.11 14.02
1/14/2023 2:15:00 PM 1.53 34.754 0.095 7.03 7.14 14.02
1/14/2023 2:30:00 PM 1.54 34.772 0.095 7.04 6.97 14.01
1/14/2023 2:45:00 PM 1.55 34.79 0.095 7.04 7.18 14.01
1/14/2023 3:00:00 PM 1.55 34.79 0.095 7.04 7.13 14
1/14/2023 3:15:00 PM 1.56 34.808 0.095 7.05 6.79 14
1/14/2023 3:30:00 PM 1.56 34.808 0.095 7.05 6.84 13.99
1/14/2023 3:45:00 PM 1.57 34.826 0.095 7.06 7.12 13.98
1/14/2023 4:00:00 PM 1.56 34.808 0.095 7.06 6.77 13.97
1/14/2023 4:15:00 PM 1.55 34.79 0.095 7.06 7.1 13.95
1/14/2023 4:30:00 PM 1.54 34.772 0.095 7.03 6.89 13.94
1/14/2023 4:45:00 PM 1.52 34.736 0.095 7.03 6.91 13.92
1/14/2023 5:00:00 PM 1.51 34.718 0.095 7.05 7.03 13.91
1/14/2023 5:15:00 PM 1.49 34.682 0.095 7.04 7.13 13.89
1/14/2023 5:30:00 PM 1.47 34.646 0.095 7.02 6.6 13.87
1/14/2023 5:45:00 PM 1.45 34.61 0.095 7.02 6.6 13.85
1/14/2023 6:00:00 PM 1.43 34.574 0.096 7.02 6.6 13.84
1/14/2023 6:15:00 PM 1.4 34.52 0.096 7.02 6.8 13.83
1/14/2023 6:30:00 PM 1.38 34.484 0.096 7.02 6.79 13.82
1/14/2023 6:45:00 PM 1.35 34.43 0.096 7.01 6.65 13.81
1/14/2023 7:00:00 PM 1.32 34.376 0.096 7.02 6.72 13.81
1/14/2023 7:15:00 PM 1.29 34.322 0.096 6.98 6.7 13.8
1/14/2023 7:30:00 PM 1.26 34.268 0.096 7 6.52 13.79
1/14/2023 7:45:00 PM 1.23 34.214 0.096 6.99 6.52 13.79
1/14/2023 8:00:00 PM 1.21 34.178 0.096 7 6.86 13.8
1/14/2023 8:15:00 PM 1.18 34.124 0.096 6.98 6.4 13.8
1/14/2023 8:30:00 PM 1.16 34.088 0.096 6.99 6.52 13.8
1/14/2023 8:45:00 PM 1.13 34.034 0.096 6.96 6.18 13.81
1/14/2023 9:00:00 PM 1.11 33.998 0.096 6.97 6.34 13.81
1/14/2023 9:15:00 PM 1.08 33.944 0.096 6.99 6.65 13.82
1/14/2023 9:30:00 PM 1.06 33.908 0.097 6.98 6.67 13.82
1/14/2023 9:45:00 PM 1.03 33.854 0.097 6.97 6.52 13.82
1/14/2023 10:00:00 PM 1.01 33.818 0.097 6.98 6.61 13.83
1/14/2023 10:15:00 PM 0.98 33.764 0.097 6.98 6.41 13.84
1/14/2023 10:30:00 PM 0.95 33.71 0.097 6.97 6.41 13.85
1/14/2023 10:45:00 PM 0.93 33.674 0.097 6.97 6.72 13.86
1/14/2023 11:00:00 PM 0.9 33.62 0.097 6.97 6.2 13.86
1/14/2023 11:15:00 PM 0.88 33.584 0.097 6.95 6.19 13.87
1/14/2023 11:30:00 PM 0.86 33.548 0.097 6.95 6.07 13.88
1/14/2023 11:45:00 PM 0.84 33.512 0.097 6.97 5.93 13.89
1/15/2023 12:00:00 AM 0.82 33.476 0.097 6.94 6.62 13.89
1/15/2023 12:15:00 AM 0.79 33.422 0.097 6.96 6.11 13.9
1/15/2023 12:30:00 AM 0.77 33.386 0.097 6.96 6.41 13.91
1/15/2023 12:45:00 AM 0.75 33.35 0.098 6.96 6.57 13.92
1/15/2023 1:00:00 AM 0.73 33.314 0.098 6.95 6.49 13.92
1/15/2023 1:15:00 AM 0.71 33.278 0.098 6.96 6.88 13.93
1/15/2023 1:30:00 AM 0.7 33.26 0.098 6.95 6.62 13.93
1/15/2023 1:45:00 AM 0.68 33.224 0.098 6.96 6.22 13.94
1/15/2023 2:00:00 AM 0.66 33.188 0.098 6.95 6.16 13.95
1/15/2023 2:15:00 AM 0.63 33.134 0.098 6.95 6.32 13.96
1/15/2023 2:30:00 AM 0.61 33.098 0.098 6.95 6.69 13.97
1/15/2023 2:45:00 AM 0.57 33.026 0.098 6.96 6.35 13.98
1/15/2023 3:00:00 AM 0.54 32.972 0.098 6.96 6.57 13.99
1/15/2023 3:15:00 AM 0.5 32.9 0.098 6.96 6.41 14.01
1/15/2023 3:30:00 AM 0.47 32.846 0.098 6.93 6.25 14.01
1/15/2023 3:45:00 AM 0.44 32.792 0.098 6.96 6.45 14.02
1/15/2023 4:00:00 AM 0.42 32.756 0.099 6.95 6.32 14.03
1/15/2023 4:15:00 AM 0.39 32.702 0.099 6.94 6.6 14.04
1/15/2023 4:30:00 AM 0.37 32.666 0.099 6.96 6.07 14.05
1/15/2023 4:45:00 AM 0.35 32.63 0.099 6.95 6.58 14.06
1/15/2023 5:00:00 AM 0.33 32.594 0.099 6.96 5.91 14.06
1/15/2023 5:15:00 AM 0.3 32.54 0.099 6.96 5.92 14.07
1/15/2023 5:30:00 AM 0.27 32.486 0.099 6.96 6.19 14.08
1/15/2023 5:45:00 AM 0.24 32.432 0.099 6.94 6.14 14.09
1/15/2023 6:00:00 AM 0.21 32.378 0.099 6.95 6.03 14.1
1/15/2023 6:15:00 AM 0.18 32.324 0.099 6.96 5.86 14.11
1/15/2023 6:30:00 AM 0.15 32.27 0.099 6.93 5.81 14.12
1/15/2023 6:45:00 AM 0.12 32.216 0.099 6.97 5.99 14.12
1/15/2023 7:00:00 AM 0.08 32.144 0.099 6.96 5.44 14.14
1/15/2023 7:15:00 AM 0.05 32.09 0.099 6.93 5.65 14.15
1/15/2023 7:30:00 AM 0.02 32.036 0.099 6.94 5.91 14.15
1/15/2023 7:45:00 AM -0.01 31.982 0.1 6.94 6.05 14.17
1/15/2023 8:00:00 AM -0.04 31.928 0.1 6.96 5.73 14.19
1/15/2023 8:15:00 AM -0.05 31.91 0.1 6.95 5.95 14.21
1/15/2023 8:30:00 AM -0.05 31.91 0.1 6.95 5.64 14.23
1/15/2023 8:45:00 AM -0.03 31.946 0.1 6.97 5.86 14.26
1/15/2023 9:00:00 AM -0.02 31.964 0.1 6.95 5.68 14.28
1/15/2023 9:15:00 AM 0 32 0.1 6.96 5.68 14.3
1/15/2023 9:30:00 AM 0.03 32.054 0.1 6.96 5.69 14.32
1/15/2023 9:45:00 AM 0.06 32.108 0.1 6.97 5.7 14.35
1/15/2023 10:00:00 AM 0.08 32.144 0.1 6.96 5.71 14.38
1/15/2023 10:15:00 AM 0.12 32.216 0.1 6.99 5.39 14.39
1/15/2023 10:30:00 AM 0.15 32.27 0.1 7 5.06 14.42
1/15/2023 10:45:00 AM 0.21 32.378 0.1 6.98 5.29 14.44
1/15/2023 11:00:00 AM 0.26 32.468 0.1 6.99 5.51 14.46
1/15/2023 11:15:00 AM 0.3 32.54 0.1 7 5.44 14.47
1/15/2023 11:30:00 AM 0.33 32.594 0.099 7.01 5.35 14.48
1/15/2023 11:45:00 AM 0.36 32.648 0.1 7.03 5.37 14.49
1/15/2023 12:00:00 PM 0.38 32.684 0.1 7.03 5.12 14.49
1/15/2023 12:15:00 PM 0.43 32.774 0.1 7.02 5.38 14.49
1/15/2023 12:30:00 PM 0.5 32.9 0.1 7.02 5.17 14.49
1/15/2023 12:45:00 PM 0.56 33.008 0.1 7.04 5.17 14.48
1/15/2023 1:00:00 PM 0.66 33.188 0.1 7.03 4.86 14.47
1/15/2023 1:15:00 PM 0.75 33.35 0.1 7.05 5.32 14.46
1/15/2023 1:30:00 PM 0.83 33.494 0.1 7.04 4.84 14.44
1/15/2023 1:45:00 PM 0.93 33.674 0.1 7.06 4.98 14.42
1/15/2023 2:00:00 PM 0.99 33.782 0.1 7.07 5.25 14.4
1/15/2023 2:15:00 PM 1.06 33.908 0.1 7.05 5.3 14.39
1/15/2023 2:30:00 PM 1.12 34.016 0.101 7.06 4.98 14.37
1/15/2023 2:45:00 PM 1.17 34.106 0.101 7.08 5.24 14.35
1/15/2023 3:00:00 PM 1.21 34.178 0.101 7.08 5.45 14.32
1/15/2023 3:15:00 PM 1.23 34.214 0.101 7.06 4.98 14.3
1/15/2023 3:30:00 PM 1.24 34.232 0.101 7.08 4.9 14.28
1/15/2023 3:45:00 PM 1.25 34.25 0.101 7.05 5.32 14.26
1/15/2023 4:00:00 PM 1.26 34.268 0.101 7.06 4.72 14.23
1/15/2023 4:15:00 PM 1.27 34.286 0.102 7.07 5.24 14.19
1/15/2023 4:30:00 PM 1.28 34.304 0.102 7.08 4.94 14.16
1/15/2023 4:45:00 PM 1.28 34.304 0.102 7.07 4.82 14.12
1/15/2023 5:00:00 PM 1.28 34.304 0.102 7.06 4.84 14.09
1/15/2023 5:15:00 PM 1.27 34.286 0.102 7.06 4.71 14.07
1/15/2023 5:30:00 PM 1.25 34.25 0.102 7.04 4.97 14.04
1/15/2023 5:45:00 PM 1.21 34.178 0.102 7.06 4.83 14.03
1/15/2023 6:00:00 PM 1.17 34.106 0.102 7.06 4.74 14.02
1/15/2023 6:15:00 PM 1.14 34.052 0.103 7.04 4.89 14.01
1/15/2023 6:30:00 PM 1.1 33.98 0.103 7.05 4.89 14
1/15/2023 6:45:00 PM 1.07 33.926 0.103 7.04 5.02 13.99
1/15/2023 7:00:00 PM 1.04 33.872 0.103 7.04 5.06 13.99
1/15/2023 7:15:00 PM 1 33.8 0.104 7.04 5.16 13.99
1/15/2023 7:30:00 PM 0.98 33.764 0.104 7.02 5.02 13.98
1/15/2023 7:45:00 PM 0.97 33.746 0.103 7.03 4.7 13.97
1/15/2023 8:00:00 PM 0.96 33.728 0.103 7 5.09 13.96
1/15/2023 8:15:00 PM 0.96 33.728 0.103 7.03 4.86 13.95
1/15/2023 8:30:00 PM 0.95 33.71 0.103 7.02 4.93 13.94
1/15/2023 8:45:00 PM 0.95 33.71 0.103 6.99 4.87 13.92
1/15/2023 9:00:00 PM 0.93 33.674 0.103 7.01 4.93 13.92
1/15/2023 9:15:00 PM 0.91 33.638 0.103 6.98 4.71 13.92
1/15/2023 9:30:00 PM 0.88 33.584 0.103 7.01 4.84 13.92
1/15/2023 9:45:00 PM 0.87 33.566 0.103 7 4.64 13.92
1/15/2023 10:00:00 PM 0.85 33.53 0.103 7 4.96 13.92
1/15/2023 10:15:00 PM 0.82 33.476 0.103 6.99 4.85 13.92
1/15/2023 10:30:00 PM 0.8 33.44 0.103 7 4.75 13.93
1/15/2023 10:45:00 PM 0.76 33.368 0.103 6.99 4.98 13.93
1/15/2023 11:00:00 PM 0.73 33.314 0.103 7 4.97 13.94
1/15/2023 11:15:00 PM 0.71 33.278 0.103 6.97 5.38 13.94
1/15/2023 11:30:00 PM 0.68 33.224 0.103 6.98 5.11 13.96
1/15/2023 11:45:00 PM 0.64 33.152 0.102 6.97 5.4 13.96
1/16/2023 12:00:00 AM 0.59 33.062 0.101 6.97 5.48 13.97
1/16/2023 12:15:00 AM 0.55 32.99 0.101 6.96 5.46 13.99
1/16/2023 12:30:00 AM 0.51 32.918 0.101 6.97 5.89 13.99
1/16/2023 12:45:00 AM 0.49 32.882 0.1 6.94 6.4 14
1/16/2023 1:00:00 AM 0.46 32.828 0.1 6.95 6.25 14.01
1/16/2023 1:15:00 AM 0.42 32.756 0.1 6.96 6.24 14.01
1/16/2023 1:30:00 AM 0.38 32.684 0.1 6.95 5.72 14.02
1/16/2023 1:45:00 AM 0.34 32.612 0.1 6.96 6.04 14.03
1/16/2023 2:00:00 AM 0.3 32.54 0.1 6.95 6.07 14.04
1/16/2023 2:15:00 AM 0.26 32.468 0.1 6.93 6.06 14.05
1/16/2023 2:30:00 AM 0.22 32.396 0.1 6.95 5.81 14.06
1/16/2023 2:45:00 AM 0.17 32.306 0.1 6.95 5.8 14.07
1/16/2023 3:00:00 AM 0.13 32.234 0.1 6.94 5.69 14.08
1/16/2023 3:15:00 AM 0.08 32.144 0.1 6.93 5.72 14.09
1/16/2023 3:30:00 AM 0.03 32.054 0.101 6.93 5.67 14.1
1/16/2023 3:45:00 AM -0.02 31.964 0.101 6.92 5.57 14.11
1/16/2023 4:00:00 AM -0.06 31.892 0.101 6.94 5.58 14.12
1/16/2023 4:15:00 AM -0.09 31.838 0.101 6.93 4.95 14.13
1/16/2023 4:30:00 AM -0.08 31.856 0.102 6.93 5.46 14.14
1/16/2023 4:45:00 AM -0.08 31.856 0.103 6.94 5.14 14.14
1/16/2023 5:00:00 AM -0.08 31.856 0.104 6.93 4.88 14.13
1/16/2023 5:15:00 AM -0.08 31.856 0.104 6.94 5.27 14.14
1/16/2023 5:30:00 AM -0.07 31.874 0.105 6.92 5.69 14.14
1/16/2023 5:45:00 AM -0.07 31.874 0.105 6.92 5.34 14.14
1/16/2023 6:00:00 AM -0.07 31.874 0.106 6.93 5.45 14.14
1/16/2023 6:15:00 AM -0.07 31.874 0.106 6.91 4.95 14.14
1/16/2023 6:30:00 AM -0.07 31.874 0.106 6.94 4.9 14.14
1/16/2023 6:45:00 AM -0.07 31.874 0.107 6.93 4.87 14.15
1/16/2023 7:00:00 AM -0.07 31.874 0.107 6.94 4.89 14.15
1/16/2023 7:15:00 AM -0.07 31.874 0.107 6.94 4.53 14.15
1/16/2023 7:30:00 AM -0.07 31.874 0.108 6.91 4.78 14.14
1/16/2023 7:45:00 AM -0.07 31.874 0.108 6.94 4.79 14.13
1/16/2023 8:00:00 AM -0.07 31.874 0.108 6.93 4.89 14.14
1/16/2023 8:15:00 AM -0.06 31.892 0.109 6.92 5.1 14.15
1/16/2023 8:30:00 AM -0.06 31.892 0.109 6.94 4.37 14.17
1/16/2023 8:45:00 AM -0.06 31.892 0.109 6.95